<?xml version='1.0' encoding='UTF-8'?><gpx version="1.1" creator="JPX - https://github.com/jenetics/jpx" xmlns="http://www.topografix.com/GPX/1/1"><trk><trkseg><trkpt lat="45.96091156092397" lon="9.309807254135434"><ele>314.6666666666667</ele><time>2026-04-25T14:04:17.999Z</time></trkpt><trkpt lat="45.96083806974952" lon="9.309837847989863"><ele>314.3333333333333</ele><time>2026-04-25T14:04:54.001Z</time></trkpt><trkpt lat="45.96074122261267" lon="9.309857005523932"><ele>314.0</ele><time>2026-04-25T14:04:56.001Z</time></trkpt><trkpt lat="45.960675281392426" lon="9.309855455383879"><ele>313.66666666666663</ele><time>2026-04-25T14:04:57.001Z</time></trkpt><trkpt lat="45.96060487190213" lon="9.309861231285531"><ele>313.3333333333333</ele><time>2026-04-25T14:04:58.001Z</time></trkpt><trkpt lat="45.96053652717601" lon="9.309887370982219"><ele>313.0</ele><time>2026-04-25T14:04:59.001Z</time></trkpt><trkpt lat="45.960454550997724" lon="9.309905900161386"><ele>313.0</ele><time>2026-04-25T14:05:00.001Z</time></trkpt><trkpt lat="45.96038129430415" lon="9.309954498907183"><ele>313.0</ele><time>2026-04-25T14:05:01.001Z</time></trkpt><trkpt lat="45.96030602320441" lon="9.309980138872673"><ele>313.0</ele><time>2026-04-25T14:05:02.001Z</time></trkpt><trkpt lat="45.96021351792152" lon="9.309995154380747"><ele>313.0</ele><time>2026-04-25T14:05:03.001Z</time></trkpt><trkpt lat="45.96011485384893" lon="9.30998826145108"><ele>313.0</ele><time>2026-04-25T14:05:04.001Z</time></trkpt><trkpt lat="45.96000063823672" lon="9.309978267683585"><ele>311.66666666666663</ele><time>2026-04-25T14:05:05.001Z</time></trkpt><trkpt lat="45.95989489167289" lon="9.310009665963072"><ele>310.3333333333333</ele><time>2026-04-25T14:05:06.001Z</time></trkpt><trkpt lat="45.959824626298875" lon="9.310001767821534"><ele>309.0</ele><time>2026-04-25T14:05:07.001Z</time></trkpt><trkpt lat="45.959745573446035" lon="9.309995999912639"><ele>307.6666666666667</ele><time>2026-04-25T14:05:08.001Z</time></trkpt><trkpt lat="45.95965348573291" lon="9.310019201323696"><ele>306.33333333333337</ele><time>2026-04-25T14:05:09.001Z</time></trkpt><trkpt lat="45.95958031620697" lon="9.310055132450334"><ele>305.0</ele><time>2026-04-25T14:05:10.001Z</time></trkpt><trkpt lat="45.95946537492834" lon="9.310119039362641"><ele>305.0</ele><time>2026-04-25T14:05:12.001Z</time></trkpt><trkpt lat="45.959402440885675" lon="9.310147839287449"><ele>305.0</ele><time>2026-04-25T14:05:13.001Z</time></trkpt><trkpt lat="45.959306819317035" lon="9.31017660253698"><ele>305.0</ele><time>2026-04-25T14:05:15.001Z</time></trkpt><trkpt lat="45.95924121983954" lon="9.310168968635754"><ele>305.0</ele><time>2026-04-25T14:05:17.001Z</time></trkpt><trkpt lat="45.959201548207005" lon="9.310283817160006"><ele>305.0</ele><time>2026-04-25T14:05:19.001Z</time></trkpt><trkpt lat="45.95919833204242" lon="9.310437905373952"><ele>305.0</ele><time>2026-04-25T14:05:21.001Z</time></trkpt><trkpt lat="45.95923002254188" lon="9.310524376165143"><ele>308.2</ele><time>2026-04-25T14:05:23.001Z</time></trkpt><trkpt lat="45.9591968177668" lon="9.310601980994774"><ele>311.4</ele><time>2026-04-25T14:05:25.001Z</time></trkpt><trkpt lat="45.959104067895794" lon="9.310672262845822"><ele>314.6</ele><time>2026-04-25T14:05:27.001Z</time></trkpt><trkpt lat="45.95901495786359" lon="9.310720933525833"><ele>317.8</ele><time>2026-04-25T14:05:29.001Z</time></trkpt><trkpt lat="45.95892817573954" lon="9.310781679249548"><ele>321.0</ele><time>2026-04-25T14:05:31.001Z</time></trkpt><trkpt lat="45.958845284829934" lon="9.31088889563619"><ele>321.0</ele><time>2026-04-25T14:05:33.001Z</time></trkpt><trkpt lat="45.958796504162535" lon="9.311005185949861"><ele>321.0</ele><time>2026-04-25T14:05:35.001Z</time></trkpt><trkpt lat="45.95878160427545" lon="9.311119301198932"><ele>321.0</ele><time>2026-04-25T14:05:37.001Z</time></trkpt><trkpt lat="45.958785670748455" lon="9.311239193308472"><ele>321.0</ele><time>2026-04-25T14:05:39.001Z</time></trkpt><trkpt lat="45.95874783455131" lon="9.3113552361254"><ele>321.0</ele><time>2026-04-25T14:05:41.001Z</time></trkpt><trkpt lat="45.95867997650483" lon="9.311473602149695"><ele>324.4</ele><time>2026-04-25T14:05:43.001Z</time></trkpt><trkpt lat="45.95862252994254" lon="9.311587998393618"><ele>327.8</ele><time>2026-04-25T14:05:45.001Z</time></trkpt><trkpt lat="45.95856351720023" lon="9.311701894484072"><ele>331.2</ele><time>2026-04-25T14:05:47.001Z</time></trkpt><trkpt lat="45.958513619596744" lon="9.311851443111992"><ele>334.59999999999997</ele><time>2026-04-25T14:05:49.014Z</time></trkpt><trkpt lat="45.95847986774372" lon="9.31193466395271"><ele>338.0</ele><time>2026-04-25T14:05:50.016Z</time></trkpt><trkpt lat="45.95847008052999" lon="9.312127639374749"><ele>338.0</ele><time>2026-04-25T14:05:52.001Z</time></trkpt><trkpt lat="45.958300692768816" lon="9.31208865244717"><ele>338.0</ele><time>2026-04-25T14:05:53.001Z</time></trkpt><trkpt lat="45.95821508778515" lon="9.312055631532031"><ele>338.0</ele><time>2026-04-25T14:05:55.001Z</time></trkpt><trkpt lat="45.958074861070735" lon="9.312135988907212"><ele>338.0</ele><time>2026-04-25T14:05:57.001Z</time></trkpt><trkpt lat="45.95798071692051" lon="9.312137108710036"><ele>338.0</ele><time>2026-04-25T14:05:59.002Z</time></trkpt><trkpt lat="45.957893517669994" lon="9.312167754745337"><ele>338.0</ele><time>2026-04-25T14:06:01.002Z</time></trkpt><trkpt lat="45.95791894820933" lon="9.312290763005624"><ele>338.0</ele><time>2026-04-25T14:06:03.002Z</time></trkpt><trkpt lat="45.95793547721425" lon="9.31241299404033"><ele>338.0</ele><time>2026-04-25T14:06:05.001Z</time></trkpt><trkpt lat="45.95790162566559" lon="9.312534199336376"><ele>338.0</ele><time>2026-04-25T14:06:07.001Z</time></trkpt><trkpt lat="45.95789121795739" lon="9.312669224991389"><ele>340.6666666666667</ele><time>2026-04-25T14:06:09.001Z</time></trkpt><trkpt lat="45.95793818541062" lon="9.312770620760935"><ele>343.33333333333337</ele><time>2026-04-25T14:06:11.001Z</time></trkpt><trkpt lat="45.957918013238604" lon="9.312889836196561"><ele>346.0</ele><time>2026-04-25T14:06:14.001Z</time></trkpt><trkpt lat="45.95785289887556" lon="9.312943112628183"><ele>348.6666666666667</ele><time>2026-04-25T14:06:16.001Z</time></trkpt><trkpt lat="45.957773214123556" lon="9.312968072763097"><ele>351.3333333333333</ele><time>2026-04-25T14:06:18.001Z</time></trkpt><trkpt lat="45.95779010298385" lon="9.313060775775808"><ele>354.0</ele><time>2026-04-25T14:06:22.001Z</time></trkpt><trkpt lat="45.95788984927398" lon="9.313116255656768"><ele>358.2</ele><time>2026-04-25T14:06:25.001Z</time></trkpt><trkpt lat="45.9579521100395" lon="9.3131846806894"><ele>362.4</ele><time>2026-04-25T14:06:51Z</time></trkpt><trkpt lat="45.95800939051852" lon="9.313305783003905"><ele>366.6</ele><time>2026-04-25T14:06:54Z</time></trkpt><trkpt lat="45.95809248004212" lon="9.313387987902804"><ele>370.8</ele><time>2026-04-25T14:06:57Z</time></trkpt><trkpt lat="45.958187672054535" lon="9.313439339893616"><ele>375.0</ele><time>2026-04-25T14:06:59Z</time></trkpt><trkpt lat="45.95828797228384" lon="9.313425441938474"><ele>376.8</ele><time>2026-04-25T14:07:01Z</time></trkpt><trkpt lat="45.95837240415372" lon="9.31339907376697"><ele>378.6</ele><time>2026-04-25T14:07:02Z</time></trkpt><trkpt lat="45.95847745883408" lon="9.313377829345761"><ele>380.4</ele><time>2026-04-25T14:07:04Z</time></trkpt><trkpt lat="45.95856191065292" lon="9.313360201633245"><ele>382.2</ele><time>2026-04-25T14:07:06Z</time></trkpt><trkpt lat="45.95865533655158" lon="9.313326068835135"><ele>384.0</ele><time>2026-04-25T14:07:09Z</time></trkpt><trkpt lat="45.9587350287182" lon="9.313319818798714"><ele>384.0</ele><time>2026-04-25T14:07:11Z</time></trkpt><trkpt lat="45.95880806078407" lon="9.313305453401618"><ele>384.0</ele><time>2026-04-25T14:07:13Z</time></trkpt><trkpt lat="45.95888148333455" lon="9.313320936341931"><ele>384.0</ele><time>2026-04-25T14:07:15Z</time></trkpt><trkpt lat="45.95895450152463" lon="9.313313528800956"><ele>384.0</ele><time>2026-04-25T14:07:17Z</time></trkpt><trkpt lat="45.959011078837705" lon="9.313372030140526"><ele>384.0</ele><time>2026-04-25T14:07:19Z</time></trkpt><trkpt lat="45.959123220932995" lon="9.313387880982663"><ele>384.0</ele><time>2026-04-25T14:07:23Z</time></trkpt><trkpt lat="45.95917940615041" lon="9.313332142021522"><ele>386.8333333333333</ele><time>2026-04-25T14:07:24Z</time></trkpt><trkpt lat="45.95923122407915" lon="9.31326923507254"><ele>389.66666666666663</ele><time>2026-04-25T14:07:27Z</time></trkpt><trkpt lat="45.959304492503556" lon="9.313180953588859"><ele>392.5</ele><time>2026-04-25T14:07:29Z</time></trkpt><trkpt lat="45.95937807783877" lon="9.313202293148338"><ele>395.3333333333333</ele><time>2026-04-25T14:07:30Z</time></trkpt><trkpt lat="45.95947428843326" lon="9.313149266400458"><ele>398.16666666666663</ele><time>2026-04-25T14:07:32Z</time></trkpt><trkpt lat="45.959558669572736" lon="9.31308191093906"><ele>401.0</ele><time>2026-04-25T14:07:34Z</time></trkpt><trkpt lat="45.959646745765475" lon="9.31308500369699"><ele>401.0</ele><time>2026-04-25T14:07:36Z</time></trkpt><trkpt lat="45.95973077000387" lon="9.313127406917525"><ele>401.0</ele><time>2026-04-25T14:07:38Z</time></trkpt><trkpt lat="45.95982940517926" lon="9.313179791281224"><ele>401.0</ele><time>2026-04-25T14:07:40Z</time></trkpt><trkpt lat="45.95991514767769" lon="9.313198147502005"><ele>401.0</ele><time>2026-04-25T14:07:42Z</time></trkpt><trkpt lat="45.95995651511761" lon="9.313092464204907"><ele>401.0</ele><time>2026-04-25T14:07:44Z</time></trkpt><trkpt lat="45.95998158907272" lon="9.312892388335275"><ele>398.66666666666663</ele><time>2026-04-25T14:07:47Z</time></trkpt><trkpt lat="45.960009901044735" lon="9.312784579452305"><ele>396.3333333333333</ele><time>2026-04-25T14:07:49Z</time></trkpt><trkpt lat="45.96007496414041" lon="9.312687522972904"><ele>394.0</ele><time>2026-04-25T14:07:51Z</time></trkpt><trkpt lat="45.9601560791656" lon="9.312679427774277"><ele>391.66666666666663</ele><time>2026-04-25T14:07:53Z</time></trkpt><trkpt lat="45.960248467677836" lon="9.312635417052658"><ele>389.3333333333333</ele><time>2026-04-25T14:07:55Z</time></trkpt><trkpt lat="45.96032660607637" lon="9.31260200518166"><ele>387.0</ele><time>2026-04-25T14:07:57Z</time></trkpt><trkpt lat="45.96040917634783" lon="9.312561886562333"><ele>387.0</ele><time>2026-04-25T14:08:00Z</time></trkpt><trkpt lat="45.96047854576389" lon="9.312570698540165"><ele>387.0</ele><time>2026-04-25T14:08:02Z</time></trkpt><trkpt lat="45.96054206703837" lon="9.312579973935497"><ele>387.0</ele><time>2026-04-25T14:08:04.001Z</time></trkpt><trkpt lat="45.96060033225747" lon="9.312620356721977"><ele>387.0</ele><time>2026-04-25T14:08:07.001Z</time></trkpt><trkpt lat="45.960657534898985" lon="9.31252673180212"><ele>387.0</ele><time>2026-04-25T14:08:09.001Z</time></trkpt><trkpt lat="45.960671065644725" lon="9.312435751600278"><ele>387.0</ele><time>2026-04-25T14:08:13.001Z</time></trkpt><trkpt lat="45.96068606379529" lon="9.312342389360538"><ele>387.0</ele><time>2026-04-25T14:08:17Z</time></trkpt><trkpt lat="45.96075564687621" lon="9.312323147742537"><ele>387.0</ele><time>2026-04-25T14:08:19Z</time></trkpt><trkpt lat="45.96081609604581" lon="9.312292515012789"><ele>387.0</ele><time>2026-04-25T14:08:23Z</time></trkpt><trkpt lat="45.9608813287385" lon="9.312273060561203"><ele>387.0</ele><time>2026-04-25T14:08:27Z</time></trkpt><trkpt lat="45.96094234554665" lon="9.312236344867399"><ele>387.0</ele><time>2026-04-25T14:08:31Z</time></trkpt><trkpt lat="45.960992236721154" lon="9.31215887960883"><ele>387.0</ele><time>2026-04-25T14:08:35Z</time></trkpt><trkpt lat="45.96102751539148" lon="9.312072655573768"><ele>387.0</ele><time>2026-04-25T14:08:37Z</time></trkpt><trkpt lat="45.96105131383128" lon="9.311970418588134"><ele>387.0</ele><time>2026-04-25T14:08:40Z</time></trkpt><trkpt lat="45.96111996785317" lon="9.311950000129567"><ele>383.6666666666667</ele><time>2026-04-25T14:08:44Z</time></trkpt><trkpt lat="45.96118178699704" lon="9.311886801876827"><ele>380.3333333333333</ele><time>2026-04-25T14:08:47Z</time></trkpt><trkpt lat="45.96123878665978" lon="9.31181568613265"><ele>377.0</ele><time>2026-04-25T14:08:50Z</time></trkpt><trkpt lat="45.961325403720174" lon="9.311713465253673"><ele>373.66666666666663</ele><time>2026-04-25T14:08:52Z</time></trkpt><trkpt lat="45.961386337178936" lon="9.311640753484523"><ele>370.3333333333333</ele><time>2026-04-25T14:08:54Z</time></trkpt><trkpt lat="45.961448965121" lon="9.311576834621892"><ele>367.0</ele><time>2026-04-25T14:08:56Z</time></trkpt><trkpt lat="45.961526419831635" lon="9.311524444565"><ele>365.3333333333333</ele><time>2026-04-25T14:08:59Z</time></trkpt><trkpt lat="45.96156170260002" lon="9.311393038773883"><ele>363.66666666666663</ele><time>2026-04-25T14:09:01Z</time></trkpt><trkpt lat="45.96162885192322" lon="9.311319923043046"><ele>362.0</ele><time>2026-04-25T14:09:57Z</time></trkpt><trkpt lat="45.96171264948752" lon="9.311312154465393"><ele>360.3333333333333</ele><time>2026-04-25T14:11:00Z</time></trkpt><trkpt lat="45.961767817315135" lon="9.31140373966363"><ele>358.6666666666667</ele><time>2026-04-25T14:11:02Z</time></trkpt><trkpt lat="45.961839301356775" lon="9.311369974950113"><ele>357.0</ele><time>2026-04-25T14:11:08Z</time></trkpt><trkpt lat="45.961908612943134" lon="9.31144191586205"><ele>357.0</ele><time>2026-04-25T14:11:12Z</time></trkpt><trkpt lat="45.9618806142686" lon="9.311525090195035"><ele>357.0</ele><time>2026-04-25T14:11:16Z</time></trkpt><trkpt lat="45.96182495501588" lon="9.311611190255858"><ele>357.0</ele><time>2026-04-25T14:11:18Z</time></trkpt><trkpt lat="45.961784705919" lon="9.311687238398862"><ele>357.0</ele><time>2026-04-25T14:11:20Z</time></trkpt><trkpt lat="45.96182966086092" lon="9.311767549123678"><ele>357.0</ele><time>2026-04-25T14:11:26Z</time></trkpt><trkpt lat="45.96187063371644" lon="9.311841750779347"><ele>357.0</ele><time>2026-04-25T14:11:27Z</time></trkpt><trkpt lat="45.96188947640934" lon="9.311944695612112"><ele>357.0</ele><time>2026-04-25T14:11:30Z</time></trkpt><trkpt lat="45.9618318463092" lon="9.312011350168708"><ele>357.0</ele><time>2026-04-25T14:11:34Z</time></trkpt><trkpt lat="45.961772520301714" lon="9.31207321519148"><ele>357.0</ele><time>2026-04-25T14:11:41Z</time></trkpt><trkpt lat="45.961801128233034" lon="9.31216222034066"><ele>357.0</ele><time>2026-04-25T14:13:42Z</time></trkpt><trkpt lat="45.961732284117275" lon="9.312157485424077"><ele>357.0</ele><time>2026-04-25T14:16:26Z</time></trkpt><trkpt lat="45.96169619572044" lon="9.312082160095997"><ele>357.0</ele><time>2026-04-25T14:16:31Z</time></trkpt><trkpt lat="45.9616115696642" lon="9.312105187434797"><ele>357.0</ele><time>2026-04-25T14:18:23Z</time></trkpt><trkpt lat="45.96158088616484" lon="9.312192000323277"><ele>357.0</ele><time>2026-04-25T14:19:26Z</time></trkpt><trkpt lat="45.961512587510015" lon="9.312251127914008"><ele>363.3333333333333</ele><time>2026-04-25T14:19:53Z</time></trkpt><trkpt lat="45.96146032948594" lon="9.312339054260415"><ele>369.66666666666663</ele><time>2026-04-25T14:19:56Z</time></trkpt><trkpt lat="45.96143731235068" lon="9.312450165322407"><ele>376.0</ele><time>2026-04-25T14:20:00Z</time></trkpt><trkpt lat="45.961490351667166" lon="9.312524238859444"><ele>382.3333333333333</ele><time>2026-04-25T14:20:02Z</time></trkpt><trkpt lat="45.96151372845828" lon="9.312620435438019"><ele>388.66666666666663</ele><time>2026-04-25T14:20:37.999Z</time></trkpt><trkpt lat="45.96157644383778" lon="9.312699674106552"><ele>395.0</ele><time>2026-04-25T14:20:41Z</time></trkpt><trkpt lat="45.96161726590509" lon="9.312793544140838"><ele>394.99999999999994</ele><time>2026-04-25T14:20:44Z</time></trkpt><trkpt lat="45.96168722696714" lon="9.312777344660756"><ele>395.0</ele><time>2026-04-25T14:20:47Z</time></trkpt><trkpt lat="45.96171586058794" lon="9.312859571588115"><ele>395.0</ele><time>2026-04-25T14:20:49Z</time></trkpt><trkpt lat="45.96177876931557" lon="9.31298378280071"><ele>395.0</ele><time>2026-04-25T14:20:53Z</time></trkpt><trkpt lat="45.961815797630685" lon="9.313063307866576"><ele>394.99999999999994</ele><time>2026-04-25T14:20:57Z</time></trkpt><trkpt lat="45.96184242106843" lon="9.313186235118685"><ele>395.0</ele><time>2026-04-25T14:21:12Z</time></trkpt><trkpt lat="45.961895890719774" lon="9.313300485854043"><ele>397.3333333333333</ele><time>2026-04-25T14:21:16Z</time></trkpt><trkpt lat="45.961940282511996" lon="9.313396098419961"><ele>399.66666666666663</ele><time>2026-04-25T14:21:19Z</time></trkpt><trkpt lat="45.96197200559744" lon="9.31347791691875"><ele>402.0</ele><time>2026-04-25T14:21:21Z</time></trkpt><trkpt lat="45.96201100877533" lon="9.313597631780166"><ele>404.33333333333337</ele><time>2026-04-25T14:21:23Z</time></trkpt><trkpt lat="45.96202617940621" lon="9.313725616045842"><ele>406.6666666666667</ele><time>2026-04-25T14:21:27Z</time></trkpt><trkpt lat="45.96201304515386" lon="9.313818856411297"><ele>409.0</ele><time>2026-04-25T14:21:31Z</time></trkpt><trkpt lat="45.96203331890415" lon="9.313909967611837"><ele>414.50000000000006</ele><time>2026-04-25T14:21:34Z</time></trkpt><trkpt lat="45.9620505892057" lon="9.314037784492772"><ele>420.0</ele><time>2026-04-25T14:21:43Z</time></trkpt><trkpt lat="45.962080389769795" lon="9.314135342712452"><ele>425.5</ele><time>2026-04-25T14:21:45Z</time></trkpt><trkpt lat="45.9621285982184" lon="9.31425145421211"><ele>431.0</ele><time>2026-04-25T14:21:50Z</time></trkpt><trkpt lat="45.96217233959065" lon="9.314330727414214"><ele>436.50000000000006</ele><time>2026-04-25T14:21:53Z</time></trkpt><trkpt lat="45.96218991439813" lon="9.314437218094826"><ele>442.0</ele><time>2026-04-25T14:26:06Z</time></trkpt><trkpt lat="45.96225213662117" lon="9.314484012385993"><ele>442.00000000000006</ele><time>2026-04-25T14:26:09Z</time></trkpt><trkpt lat="45.96231541921894" lon="9.314556040978259"><ele>442.0</ele><time>2026-04-25T14:26:12Z</time></trkpt><trkpt lat="45.96241089042138" lon="9.314609926677218"><ele>442.0</ele><time>2026-04-25T14:27:12Z</time></trkpt><trkpt lat="45.96242581420396" lon="9.314701676135071"><ele>442.0</ele><time>2026-04-25T14:27:26Z</time></trkpt><trkpt lat="45.96250375335462" lon="9.314780471860182"><ele>442.00000000000006</ele><time>2026-04-25T14:28:02Z</time></trkpt><trkpt lat="45.96250421038922" lon="9.314872128703911"><ele>442.0</ele><time>2026-04-25T14:28:18Z</time></trkpt><trkpt lat="45.96250607716396" lon="9.314779517888022"><ele>442.0</ele><time>2026-04-25T14:28:38Z</time></trkpt><trkpt lat="45.96256461740681" lon="9.314850521812152"><ele>442.00000000000006</ele><time>2026-04-25T14:28:43Z</time></trkpt><trkpt lat="45.96250208133094" lon="9.31483077285787"><ele>442.00000000000006</ele><time>2026-04-25T14:29:05Z</time></trkpt><trkpt lat="45.962438897001086" lon="9.314762391434911"><ele>442.0</ele><time>2026-04-25T14:29:14Z</time></trkpt><trkpt lat="45.962400817034855" lon="9.314668252196707"><ele>442.0</ele><time>2026-04-25T14:29:17Z</time></trkpt><trkpt lat="45.96306238320255" lon="9.314955950521984"><ele>447.83333333333337</ele><time>2026-04-25T14:38:56.999Z</time></trkpt><trkpt lat="45.9631278242848" lon="9.315051455693808"><ele>453.6666666666667</ele><time>2026-04-25T14:38:58.999Z</time></trkpt><trkpt lat="45.96306457429473" lon="9.315059338683211"><ele>459.5</ele><time>2026-04-25T14:39:46Z</time></trkpt><trkpt lat="45.96301805026661" lon="9.314995542472818"><ele>465.33333333333337</ele><time>2026-04-25T14:40:10Z</time></trkpt><trkpt lat="45.96295644939708" lon="9.314939412436983"><ele>471.1666666666667</ele><time>2026-04-25T14:40:14Z</time></trkpt><trkpt lat="45.96300657378954" lon="9.315021567576117"><ele>477.0</ele><time>2026-04-25T14:40:19Z</time></trkpt><trkpt lat="45.96308502206579" lon="9.314962615443841"><ele>477.0</ele><time>2026-04-25T14:40:23Z</time></trkpt><trkpt lat="45.96314710752671" lon="9.31488623697342"><ele>477.0</ele><time>2026-04-25T14:40:29Z</time></trkpt><trkpt lat="45.96319523324597" lon="9.314804481990226"><ele>477.0</ele><time>2026-04-25T14:40:31Z</time></trkpt><trkpt lat="45.96330230966069" lon="9.31485910433492"><ele>477.0</ele><time>2026-04-25T14:40:32Z</time></trkpt><trkpt lat="45.96336866721484" lon="9.314910323032716"><ele>477.0</ele><time>2026-04-25T14:40:34Z</time></trkpt><trkpt lat="45.96344044650208" lon="9.31499082788114"><ele>477.0</ele><time>2026-04-25T14:40:39Z</time></trkpt><trkpt lat="45.963520317896396" lon="9.315022143348564"><ele>473.40000000000003</ele><time>2026-04-25T14:40:41Z</time></trkpt><trkpt lat="45.963611118537" lon="9.315104527011385"><ele>469.80000000000007</ele><time>2026-04-25T14:40:43Z</time></trkpt><trkpt lat="45.96365136816725" lon="9.315215405527011"><ele>466.2</ele><time>2026-04-25T14:40:45Z</time></trkpt><trkpt lat="45.96374648486396" lon="9.315258095637313"><ele>462.6</ele><time>2026-04-25T14:40:47Z</time></trkpt><trkpt lat="45.9638035265512" lon="9.315341669854309"><ele>459.0</ele><time>2026-04-25T14:40:49Z</time></trkpt><trkpt lat="45.963883424624576" lon="9.315376126956934"><ele>459.0</ele><time>2026-04-25T14:40:51Z</time></trkpt><trkpt lat="45.96394008344721" lon="9.315332825284619"><ele>459.0</ele><time>2026-04-25T14:40:57Z</time></trkpt><trkpt lat="45.963999474583424" lon="9.315364444670905"><ele>459.0</ele><time>2026-04-25T14:41:00Z</time></trkpt><trkpt lat="45.96407587559113" lon="9.31533268692442"><ele>459.0</ele><time>2026-04-25T14:41:05Z</time></trkpt><trkpt lat="45.96411731689207" lon="9.315252445047804"><ele>459.0</ele><time>2026-04-25T14:41:07Z</time></trkpt><trkpt lat="45.964191405401905" lon="9.31527432199654"><ele>459.0</ele><time>2026-04-25T14:41:09Z</time></trkpt><trkpt lat="45.96428609618456" lon="9.315275445747478"><ele>459.0</ele><time>2026-04-25T14:41:11Z</time></trkpt><trkpt lat="45.96436025937905" lon="9.31527695000041"><ele>459.8333333333333</ele><time>2026-04-25T14:41:13Z</time></trkpt><trkpt lat="45.96441889161914" lon="9.315330486640725"><ele>460.66666666666663</ele><time>2026-04-25T14:41:14Z</time></trkpt><trkpt lat="45.96445433051242" lon="9.315408602685343"><ele>461.5</ele><time>2026-04-25T14:41:16Z</time></trkpt><trkpt lat="45.96452232792465" lon="9.315436221100184"><ele>462.3333333333333</ele><time>2026-04-25T14:41:20Z</time></trkpt><trkpt lat="45.96463059353741" lon="9.315487216271709"><ele>463.16666666666663</ele><time>2026-04-25T14:42:41Z</time></trkpt><trkpt lat="45.964693262375114" lon="9.315500773960569"><ele>464.0</ele><time>2026-04-25T14:42:59Z</time></trkpt><trkpt lat="45.964757538005486" lon="9.315602400495262"><ele>470.8571428571429</ele><time>2026-04-25T14:43:03Z</time></trkpt><trkpt lat="45.9648084905558" lon="9.315663992301198"><ele>477.7142857142857</ele><time>2026-04-25T14:43:08Z</time></trkpt><trkpt lat="45.96485712105781" lon="9.315728394117647"><ele>484.57142857142856</ele><time>2026-04-25T14:43:19Z</time></trkpt><trkpt lat="45.96493099393418" lon="9.315768102177488"><ele>491.42857142857144</ele><time>2026-04-25T14:43:36Z</time></trkpt><trkpt lat="45.96486714540867" lon="9.31579057234897"><ele>498.2857142857142</ele><time>2026-04-25T14:43:52Z</time></trkpt><trkpt lat="45.964821826206055" lon="9.315705163724848"><ele>505.1428571428571</ele><time>2026-04-25T14:43:57Z</time></trkpt><trkpt lat="45.96487997042323" lon="9.315741759882181"><ele>512.0</ele><time>2026-04-25T14:44:24Z</time></trkpt><trkpt lat="45.96497119211389" lon="9.315787392522921"><ele>513.5714285714286</ele><time>2026-04-25T14:44:34Z</time></trkpt><trkpt lat="45.96503073997753" lon="9.315858496825408"><ele>515.1428571428571</ele><time>2026-04-25T14:44:38Z</time></trkpt><trkpt lat="45.96509448239492" lon="9.315891161093747"><ele>516.7142857142857</ele><time>2026-04-25T14:44:48Z</time></trkpt><trkpt lat="45.96515836339164" lon="9.315931903548883"><ele>518.2857142857142</ele><time>2026-04-25T14:44:57Z</time></trkpt><trkpt lat="45.965221153787844" lon="9.315943994971425"><ele>519.8571428571429</ele><time>2026-04-25T14:45:21Z</time></trkpt><trkpt lat="45.96529024154465" lon="9.315977419258365"><ele>521.4285714285713</ele><time>2026-04-25T14:45:36Z</time></trkpt><trkpt lat="45.965365573609006" lon="9.316010920726658"><ele>523.0</ele><time>2026-04-25T14:46:02Z</time></trkpt><trkpt lat="45.965282780728295" lon="9.315973296588304"><ele>523.0</ele><time>2026-04-25T14:46:18Z</time></trkpt><trkpt lat="45.96521993592447" lon="9.315935915582186"><ele>523.0</ele><time>2026-04-25T14:46:22Z</time></trkpt><trkpt lat="45.965144027321884" lon="9.315933337419564"><ele>523.0</ele><time>2026-04-25T14:46:25Z</time></trkpt><trkpt lat="45.96507065863992" lon="9.315873570428248"><ele>523.0</ele><time>2026-04-25T14:46:30Z</time></trkpt><trkpt lat="45.96500959987314" lon="9.315836353955905"><ele>523.0</ele><time>2026-04-25T14:46:33Z</time></trkpt><trkpt lat="45.96492486033884" lon="9.315795959460997"><ele>523.0</ele><time>2026-04-25T14:46:37Z</time></trkpt><trkpt lat="45.964860888979935" lon="9.315752629509385"><ele>521.1666666666667</ele><time>2026-04-25T14:46:41Z</time></trkpt><trkpt lat="45.96480258373305" lon="9.315691106857479"><ele>519.3333333333334</ele><time>2026-04-25T14:46:51Z</time></trkpt><trkpt lat="45.96473618551318" lon="9.31562833607613"><ele>517.5</ele><time>2026-04-25T14:47:01Z</time></trkpt><trkpt lat="45.96466062524216" lon="9.315563957681059"><ele>515.6666666666666</ele><time>2026-04-25T14:47:19.999Z</time></trkpt><trkpt lat="45.96474162119818" lon="9.315563403751039"><ele>513.8333333333333</ele><time>2026-04-25T14:50:37Z</time></trkpt><trkpt lat="45.96468715019148" lon="9.315623180154551"><ele>512.0</ele><time>2026-04-25T14:51:20Z</time></trkpt><trkpt lat="45.96463141894048" lon="9.315567552870064"><ele>503.99999999999994</ele><time>2026-04-25T14:51:34.999Z</time></trkpt><trkpt lat="45.96456040434882" lon="9.315535930026606"><ele>496.0</ele><time>2026-04-25T14:51:38Z</time></trkpt><trkpt lat="45.96451949928813" lon="9.315387655499425"><ele>488.0</ele><time>2026-04-25T14:51:41Z</time></trkpt><trkpt lat="45.96446519584417" lon="9.315326651338655"><ele>480.0</ele><time>2026-04-25T14:51:43Z</time></trkpt><trkpt lat="45.96436738116872" lon="9.315300452581216"><ele>471.99999999999994</ele><time>2026-04-25T14:51:45Z</time></trkpt><trkpt lat="45.96429259748333" lon="9.315314917839398"><ele>464.0</ele><time>2026-04-25T14:51:47Z</time></trkpt><trkpt lat="45.96422777720585" lon="9.315326327353942"><ele>463.16666666666663</ele><time>2026-04-25T14:51:49Z</time></trkpt><trkpt lat="45.964167892566586" lon="9.315380653752781"><ele>462.3333333333333</ele><time>2026-04-25T14:52:04Z</time></trkpt><trkpt lat="45.964080492582944" lon="9.315410814136994"><ele>461.5</ele><time>2026-04-25T14:52:07Z</time></trkpt><trkpt lat="45.963981306158246" lon="9.315407888457061"><ele>460.66666666666663</ele><time>2026-04-25T14:52:10Z</time></trkpt><trkpt lat="45.96390607183267" lon="9.31546335643434"><ele>459.8333333333333</ele><time>2026-04-25T14:52:13Z</time></trkpt><trkpt lat="45.96384588468667" lon="9.315382693827713"><ele>459.0</ele><time>2026-04-25T14:52:18Z</time></trkpt><trkpt lat="45.963767442828974" lon="9.31532591507031"><ele>459.0</ele><time>2026-04-25T14:52:20Z</time></trkpt><trkpt lat="45.96370007587411" lon="9.315294449491498"><ele>459.0</ele><time>2026-04-25T14:52:23Z</time></trkpt><trkpt lat="45.963671457523176" lon="9.315201702543655"><ele>459.0</ele><time>2026-04-25T14:52:25Z</time></trkpt><trkpt lat="45.96360225160322" lon="9.315143017153016"><ele>459.0</ele><time>2026-04-25T14:52:27Z</time></trkpt><trkpt lat="45.96353770209684" lon="9.31509841867034"><ele>459.0</ele><time>2026-04-25T14:52:31Z</time></trkpt><trkpt lat="45.96348175556579" lon="9.315041033820597"><ele>459.0</ele><time>2026-04-25T14:52:51Z</time></trkpt><trkpt lat="45.96344360872283" lon="9.314948034782828"><ele>459.0</ele><time>2026-04-25T14:52:53Z</time></trkpt><trkpt lat="45.963374980149666" lon="9.314907988030088"><ele>462.0</ele><time>2026-04-25T14:52:57Z</time></trkpt><trkpt lat="45.96330314890499" lon="9.314905020524389"><ele>465.0</ele><time>2026-04-25T14:53:02Z</time></trkpt><trkpt lat="45.96322980451181" lon="9.31491749621108"><ele>468.0</ele><time>2026-04-25T14:53:05Z</time></trkpt><trkpt lat="45.96316201524214" lon="9.31500005178395"><ele>471.0</ele><time>2026-04-25T14:53:10Z</time></trkpt><trkpt lat="45.963095393995054" lon="9.315049401959133"><ele>474.0</ele><time>2026-04-25T14:53:14Z</time></trkpt><trkpt lat="45.96302219302825" lon="9.315045595019464"><ele>477.0</ele><time>2026-04-25T14:53:16Z</time></trkpt><trkpt lat="45.96298965550032" lon="9.314948777166084"><ele>477.0</ele><time>2026-04-25T14:53:18Z</time></trkpt><trkpt lat="45.96290086751086" lon="9.314954229106377"><ele>477.0</ele><time>2026-04-25T14:53:23Z</time></trkpt><trkpt lat="45.96284453010525" lon="9.315014196045182"><ele>477.0</ele><time>2026-04-25T14:53:24.001Z</time></trkpt><trkpt lat="45.962766505977996" lon="9.314973295416946"><ele>477.0</ele><time>2026-04-25T14:53:27.001Z</time></trkpt><trkpt lat="45.96270257081834" lon="9.31486796308043"><ele>477.0</ele><time>2026-04-25T14:53:30Z</time></trkpt><trkpt lat="45.962656543765554" lon="9.314931829315118"><ele>477.0</ele><time>2026-04-25T14:53:37Z</time></trkpt><trkpt lat="45.96260782238959" lon="9.314841001020197"><ele>477.0</ele><time>2026-04-25T14:53:47Z</time></trkpt><trkpt lat="45.9625426998022" lon="9.314807919790503"><ele>477.0</ele><time>2026-04-25T14:53:50Z</time></trkpt><trkpt lat="45.962465462141346" lon="9.314774905721414"><ele>477.0</ele><time>2026-04-25T14:53:54Z</time></trkpt><trkpt lat="45.96239181257011" lon="9.314756377694097"><ele>477.0</ele><time>2026-04-25T14:53:57Z</time></trkpt><trkpt lat="45.962368976963425" lon="9.314649451273594"><ele>477.0</ele><time>2026-04-25T14:54:00Z</time></trkpt><trkpt lat="45.96229275022304" lon="9.314552747873883"><ele>477.0</ele><time>2026-04-25T14:54:03Z</time></trkpt><trkpt lat="45.96223249826925" lon="9.31447148142076"><ele>471.1666666666667</ele><time>2026-04-25T14:54:06Z</time></trkpt><trkpt lat="45.96217254531489" lon="9.31439161067523"><ele>465.33333333333337</ele><time>2026-04-25T14:54:09Z</time></trkpt><trkpt lat="45.96212918944151" lon="9.31425279840694"><ele>459.5</ele><time>2026-04-25T14:54:15Z</time></trkpt><trkpt lat="45.96209241493754" lon="9.314167469055615"><ele>453.6666666666667</ele><time>2026-04-25T14:54:18Z</time></trkpt><trkpt lat="45.962076393585846" lon="9.31407115008306"><ele>447.83333333333337</ele><time>2026-04-25T14:54:21Z</time></trkpt><trkpt lat="45.96205016104019" lon="9.313920383585394"><ele>442.0</ele><time>2026-04-25T14:54:24Z</time></trkpt><trkpt lat="45.96203114013125" lon="9.313815437661582"><ele>437.28571428571433</ele><time>2026-04-25T14:54:30Z</time></trkpt><trkpt lat="45.96200241269203" lon="9.313718560436966"><ele>432.57142857142856</ele><time>2026-04-25T14:54:32Z</time></trkpt><trkpt lat="45.96200695117736" lon="9.313614184959487"><ele>427.8571428571429</ele><time>2026-04-25T14:54:36Z</time></trkpt><trkpt lat="45.96197936583033" lon="9.313528026707734"><ele>423.14285714285717</ele><time>2026-04-25T14:54:40Z</time></trkpt><trkpt lat="45.96196449842402" lon="9.313424073082123"><ele>418.42857142857144</ele><time>2026-04-25T14:54:42Z</time></trkpt><trkpt lat="45.961929701488486" lon="9.313329687103803"><ele>413.7142857142857</ele><time>2026-04-25T14:54:45Z</time></trkpt><trkpt lat="45.96187635918185" lon="9.313263360535204"><ele>409.0</ele><time>2026-04-25T14:54:47Z</time></trkpt><trkpt lat="45.96183621276457" lon="9.31317123825886"><ele>409.0</ele><time>2026-04-25T14:54:49Z</time></trkpt><trkpt lat="45.96180052499385" lon="9.313090008670313"><ele>409.0</ele><time>2026-04-25T14:54:53Z</time></trkpt><trkpt lat="45.96176114659355" lon="9.313013208361273"><ele>409.0</ele><time>2026-04-25T14:54:57.001Z</time></trkpt><trkpt lat="45.961713943884995" lon="9.312942564198178"><ele>409.0</ele><time>2026-04-25T14:55:01.001Z</time></trkpt><trkpt lat="45.961697530752204" lon="9.312820790502679"><ele>409.0</ele><time>2026-04-25T14:55:28.001Z</time></trkpt><trkpt lat="45.96163992385118" lon="9.312733279811038"><ele>409.0</ele><time>2026-04-25T14:55:33.001Z</time></trkpt><trkpt lat="45.96159302241376" lon="9.312644184256413"><ele>409.0</ele><time>2026-04-25T14:55:36Z</time></trkpt><trkpt lat="45.961534016382906" lon="9.312556928098871"><ele>407.0</ele><time>2026-04-25T14:55:39Z</time></trkpt><trkpt lat="45.961492576801966" lon="9.31246286884542"><ele>405.0</ele><time>2026-04-25T14:55:41Z</time></trkpt><trkpt lat="45.96149603595936" lon="9.312349953787333"><ele>403.0</ele><time>2026-04-25T14:55:43Z</time></trkpt><trkpt lat="45.96155705774536" lon="9.312296358344161"><ele>401.0</ele><time>2026-04-25T14:55:49Z</time></trkpt><trkpt lat="45.96160221251571" lon="9.312226373171258"><ele>399.0</ele><time>2026-04-25T14:55:53Z</time></trkpt><trkpt lat="45.96163609286408" lon="9.312142977000518"><ele>397.0</ele><time>2026-04-25T14:55:56Z</time></trkpt><trkpt lat="45.96169716247645" lon="9.31207699561254"><ele>395.0</ele><time>2026-04-25T14:56:02Z</time></trkpt><trkpt lat="45.96176716245466" lon="9.312124553586683"><ele>387.4</ele><time>2026-04-25T14:56:12Z</time></trkpt><trkpt lat="45.9618559457591" lon="9.312061185590077"><ele>379.8</ele><time>2026-04-25T14:56:18Z</time></trkpt><trkpt lat="45.961817107103386" lon="9.311943548867745"><ele>372.20000000000005</ele><time>2026-04-25T14:56:21Z</time></trkpt><trkpt lat="45.96180348199563" lon="9.311843170711347"><ele>364.6</ele><time>2026-04-25T14:56:24Z</time></trkpt><trkpt lat="45.961862850967904" lon="9.311707222184186"><ele>357.0</ele><time>2026-04-25T14:56:30Z</time></trkpt><trkpt lat="45.961914536803874" lon="9.311616856325076"><ele>357.0</ele><time>2026-04-25T14:56:31Z</time></trkpt><trkpt lat="45.961930203674754" lon="9.311524778593553"><ele>357.0</ele><time>2026-04-25T14:56:39Z</time></trkpt><trkpt lat="45.96199400124787" lon="9.311358007210602"><ele>357.0</ele><time>2026-04-25T14:56:45.001Z</time></trkpt><trkpt lat="45.961944067237454" lon="9.31129575284209"><ele>357.0</ele><time>2026-04-25T14:57:11.001Z</time></trkpt><trkpt lat="45.961854657888864" lon="9.311331502091468"><ele>357.0</ele><time>2026-04-25T14:57:14.001Z</time></trkpt><trkpt lat="45.961790297556874" lon="9.311366184094323"><ele>357.0</ele><time>2026-04-25T14:57:16.001Z</time></trkpt><trkpt lat="45.96171242503174" lon="9.31133809234922"><ele>358.6666666666667</ele><time>2026-04-25T14:57:21.001Z</time></trkpt><trkpt lat="45.96165162941303" lon="9.3113036785891"><ele>360.3333333333333</ele><time>2026-04-25T14:58:59.001Z</time></trkpt><trkpt lat="45.96173607454422" lon="9.311291667595082"><ele>362.0</ele><time>2026-04-25T15:05:54.001Z</time></trkpt><trkpt lat="45.961667823951345" lon="9.31134659801654"><ele>363.66666666666663</ele><time>2026-04-25T15:06:26Z</time></trkpt><trkpt lat="45.96159618426546" lon="9.311307050922474"><ele>365.3333333333333</ele><time>2026-04-25T15:08:40.001Z</time></trkpt><trkpt lat="45.96154629470444" lon="9.311386790582727"><ele>367.0</ele><time>2026-04-25T15:08:42.001Z</time></trkpt><trkpt lat="45.96146844057623" lon="9.311432447932289"><ele>367.0</ele><time>2026-04-25T15:08:44.001Z</time></trkpt><trkpt lat="45.961415335993316" lon="9.311582150266688"><ele>367.0</ele><time>2026-04-25T15:08:47.001Z</time></trkpt><trkpt lat="45.9613455254685" lon="9.311659436103927"><ele>367.0</ele><time>2026-04-25T15:08:50.001Z</time></trkpt><trkpt lat="45.961305440356625" lon="9.311790584612353"><ele>367.0</ele><time>2026-04-25T15:08:53.001Z</time></trkpt><trkpt lat="45.961212220409344" lon="9.311819035076438"><ele>367.0</ele><time>2026-04-25T15:08:55.001Z</time></trkpt><trkpt lat="45.961155687602165" lon="9.311889904236295"><ele>367.0</ele><time>2026-04-25T15:08:57.001Z</time></trkpt><trkpt lat="45.96114928092712" lon="9.312003925830515"><ele>367.0</ele><time>2026-04-25T15:08:59.001Z</time></trkpt><trkpt lat="45.961103829565204" lon="9.312105515220157"><ele>367.0</ele><time>2026-04-25T15:09:01.001Z</time></trkpt><trkpt lat="45.9610496566668" lon="9.312203814072102"><ele>367.0</ele><time>2026-04-25T15:09:05.001Z</time></trkpt><trkpt lat="45.96097500788617" lon="9.312235942915084"><ele>367.0</ele><time>2026-04-25T15:09:07.001Z</time></trkpt><trkpt lat="45.96088544760453" lon="9.312245410959484"><ele>367.0</ele><time>2026-04-25T15:09:09.001Z</time></trkpt><trkpt lat="45.960816491118436" lon="9.31232180323645"><ele>371.0</ele><time>2026-04-25T15:09:12.001Z</time></trkpt><trkpt lat="45.96080162367832" lon="9.312436841069845"><ele>375.0</ele><time>2026-04-25T15:09:15.001Z</time></trkpt><trkpt lat="45.96078386208616" lon="9.312563940430346"><ele>379.0</ele><time>2026-04-25T15:09:19.001Z</time></trkpt><trkpt lat="45.96067648492001" lon="9.31265712580734"><ele>383.0</ele><time>2026-04-25T15:09:21.001Z</time></trkpt><trkpt lat="45.96058674158895" lon="9.312684875812268"><ele>387.0</ele><time>2026-04-25T15:09:23.001Z</time></trkpt><trkpt lat="45.96051205180644" lon="9.312694705918899"><ele>387.0</ele><time>2026-04-25T15:09:26.001Z</time></trkpt><trkpt lat="45.96045012399867" lon="9.312677016678036"><ele>387.0</ele><time>2026-04-25T15:09:29.001Z</time></trkpt><trkpt lat="45.96036449659314" lon="9.312645596892184"><ele>387.0</ele><time>2026-04-25T15:09:59.002Z</time></trkpt><trkpt lat="45.96033121206332" lon="9.312755692832793"><ele>387.0</ele><time>2026-04-25T15:12:06.002Z</time></trkpt><trkpt lat="45.96030110362343" lon="9.3128716242234"><ele>387.0</ele><time>2026-04-25T15:12:24.001Z</time></trkpt><trkpt lat="45.96027962518084" lon="9.31298189577442"><ele>387.0</ele><time>2026-04-25T15:12:28.001Z</time></trkpt><trkpt lat="45.96032091304318" lon="9.313093511154076"><ele>392.1666666666667</ele><time>2026-04-25T15:12:30.001Z</time></trkpt><trkpt lat="45.960331834826356" lon="9.313232498065382"><ele>397.33333333333337</ele><time>2026-04-25T15:12:32.001Z</time></trkpt><trkpt lat="45.96031550807717" lon="9.31334008918138"><ele>402.5</ele><time>2026-04-25T15:12:34.001Z</time></trkpt><trkpt lat="45.9603692933591" lon="9.313400403732787"><ele>407.6666666666667</ele><time>2026-04-25T15:12:36.001Z</time></trkpt><trkpt lat="45.96040888173663" lon="9.313502674816478"><ele>412.83333333333337</ele><time>2026-04-25T15:12:38.001Z</time></trkpt><trkpt lat="45.96044642137569" lon="9.313612008926667"><ele>418.0</ele><time>2026-04-25T15:12:40.001Z</time></trkpt><trkpt lat="45.960475838793315" lon="9.313712236865703"><ele>418.0</ele><time>2026-04-25T15:12:42.001Z</time></trkpt><trkpt lat="45.96049780402974" lon="9.313803174067706"><ele>418.0</ele><time>2026-04-25T15:12:45.001Z</time></trkpt><trkpt lat="45.96048543012797" lon="9.313893607559425"><ele>418.0</ele><time>2026-04-25T15:12:47.001Z</time></trkpt><trkpt lat="45.96048340988677" lon="9.313995107797869"><ele>418.0</ele><time>2026-04-25T15:12:49.001Z</time></trkpt><trkpt lat="45.960472547544356" lon="9.314085383310037"><ele>418.0</ele><time>2026-04-25T15:12:51.001Z</time></trkpt><trkpt lat="45.96047006237787" lon="9.314200095195574"><ele>418.0</ele><time>2026-04-25T15:12:54.001Z</time></trkpt><trkpt lat="45.960424413980576" lon="9.314276810260637"><ele>418.0</ele><time>2026-04-25T15:12:56.001Z</time></trkpt><trkpt lat="45.96042640548666" lon="9.314397387592324"><ele>421.6666666666667</ele><time>2026-04-25T15:12:58.001Z</time></trkpt><trkpt lat="45.960430761803586" lon="9.314517018655826"><ele>425.33333333333337</ele><time>2026-04-25T15:13:00.001Z</time></trkpt><trkpt lat="45.96042728516764" lon="9.314620116705264"><ele>429.0</ele><time>2026-04-25T15:13:02.001Z</time></trkpt><trkpt lat="45.960414750643245" lon="9.314741327406331"><ele>432.66666666666663</ele><time>2026-04-25T15:13:05.001Z</time></trkpt><trkpt lat="45.96042499582789" lon="9.314872217569066"><ele>436.3333333333333</ele><time>2026-04-25T15:13:08.001Z</time></trkpt><trkpt lat="45.96040240937788" lon="9.314967036840214"><ele>440.0</ele><time>2026-04-25T15:13:10.001Z</time></trkpt><trkpt lat="45.96034477945414" lon="9.31503215779267"><ele>437.99999999999994</ele><time>2026-04-25T15:13:12.001Z</time></trkpt><trkpt lat="45.96027977239904" lon="9.31496010744336"><ele>436.0</ele><time>2026-04-25T15:13:17.001Z</time></trkpt><trkpt lat="45.96017503162269" lon="9.314916183248364"><ele>434.0</ele><time>2026-04-25T15:13:21.001Z</time></trkpt><trkpt lat="45.96011087715073" lon="9.314935175782093"><ele>432.0</ele><time>2026-04-25T15:13:23.001Z</time></trkpt><trkpt lat="45.960063807943975" lon="9.314855305067196"><ele>429.99999999999994</ele><time>2026-04-25T15:13:27.001Z</time></trkpt><trkpt lat="45.96000652454093" lon="9.314751533167522"><ele>428.0</ele><time>2026-04-25T15:13:30.001Z</time></trkpt><trkpt lat="45.95992240884673" lon="9.314657022661086"><ele>427.99999999999994</ele><time>2026-04-25T15:13:32.001Z</time></trkpt><trkpt lat="45.959852938104135" lon="9.314620817438952"><ele>428.0</ele><time>2026-04-25T15:13:36.001Z</time></trkpt><trkpt lat="45.959778653291714" lon="9.314647981064834"><ele>428.0</ele><time>2026-04-25T15:13:38.001Z</time></trkpt><trkpt lat="45.959699781859406" lon="9.314693151012156"><ele>428.0</ele><time>2026-04-25T15:13:40.001Z</time></trkpt><trkpt lat="45.959637323022285" lon="9.314716797034919"><ele>427.99999999999994</ele><time>2026-04-25T15:13:42.001Z</time></trkpt><trkpt lat="45.959537440365224" lon="9.314772398687113"><ele>428.0</ele><time>2026-04-25T15:13:47.001Z</time></trkpt><trkpt lat="45.95947522911916" lon="9.314825609884721"><ele>433.66666666666663</ele><time>2026-04-25T15:13:49.001Z</time></trkpt><trkpt lat="45.95939940360222" lon="9.314846346309714"><ele>439.3333333333333</ele><time>2026-04-25T15:13:51.001Z</time></trkpt><trkpt lat="45.95933146112612" lon="9.314900241398364"><ele>445.0</ele><time>2026-04-25T15:13:53.001Z</time></trkpt><trkpt lat="45.95925437833967" lon="9.314866062576273"><ele>450.66666666666663</ele><time>2026-04-25T15:15:16.001Z</time></trkpt><trkpt lat="45.95923373617745" lon="9.314973753342182"><ele>456.3333333333333</ele><time>2026-04-25T15:15:26.001Z</time></trkpt><trkpt lat="45.95916708647268" lon="9.314978326960249"><ele>462.0</ele><time>2026-04-25T15:15:29.001Z</time></trkpt><trkpt lat="45.95908131737092" lon="9.315024123073607"><ele>462.8333333333333</ele><time>2026-04-25T15:15:32.001Z</time></trkpt><trkpt lat="45.95902387809794" lon="9.315083976721667"><ele>463.66666666666663</ele><time>2026-04-25T15:15:34.001Z</time></trkpt><trkpt lat="45.9589743508274" lon="9.31517415931204"><ele>464.5</ele><time>2026-04-25T15:15:37.001Z</time></trkpt><trkpt lat="45.95890771958986" lon="9.315210456544822"><ele>465.3333333333333</ele><time>2026-04-25T15:15:39.001Z</time></trkpt><trkpt lat="45.95883621975892" lon="9.315292269454613"><ele>466.16666666666663</ele><time>2026-04-25T15:15:42.001Z</time></trkpt><trkpt lat="45.958783476945676" lon="9.315394558461653"><ele>467.0</ele><time>2026-04-25T15:15:45.001Z</time></trkpt><trkpt lat="45.95873809126626" lon="9.31549831969966"><ele>466.99999999999994</ele><time>2026-04-25T15:15:48.001Z</time></trkpt><trkpt lat="45.958675321302564" lon="9.315543884856664"><ele>467.0</ele><time>2026-04-25T15:15:51.001Z</time></trkpt><trkpt lat="45.95866342236975" lon="9.315650174483377"><ele>466.99999999999994</ele><time>2026-04-25T15:15:54.001Z</time></trkpt><trkpt lat="45.95871673763572" lon="9.315702361545501"><ele>466.99999999999994</ele><time>2026-04-25T15:15:57.001Z</time></trkpt><trkpt lat="45.95865787429626" lon="9.315749408657082"><ele>467.0</ele><time>2026-04-25T15:16:03.001Z</time></trkpt><trkpt lat="45.95863810811475" lon="9.3158413075616"><ele>466.99999999999994</ele><time>2026-04-25T15:16:29.001Z</time></trkpt><trkpt lat="45.95862152474957" lon="9.315945570764352"><ele>466.99999999999994</ele><time>2026-04-25T15:16:32.001Z</time></trkpt><trkpt lat="45.958594152469175" lon="9.316029624965502"><ele>472.1428571428571</ele><time>2026-04-25T15:16:35.001Z</time></trkpt><trkpt lat="45.95852895234444" lon="9.316065763251151"><ele>477.2857142857143</ele><time>2026-04-25T15:16:37.001Z</time></trkpt><trkpt lat="45.958470702014" lon="9.316148961940947"><ele>482.42857142857144</ele><time>2026-04-25T15:16:39.001Z</time></trkpt><trkpt lat="45.958455855053124" lon="9.316247036408422"><ele>487.57142857142856</ele><time>2026-04-25T15:16:42.001Z</time></trkpt><trkpt lat="45.95850205549474" lon="9.31632350336674"><ele>492.7142857142858</ele><time>2026-04-25T15:17:02.001Z</time></trkpt><trkpt lat="45.95852182561444" lon="9.316413475139997"><ele>497.8571428571429</ele><time>2026-04-25T15:20:53.999Z</time></trkpt><trkpt lat="45.95859700632715" lon="9.316449071563149"><ele>503.0</ele><time>2026-04-25T15:20:57Z</time></trkpt><trkpt lat="45.9586544967121" lon="9.316504249685108"><ele>506.8571428571429</ele><time>2026-04-25T15:21:00Z</time></trkpt><trkpt lat="45.95872035241662" lon="9.316579536677247"><ele>510.7142857142858</ele><time>2026-04-25T15:21:03Z</time></trkpt><trkpt lat="45.958788167418035" lon="9.316591758327895"><ele>514.5714285714286</ele><time>2026-04-25T15:22:06Z</time></trkpt><trkpt lat="45.958768977186395" lon="9.316504065900645"><ele>518.4285714285714</ele><time>2026-04-25T15:22:22Z</time></trkpt><trkpt lat="45.958829740096824" lon="9.316530179217533"><ele>522.2857142857142</ele><time>2026-04-25T15:22:46Z</time></trkpt><trkpt lat="45.95885387083933" lon="9.316669938916618"><ele>526.1428571428571</ele><time>2026-04-25T15:22:47.999Z</time></trkpt><trkpt lat="45.95880288537552" lon="9.316607077246164"><ele>530.0</ele><time>2026-04-25T15:22:50.999Z</time></trkpt><trkpt lat="45.95876661158427" lon="9.316532836893375"><ele>530.0</ele><time>2026-04-25T15:22:56Z</time></trkpt><trkpt lat="45.95882462255612" lon="9.316599354032432"><ele>530.0</ele><time>2026-04-25T15:23:03Z</time></trkpt><trkpt lat="45.9587409206534" lon="9.316604492576774"><ele>530.0</ele><time>2026-04-25T15:24:46Z</time></trkpt><trkpt lat="45.95869418973338" lon="9.316530207129903"><ele>530.0</ele><time>2026-04-25T15:26:23Z</time></trkpt><trkpt lat="45.95862961834622" lon="9.31646019663714"><ele>530.0</ele><time>2026-04-25T15:26:26Z</time></trkpt><trkpt lat="45.95855447674083" lon="9.316443041783605"><ele>530.0</ele><time>2026-04-25T15:26:30Z</time></trkpt><trkpt lat="45.95849309469418" lon="9.316372181292826"><ele>526.1428571428571</ele><time>2026-04-25T15:26:34Z</time></trkpt><trkpt lat="45.95843996181178" lon="9.316308335228426"><ele>522.2857142857142</ele><time>2026-04-25T15:26:37Z</time></trkpt><trkpt lat="45.95844872757456" lon="9.316214732703816"><ele>518.4285714285714</ele><time>2026-04-25T15:26:42Z</time></trkpt><trkpt lat="45.958502304013365" lon="9.316152363848087"><ele>514.5714285714286</ele><time>2026-04-25T15:26:47Z</time></trkpt><trkpt lat="45.95856215754777" lon="9.316099943154025"><ele>510.7142857142858</ele><time>2026-04-25T15:26:50Z</time></trkpt><trkpt lat="45.95860444557132" lon="9.315984899399607"><ele>506.8571428571429</ele><time>2026-04-25T15:26:55Z</time></trkpt><trkpt lat="45.95861271866914" lon="9.315892952244434"><ele>503.0</ele><time>2026-04-25T15:26:57Z</time></trkpt><trkpt lat="45.9586534135662" lon="9.315782004678173"><ele>502.99999999999994</ele><time>2026-04-25T15:27:02Z</time></trkpt><trkpt lat="45.95861057893552" lon="9.31569384714249"><ele>503.0</ele><time>2026-04-25T15:27:06Z</time></trkpt><trkpt lat="45.958609729905554" lon="9.31557857690311"><ele>503.0</ele><time>2026-04-25T15:27:15Z</time></trkpt><trkpt lat="45.95866952010331" lon="9.315507797646218"><ele>503.0</ele><time>2026-04-25T15:27:18Z</time></trkpt><trkpt lat="45.95870566043185" lon="9.315404852826145"><ele>502.99999999999994</ele><time>2026-04-25T15:27:21Z</time></trkpt><trkpt lat="45.95879296024927" lon="9.315339972167004"><ele>503.0</ele><time>2026-04-25T15:27:24Z</time></trkpt><trkpt lat="45.95885187660389" lon="9.315254108275898"><ele>497.8571428571429</ele><time>2026-04-25T15:27:28Z</time></trkpt><trkpt lat="45.9589095097707" lon="9.315217490814584"><ele>492.7142857142858</ele><time>2026-04-25T15:27:31Z</time></trkpt><trkpt lat="45.9589630561771" lon="9.315146748687896"><ele>487.57142857142856</ele><time>2026-04-25T15:27:35Z</time></trkpt><trkpt lat="45.95902725617647" lon="9.315102936534778"><ele>482.42857142857144</ele><time>2026-04-25T15:27:37Z</time></trkpt><trkpt lat="45.95908268234489" lon="9.31505031382067"><ele>477.2857142857143</ele><time>2026-04-25T15:27:39Z</time></trkpt><trkpt lat="45.95915694109208" lon="9.315005744522171"><ele>472.1428571428571</ele><time>2026-04-25T15:27:43Z</time></trkpt><trkpt lat="45.95920066187874" lon="9.314937611983392"><ele>466.99999999999994</ele><time>2026-04-25T15:27:46Z</time></trkpt><trkpt lat="45.95925713535783" lon="9.31485362584713"><ele>466.16666666666663</ele><time>2026-04-25T15:27:49Z</time></trkpt><trkpt lat="45.95933429358379" lon="9.314873757334668"><ele>465.3333333333333</ele><time>2026-04-25T15:27:51Z</time></trkpt><trkpt lat="45.95938695461822" lon="9.314782966191178"><ele>464.5</ele><time>2026-04-25T15:27:53Z</time></trkpt><trkpt lat="45.959458329802786" lon="9.314737792366747"><ele>463.66666666666663</ele><time>2026-04-25T15:27:56Z</time></trkpt><trkpt lat="45.95953021772821" lon="9.314668666118932"><ele>462.8333333333333</ele><time>2026-04-25T15:27:59Z</time></trkpt><trkpt lat="45.95959362664247" lon="9.314610283033351"><ele>462.0</ele><time>2026-04-25T15:28:01Z</time></trkpt><trkpt lat="45.9596677678794" lon="9.314600511003729"><ele>462.3333333333333</ele><time>2026-04-25T15:28:03Z</time></trkpt><trkpt lat="45.95974329506959" lon="9.314617410877881"><ele>462.66666666666663</ele><time>2026-04-25T15:28:06Z</time></trkpt><trkpt lat="45.959815738725155" lon="9.31467211447968"><ele>463.0</ele><time>2026-04-25T15:28:09Z</time></trkpt><trkpt lat="45.959877422472935" lon="9.314724297845544"><ele>463.3333333333333</ele><time>2026-04-25T15:28:13Z</time></trkpt><trkpt lat="45.959998818682536" lon="9.314733716083454"><ele>463.66666666666663</ele><time>2026-04-25T15:28:29.001Z</time></trkpt><trkpt lat="45.96005105341665" lon="9.314800539269878"><ele>464.0</ele><time>2026-04-25T15:28:49.001Z</time></trkpt><trkpt lat="45.96013063983447" lon="9.314887629782582"><ele>463.99999999999994</ele><time>2026-04-25T15:28:51.001Z</time></trkpt><trkpt lat="45.96020214731129" lon="9.314992797787415"><ele>464.0</ele><time>2026-04-25T15:28:53.001Z</time></trkpt><trkpt lat="45.960267677513585" lon="9.315019025349356"><ele>464.0</ele><time>2026-04-25T15:28:54.001Z</time></trkpt><trkpt lat="45.960349163488296" lon="9.315038305509317"><ele>464.0</ele><time>2026-04-25T15:28:57.001Z</time></trkpt><trkpt lat="45.9604146388893" lon="9.31496268352149"><ele>463.99999999999994</ele><time>2026-04-25T15:29:02.001Z</time></trkpt><trkpt lat="45.96038090119758" lon="9.31488032121868"><ele>464.0</ele><time>2026-04-25T15:29:04.001Z</time></trkpt><trkpt lat="45.96038822121756" lon="9.314751854604673"><ele>459.99999999999994</ele><time>2026-04-25T15:29:06.001Z</time></trkpt><trkpt lat="45.960368765608784" lon="9.314657055368308"><ele>456.0</ele><time>2026-04-25T15:29:08.001Z</time></trkpt><trkpt lat="45.96035148689339" lon="9.314546093817013"><ele>452.0</ele><time>2026-04-25T15:29:10.001Z</time></trkpt><trkpt lat="45.96036209365348" lon="9.314393268993488"><ele>448.0</ele><time>2026-04-25T15:29:13.001Z</time></trkpt><trkpt lat="45.96040015193331" lon="9.314287953616516"><ele>443.99999999999994</ele><time>2026-04-25T15:29:15.001Z</time></trkpt><trkpt lat="45.9604553619698" lon="9.31419484518213"><ele>440.0</ele><time>2026-04-25T15:29:17.001Z</time></trkpt><trkpt lat="45.960442112027" lon="9.314051568763487"><ele>439.99999999999994</ele><time>2026-04-25T15:29:19.001Z</time></trkpt><trkpt lat="45.96045021520638" lon="9.313920603073559"><ele>440.0</ele><time>2026-04-25T15:29:21.001Z</time></trkpt><trkpt lat="45.96042493879848" lon="9.313829217692327"><ele>440.0</ele><time>2026-04-25T15:29:23.001Z</time></trkpt><trkpt lat="45.96036132446714" lon="9.313700715337923"><ele>440.0</ele><time>2026-04-25T15:29:26.001Z</time></trkpt><trkpt lat="45.960321219229385" lon="9.313573859746024"><ele>439.99999999999994</ele><time>2026-04-25T15:29:28.001Z</time></trkpt><trkpt lat="45.96029619226574" lon="9.313475041240553"><ele>440.0</ele><time>2026-04-25T15:29:30Z</time></trkpt><trkpt lat="45.96027684810094" lon="9.313363759324673"><ele>436.85714285714283</ele><time>2026-04-25T15:29:32Z</time></trkpt><trkpt lat="45.960267715186966" lon="9.313271573223682"><ele>433.7142857142857</ele><time>2026-04-25T15:29:34Z</time></trkpt><trkpt lat="45.960231850172235" lon="9.313195219508783"><ele>430.57142857142856</ele><time>2026-04-25T15:29:36Z</time></trkpt><trkpt lat="45.960250592950565" lon="9.313094452980474"><ele>427.42857142857144</ele><time>2026-04-25T15:29:40Z</time></trkpt><trkpt lat="45.960275666579065" lon="9.312980005716504"><ele>424.2857142857143</ele><time>2026-04-25T15:29:42Z</time></trkpt><trkpt lat="45.96029830647463" lon="9.312886485531958"><ele>421.1428571428571</ele><time>2026-04-25T15:29:44Z</time></trkpt><trkpt lat="45.96029709096885" lon="9.312791822211471"><ele>418.0</ele><time>2026-04-25T15:29:46Z</time></trkpt><trkpt lat="45.9603281846149" lon="9.312655969928871"><ele>412.83333333333337</ele><time>2026-04-25T15:30:40.001Z</time></trkpt><trkpt lat="45.96024780354865" lon="9.312626255747267"><ele>407.6666666666667</ele><time>2026-04-25T15:30:44.001Z</time></trkpt><trkpt lat="45.96018647950471" lon="9.312685041800014"><ele>402.5</ele><time>2026-04-25T15:30:47.001Z</time></trkpt><trkpt lat="45.960131015078254" lon="9.312739380595099"><ele>397.33333333333337</ele><time>2026-04-25T15:30:50.001Z</time></trkpt><trkpt lat="45.960051866053725" lon="9.31274574841112"><ele>392.1666666666667</ele><time>2026-04-25T15:30:53.001Z</time></trkpt><trkpt lat="45.96001434017248" lon="9.312877203700353"><ele>387.0</ele><time>2026-04-25T15:30:56.001Z</time></trkpt><trkpt lat="45.96003255963946" lon="9.3129966074738"><ele>389.0</ele><time>2026-04-25T15:30:58.001Z</time></trkpt><trkpt lat="45.96002259815301" lon="9.31312117560811"><ele>391.0</ele><time>2026-04-25T15:31:00.001Z</time></trkpt><trkpt lat="45.95996034272335" lon="9.31314014063395"><ele>393.0</ele><time>2026-04-25T15:31:02.001Z</time></trkpt><trkpt lat="45.95988120281478" lon="9.313146631863077"><ele>395.0</ele><time>2026-04-25T15:31:04.001Z</time></trkpt><trkpt lat="45.95980803028368" lon="9.313101240027578"><ele>397.0</ele><time>2026-04-25T15:31:06.001Z</time></trkpt><trkpt lat="45.959750562693046" lon="9.313053966390813"><ele>399.0</ele><time>2026-04-25T15:31:08.001Z</time></trkpt><trkpt lat="45.95968431012809" lon="9.31306524937328"><ele>401.0</ele><time>2026-04-25T15:31:11.001Z</time></trkpt><trkpt lat="45.95961058658075" lon="9.313070808088119"><ele>400.99999999999994</ele><time>2026-04-25T15:31:14.001Z</time></trkpt><trkpt lat="45.959539844684066" lon="9.313107482480676"><ele>401.0</ele><time>2026-04-25T15:31:18.001Z</time></trkpt><trkpt lat="45.9594584425776" lon="9.313087553816299"><ele>401.0</ele><time>2026-04-25T15:31:23.001Z</time></trkpt><trkpt lat="45.959408472735134" lon="9.313156641923447"><ele>401.0</ele><time>2026-04-25T15:31:33.001Z</time></trkpt><trkpt lat="45.95932772724495" lon="9.313289500693202"><ele>400.99999999999994</ele><time>2026-04-25T15:31:36.001Z</time></trkpt><trkpt lat="45.95928220719509" lon="9.313355583613143"><ele>401.0</ele><time>2026-04-25T15:31:38.001Z</time></trkpt><trkpt lat="45.959216652447715" lon="9.313402800433433"><ele>398.16666666666663</ele><time>2026-04-25T15:31:41.001Z</time></trkpt><trkpt lat="45.95913752234021" lon="9.313440717639406"><ele>395.3333333333333</ele><time>2026-04-25T15:31:43.001Z</time></trkpt><trkpt lat="45.959066839104615" lon="9.31342226668328"><ele>392.5</ele><time>2026-04-25T15:31:45.001Z</time></trkpt><trkpt lat="45.959003566795445" lon="9.313413668682205"><ele>389.66666666666663</ele><time>2026-04-25T15:31:47.001Z</time></trkpt><trkpt lat="45.958934172413464" lon="9.31337233709968"><ele>386.8333333333333</ele><time>2026-04-25T15:31:49.001Z</time></trkpt><trkpt lat="45.958857627416016" lon="9.31336851530044"><ele>384.0</ele><time>2026-04-25T15:31:51.001Z</time></trkpt><trkpt lat="45.958770620093965" lon="9.31340191551415"><ele>384.0</ele><time>2026-04-25T15:31:53.001Z</time></trkpt><trkpt lat="45.95868137411629" lon="9.313405840922256"><ele>384.0</ele><time>2026-04-25T15:31:55.001Z</time></trkpt><trkpt lat="45.958602944949405" lon="9.313392551025549"><ele>384.0</ele><time>2026-04-25T15:31:57.001Z</time></trkpt><trkpt lat="45.95852418292377" lon="9.313449369383545"><ele>384.0</ele><time>2026-04-25T15:31:59.001Z</time></trkpt><trkpt lat="45.958430180174396" lon="9.31345129964636"><ele>384.0</ele><time>2026-04-25T15:32:01.001Z</time></trkpt><trkpt lat="45.95835643145999" lon="9.313494428604074"><ele>384.0</ele><time>2026-04-25T15:32:03.001Z</time></trkpt><trkpt lat="45.95827128580444" lon="9.313486250007456"><ele>382.5</ele><time>2026-04-25T15:32:05.001Z</time></trkpt><trkpt lat="45.95820891771104" lon="9.31343187023884"><ele>381.0</ele><time>2026-04-25T15:32:07.001Z</time></trkpt><trkpt lat="45.95814222099254" lon="9.31338723007512"><ele>379.5</ele><time>2026-04-25T15:32:09.001Z</time></trkpt><trkpt lat="45.95807707848093" lon="9.313341443032632"><ele>378.0</ele><time>2026-04-25T15:32:12.001Z</time></trkpt><trkpt lat="45.95802491005733" lon="9.313239127361102"><ele>376.5</ele><time>2026-04-25T15:32:15.001Z</time></trkpt><trkpt lat="45.95794716180681" lon="9.313202768157991"><ele>375.0</ele><time>2026-04-25T15:32:22.001Z</time></trkpt><trkpt lat="45.95787095641675" lon="9.313171005118212"><ele>375.0</ele><time>2026-04-25T15:32:25.001Z</time></trkpt><trkpt lat="45.95781697298034" lon="9.313119212505546"><ele>375.0</ele><time>2026-04-25T15:32:29.001Z</time></trkpt><trkpt lat="45.95772974173922" lon="9.313011570212945"><ele>375.0</ele><time>2026-04-25T15:38:24Z</time></trkpt><trkpt lat="45.957631788079354" lon="9.312990706993205"><ele>375.0</ele><time>2026-04-25T15:38:26Z</time></trkpt><trkpt lat="45.95755242667665" lon="9.31294983356516"><ele>375.0</ele><time>2026-04-25T15:38:27Z</time></trkpt><trkpt lat="45.95749010079299" lon="9.312983456997376"><ele>375.0</ele><time>2026-04-25T15:38:30Z</time></trkpt><trkpt lat="45.957421266845266" lon="9.312970376669142"><ele>372.0</ele><time>2026-04-25T15:38:32Z</time></trkpt><trkpt lat="45.95735262737673" lon="9.312969588709876"><ele>369.0</ele><time>2026-04-25T15:38:34Z</time></trkpt><trkpt lat="45.957285328597216" lon="9.312952981349547"><ele>366.0</ele><time>2026-04-25T15:38:36Z</time></trkpt><trkpt lat="45.957202952511494" lon="9.312988022970998"><ele>363.0</ele><time>2026-04-25T15:38:39Z</time></trkpt><trkpt lat="45.95712082337471" lon="9.31300086043458"><ele>360.0</ele><time>2026-04-25T15:38:42Z</time></trkpt><trkpt lat="45.95704733455135" lon="9.31303906931961"><ele>357.0</ele><time>2026-04-25T15:38:45Z</time></trkpt><trkpt lat="45.95698012965484" lon="9.313057828524833"><ele>357.0</ele><time>2026-04-25T15:38:47Z</time></trkpt><trkpt lat="45.95687805827531" lon="9.313046184300594"><ele>357.0</ele><time>2026-04-25T15:38:50Z</time></trkpt><trkpt lat="45.9568165877272" lon="9.312993275080872"><ele>357.0</ele><time>2026-04-25T15:38:52Z</time></trkpt><trkpt lat="45.956749793156874" lon="9.312950518681014"><ele>357.0</ele><time>2026-04-25T15:38:54Z</time></trkpt><trkpt lat="45.95668528856847" lon="9.312905012210644"><ele>357.0</ele><time>2026-04-25T15:38:56Z</time></trkpt><trkpt lat="45.9565765510419" lon="9.312844932918118"><ele>357.0</ele><time>2026-04-25T15:39:00Z</time></trkpt><trkpt lat="45.95653506539825" lon="9.31273358240065"><ele>356.8333333333333</ele><time>2026-04-25T15:39:02Z</time></trkpt><trkpt lat="45.95646919135584" lon="9.312678277166922"><ele>356.6666666666667</ele><time>2026-04-25T15:39:04Z</time></trkpt><trkpt lat="45.95637651201499" lon="9.312638219177128"><ele>356.5</ele><time>2026-04-25T15:39:07Z</time></trkpt><trkpt lat="45.95630985003821" lon="9.312625141369795"><ele>356.33333333333337</ele><time>2026-04-25T15:39:10Z</time></trkpt><trkpt lat="45.95626475622827" lon="9.312721744349604"><ele>356.1666666666667</ele><time>2026-04-25T15:39:13Z</time></trkpt><trkpt lat="45.95620796891578" lon="9.312783906947464"><ele>356.0</ele><time>2026-04-25T15:39:15Z</time></trkpt><trkpt lat="45.956247445484124" lon="9.312867007244442"><ele>356.0</ele><time>2026-04-25T15:40:50Z</time></trkpt><trkpt lat="45.95631161037044" lon="9.312957216826357"><ele>356.0</ele><time>2026-04-25T15:40:53Z</time></trkpt><trkpt lat="45.95638000147468" lon="9.313002956286237"><ele>356.0</ele><time>2026-04-25T15:40:55Z</time></trkpt><trkpt lat="45.956418012385136" lon="9.313087635153435"><ele>356.0</ele><time>2026-04-25T15:40:58Z</time></trkpt><trkpt lat="45.956449675921455" lon="9.313195621905361"><ele>356.0</ele><time>2026-04-25T15:41:01Z</time></trkpt><trkpt lat="45.95648120634483" lon="9.313320173314352"><ele>356.0</ele><time>2026-04-25T15:41:04Z</time></trkpt><trkpt lat="45.95650024925732" lon="9.313412437737457"><ele>361.33333333333337</ele><time>2026-04-25T15:41:06Z</time></trkpt><trkpt lat="45.956532957533085" lon="9.313519238160026"><ele>366.6666666666667</ele><time>2026-04-25T15:41:09Z</time></trkpt><trkpt lat="45.95657726978147" lon="9.313631522895117"><ele>372.0</ele><time>2026-04-25T15:41:11Z</time></trkpt><trkpt lat="45.95658747189603" lon="9.313764227458282"><ele>377.33333333333337</ele><time>2026-04-25T15:41:14Z</time></trkpt><trkpt lat="45.956607466804094" lon="9.313893063205025"><ele>382.6666666666667</ele><time>2026-04-25T15:41:16Z</time></trkpt><trkpt lat="45.95661115382197" lon="9.31401795723108"><ele>388.0</ele><time>2026-04-25T15:41:18Z</time></trkpt><trkpt lat="45.95662168793133" lon="9.314140867070183"><ele>389.00000000000006</ele><time>2026-04-25T15:41:20Z</time></trkpt><trkpt lat="45.95665945159355" lon="9.314282402918654"><ele>390.0</ele><time>2026-04-25T15:41:22Z</time></trkpt><trkpt lat="45.95668103850776" lon="9.314397144789904"><ele>391.0</ele><time>2026-04-25T15:41:24.001Z</time></trkpt><trkpt lat="45.95669646112987" lon="9.314505069962776"><ele>392.0</ele><time>2026-04-25T15:41:26.001Z</time></trkpt><trkpt lat="45.956747008295814" lon="9.314597635042663"><ele>393.00000000000006</ele><time>2026-04-25T15:41:28.001Z</time></trkpt><trkpt lat="45.956806186050066" lon="9.314660579191923"><ele>394.0</ele><time>2026-04-25T15:41:30.001Z</time></trkpt><trkpt lat="45.95686673300204" lon="9.314776312761"><ele>398.33333333333337</ele><time>2026-04-25T15:41:32.001Z</time></trkpt><trkpt lat="45.95690147887957" lon="9.314873170831701"><ele>402.6666666666667</ele><time>2026-04-25T15:41:34.001Z</time></trkpt><trkpt lat="45.95696380487724" lon="9.314951183386704"><ele>407.0</ele><time>2026-04-25T15:41:36.001Z</time></trkpt><trkpt lat="45.95699933693235" lon="9.315088265724537"><ele>411.33333333333337</ele><time>2026-04-25T15:41:39.001Z</time></trkpt><trkpt lat="45.957053829810576" lon="9.31520235134295"><ele>415.6666666666667</ele><time>2026-04-25T15:41:41Z</time></trkpt><trkpt lat="45.95709349032565" lon="9.315296122818918"><ele>420.0</ele><time>2026-04-25T15:41:43Z</time></trkpt><trkpt lat="45.95711993924774" lon="9.315418569472275"><ele>420.0</ele><time>2026-04-25T15:41:45Z</time></trkpt><trkpt lat="45.957187600020184" lon="9.315479313911327"><ele>420.0</ele><time>2026-04-25T15:41:47Z</time></trkpt><trkpt lat="45.957208702284085" lon="9.315573599348108"><ele>420.0</ele><time>2026-04-25T15:41:49Z</time></trkpt><trkpt lat="45.95721335537143" lon="9.31566954920761"><ele>420.0</ele><time>2026-04-25T15:41:51Z</time></trkpt><trkpt lat="45.957234431113385" lon="9.315755971859895"><ele>420.0</ele><time>2026-04-25T15:42:40Z</time></trkpt><trkpt lat="45.95718207995736" lon="9.315856682851068"><ele>420.0</ele><time>2026-04-25T15:42:43Z</time></trkpt><trkpt lat="45.95718661289516" lon="9.315959372451076"><ele>420.0</ele><time>2026-04-25T15:42:45Z</time></trkpt><trkpt lat="45.95715500377922" lon="9.316063998004147"><ele>422.6666666666667</ele><time>2026-04-25T15:42:48Z</time></trkpt><trkpt lat="45.95713897593549" lon="9.316192055526052"><ele>425.33333333333337</ele><time>2026-04-25T15:42:52Z</time></trkpt><trkpt lat="45.9571366948424" lon="9.316289975078874"><ele>428.0</ele><time>2026-04-25T15:42:55Z</time></trkpt><trkpt lat="45.95711271277561" lon="9.316376185572045"><ele>430.6666666666667</ele><time>2026-04-25T15:42:57Z</time></trkpt><trkpt lat="45.95710887415882" lon="9.31648805027262"><ele>433.33333333333337</ele><time>2026-04-25T15:43:00Z</time></trkpt><trkpt lat="45.95704589359331" lon="9.316520180254194"><ele>436.0</ele><time>2026-04-25T15:43:05Z</time></trkpt><trkpt lat="45.95695178686075" lon="9.316464552290988"><ele>436.00000000000006</ele><time>2026-04-25T15:43:12.001Z</time></trkpt><trkpt lat="45.956915023348046" lon="9.316366375931016"><ele>436.0</ele><time>2026-04-25T15:43:16.001Z</time></trkpt><trkpt lat="45.95683639710254" lon="9.316272150596172"><ele>436.0</ele><time>2026-04-25T15:43:19.001Z</time></trkpt><trkpt lat="45.95675452238175" lon="9.316251243746793"><ele>436.0</ele><time>2026-04-25T15:43:21.001Z</time></trkpt><trkpt lat="45.95668738513445" lon="9.31627231458783"><ele>436.00000000000006</ele><time>2026-04-25T15:43:25.001Z</time></trkpt><trkpt lat="45.956604778133794" lon="9.316212630412336"><ele>436.0</ele><time>2026-04-25T15:44:17Z</time></trkpt><trkpt lat="45.95656412415035" lon="9.316294401811444"><ele>436.57142857142856</ele><time>2026-04-25T15:45:04Z</time></trkpt><trkpt lat="45.956540681868134" lon="9.316395734366377"><ele>437.14285714285717</ele><time>2026-04-25T15:45:11.001Z</time></trkpt><trkpt lat="45.95652838971157" lon="9.316291910739473"><ele>437.71428571428567</ele><time>2026-04-25T15:47:40.001Z</time></trkpt><trkpt lat="45.95658814765304" lon="9.316253917779438"><ele>438.2857142857143</ele><time>2026-04-25T15:50:09Z</time></trkpt><trkpt lat="45.956511097820965" lon="9.31626899066312"><ele>438.85714285714283</ele><time>2026-04-25T15:50:48Z</time></trkpt><trkpt lat="45.9564202164131" lon="9.316271311607291"><ele>439.4285714285714</ele><time>2026-04-25T15:50:51Z</time></trkpt><trkpt lat="45.95635707376137" lon="9.316278068532656"><ele>440.0</ele><time>2026-04-25T15:50:53Z</time></trkpt><trkpt lat="45.95625097536904" lon="9.316252622648122"><ele>439.99999999999994</ele><time>2026-04-25T15:50:56Z</time></trkpt><trkpt lat="45.956172541772276" lon="9.316242974235061"><ele>440.0</ele><time>2026-04-25T15:51:03Z</time></trkpt><trkpt lat="45.95613657198527" lon="9.31613609041099"><ele>440.0</ele><time>2026-04-25T15:51:05.001Z</time></trkpt><trkpt lat="45.95606676314893" lon="9.316118521139854"><ele>440.0</ele><time>2026-04-25T15:51:10.001Z</time></trkpt><trkpt lat="45.95597962798975" lon="9.316081972632446"><ele>439.99999999999994</ele><time>2026-04-25T15:51:12.001Z</time></trkpt><trkpt lat="45.95590203323373" lon="9.316025183407861"><ele>440.0</ele><time>2026-04-25T15:51:14.001Z</time></trkpt><trkpt lat="45.95583141868629" lon="9.315954426715273"><ele>439.99999999999994</ele><time>2026-04-25T15:51:16.001Z</time></trkpt><trkpt lat="45.95577358343311" lon="9.315880507553272"><ele>440.0</ele><time>2026-04-25T15:51:18.001Z</time></trkpt><trkpt lat="45.95571116361717" lon="9.315928890687514"><ele>440.0</ele><time>2026-04-25T15:51:21.001Z</time></trkpt><trkpt lat="45.95569104809872" lon="9.316047976522327"><ele>440.0</ele><time>2026-04-25T15:51:23.001Z</time></trkpt><trkpt lat="45.95567455143086" lon="9.316165163634546"><ele>439.99999999999994</ele><time>2026-04-25T15:51:25.001Z</time></trkpt><trkpt lat="45.955737079568934" lon="9.316243471456222"><ele>440.0</ele><time>2026-04-25T15:51:27.001Z</time></trkpt><trkpt lat="45.95573784462736" lon="9.316376032015485"><ele>440.0</ele><time>2026-04-25T15:51:30.001Z</time></trkpt><trkpt lat="45.955675037084674" lon="9.316429539780296"><ele>440.0</ele><time>2026-04-25T15:51:32.001Z</time></trkpt><trkpt lat="45.955606720394535" lon="9.316375346373418"><ele>440.0</ele><time>2026-04-25T15:51:34.001Z</time></trkpt><trkpt lat="45.955541351482566" lon="9.316291525062926"><ele>440.0</ele><time>2026-04-25T15:51:36.001Z</time></trkpt><trkpt lat="45.95546732050658" lon="9.316125154477817"><ele>440.0</ele><time>2026-04-25T15:51:38.001Z</time></trkpt><trkpt lat="45.95540722815873" lon="9.315990052566942"><ele>439.99999999999994</ele><time>2026-04-25T15:51:40.001Z</time></trkpt><trkpt lat="45.95534650670585" lon="9.315899931804609"><ele>440.0</ele><time>2026-04-25T15:51:42.001Z</time></trkpt><trkpt lat="45.95532277403016" lon="9.316029367497302"><ele>440.0</ele><time>2026-04-25T15:51:45.001Z</time></trkpt><trkpt lat="45.955376582129865" lon="9.316163413890939"><ele>440.0</ele><time>2026-04-25T15:51:47.001Z</time></trkpt><trkpt lat="45.95536594440342" lon="9.316282929972848"><ele>439.99999999999994</ele><time>2026-04-25T15:51:49.001Z</time></trkpt><trkpt lat="45.955302505366454" lon="9.31634414910188"><ele>440.0</ele><time>2026-04-25T15:51:51.001Z</time></trkpt><trkpt lat="45.95524650021364" lon="9.316252963477393"><ele>439.99999999999994</ele><time>2026-04-25T15:51:53.001Z</time></trkpt><trkpt lat="45.95522431325528" lon="9.316123562814052"><ele>440.0</ele><time>2026-04-25T15:51:55.001Z</time></trkpt><trkpt lat="45.95518725720106" lon="9.316027168983439"><ele>440.0</ele><time>2026-04-25T15:51:57.001Z</time></trkpt><trkpt lat="45.955241715772395" lon="9.31592883168841"><ele>440.0</ele><time>2026-04-25T15:51:59.001Z</time></trkpt><trkpt lat="45.95521115032501" lon="9.315815444342553"><ele>439.99999999999994</ele><time>2026-04-25T15:52:01.001Z</time></trkpt><trkpt lat="45.95516952962021" lon="9.315708388002937"><ele>440.0</ele><time>2026-04-25T15:52:03.001Z</time></trkpt><trkpt lat="45.95513992867586" lon="9.315619233043154"><ele>437.66666666666663</ele><time>2026-04-25T15:52:05.001Z</time></trkpt><trkpt lat="45.955103316128934" lon="9.315545431885365"><ele>435.3333333333333</ele><time>2026-04-25T15:52:07.001Z</time></trkpt><trkpt lat="45.95504100765795" lon="9.31551060147456"><ele>433.0</ele><time>2026-04-25T15:52:32.001Z</time></trkpt><trkpt lat="45.95498045172452" lon="9.315452537723935"><ele>430.66666666666663</ele><time>2026-04-25T15:54:17Z</time></trkpt><trkpt lat="45.95490742805086" lon="9.315369725526944"><ele>428.3333333333333</ele><time>2026-04-25T15:54:24Z</time></trkpt><trkpt lat="45.9548278255733" lon="9.31530178132783"><ele>426.0</ele><time>2026-04-25T15:54:26Z</time></trkpt><trkpt lat="45.95473079264108" lon="9.315241275337897"><ele>420.8333333333333</ele><time>2026-04-25T15:54:28Z</time></trkpt><trkpt lat="45.95467985889209" lon="9.315112094799625"><ele>415.66666666666663</ele><time>2026-04-25T15:54:30Z</time></trkpt><trkpt lat="45.954681594796334" lon="9.315020106608724"><ele>410.5</ele><time>2026-04-25T15:54:32Z</time></trkpt><trkpt lat="45.95469481186549" lon="9.314891185209252"><ele>405.3333333333333</ele><time>2026-04-25T15:54:34Z</time></trkpt><trkpt lat="45.95469077077492" lon="9.314768098333543"><ele>400.16666666666663</ele><time>2026-04-25T15:54:36Z</time></trkpt><trkpt lat="45.9546843928801" lon="9.314664516238762"><ele>395.0</ele><time>2026-04-25T15:54:39Z</time></trkpt><trkpt lat="45.95467825838648" lon="9.31456103380508"><ele>392.6</ele><time>2026-04-25T15:54:46Z</time></trkpt><trkpt lat="45.95465135168955" lon="9.314444531646702"><ele>390.2</ele><time>2026-04-25T15:54:48Z</time></trkpt><trkpt lat="45.95466146014303" lon="9.314292193174579"><ele>387.79999999999995</ele><time>2026-04-25T15:54:50Z</time></trkpt><trkpt lat="45.95468899505824" lon="9.314169022817968"><ele>385.4</ele><time>2026-04-25T15:54:52Z</time></trkpt><trkpt lat="45.954708151492554" lon="9.314057621230743"><ele>383.0</ele><time>2026-04-25T15:54:54Z</time></trkpt><trkpt lat="45.95468172655427" lon="9.313920947474896"><ele>380.7142857142857</ele><time>2026-04-25T15:54:56Z</time></trkpt><trkpt lat="45.954715461929055" lon="9.313835480066462"><ele>378.42857142857144</ele><time>2026-04-25T15:54:58.001Z</time></trkpt><trkpt lat="45.95468493788858" lon="9.313727364375968"><ele>376.1428571428571</ele><time>2026-04-25T15:55:00.001Z</time></trkpt><trkpt lat="45.95465930773103" lon="9.313639676086064"><ele>373.8571428571429</ele><time>2026-04-25T15:55:02.001Z</time></trkpt><trkpt lat="45.95459594630937" lon="9.313594615517061"><ele>371.5714285714286</ele><time>2026-04-25T15:55:08.001Z</time></trkpt><trkpt lat="45.95466440993874" lon="9.313551198795842"><ele>369.2857142857143</ele><time>2026-04-25T15:55:16.001Z</time></trkpt><trkpt lat="45.954727655601744" lon="9.31352236497839"><ele>367.0</ele><time>2026-04-25T15:55:17.001Z</time></trkpt><trkpt lat="45.954759865078096" lon="9.313439981515442"><ele>367.0</ele><time>2026-04-25T15:55:18.001Z</time></trkpt><trkpt lat="45.95480895685101" lon="9.313378461752038"><ele>367.0</ele><time>2026-04-25T15:55:20.001Z</time></trkpt><trkpt lat="45.95492034553479" lon="9.313357132624711"><ele>367.0</ele><time>2026-04-25T15:55:22.001Z</time></trkpt><trkpt lat="45.9549786156254" lon="9.31330050549754"><ele>367.0</ele><time>2026-04-25T15:55:24.001Z</time></trkpt><trkpt lat="45.95506936344461" lon="9.313265989396282"><ele>367.0</ele><time>2026-04-25T15:55:26.001Z</time></trkpt><trkpt lat="45.95517479817329" lon="9.313235176904174"><ele>367.0</ele><time>2026-04-25T15:55:29.001Z</time></trkpt><trkpt lat="45.95526377884878" lon="9.313168517826426"><ele>366.0</ele><time>2026-04-25T15:55:32.001Z</time></trkpt><trkpt lat="45.955314949275525" lon="9.313112760934144"><ele>365.0</ele><time>2026-04-25T15:55:33.001Z</time></trkpt><trkpt lat="45.95533962633922" lon="9.312958135259034"><ele>364.0</ele><time>2026-04-25T15:55:35.001Z</time></trkpt><trkpt lat="45.95535035440258" lon="9.312853376522098"><ele>363.0</ele><time>2026-04-25T15:55:36.001Z</time></trkpt><trkpt lat="45.95536167416652" lon="9.312755749964948"><ele>362.0</ele><time>2026-04-25T15:55:37.001Z</time></trkpt><trkpt lat="45.95538187596206" lon="9.312664486602413"><ele>361.0</ele><time>2026-04-25T15:55:38.001Z</time></trkpt><trkpt lat="45.95544392560839" lon="9.312491784818741"><ele>361.0</ele><time>2026-04-25T15:55:40.001Z</time></trkpt><trkpt lat="45.9554425275531" lon="9.312339821007985"><ele>361.0</ele><time>2026-04-25T15:55:42.001Z</time></trkpt><trkpt lat="45.95542928008233" lon="9.312172879075765"><ele>361.0</ele><time>2026-04-25T15:55:44.001Z</time></trkpt><trkpt lat="45.95544088656266" lon="9.311977529524945"><ele>361.0</ele><time>2026-04-25T15:55:46.001Z</time></trkpt><trkpt lat="45.95543770287878" lon="9.311857253883831"><ele>361.0</ele><time>2026-04-25T15:55:47.001Z</time></trkpt><trkpt lat="45.95538201275412" lon="9.311762873109656"><ele>357.6</ele><time>2026-04-25T15:55:48.001Z</time></trkpt><trkpt lat="45.95532851080134" lon="9.31167745976425"><ele>354.20000000000005</ele><time>2026-04-25T15:55:50.001Z</time></trkpt><trkpt lat="45.9552932173628" lon="9.311589443354455"><ele>350.79999999999995</ele><time>2026-04-25T15:55:52.001Z</time></trkpt><trkpt lat="45.95518752697904" lon="9.311567392897905"><ele>347.4</ele><time>2026-04-25T15:55:54.001Z</time></trkpt><trkpt lat="45.95505572875018" lon="9.311592799553331"><ele>344.0</ele><time>2026-04-25T15:55:56.001Z</time></trkpt><trkpt lat="45.954968247746166" lon="9.311593747256294"><ele>343.83333333333337</ele><time>2026-04-25T15:55:57.001Z</time></trkpt><trkpt lat="45.954873019398526" lon="9.31160409727426"><ele>343.6666666666667</ele><time>2026-04-25T15:55:58.001Z</time></trkpt><trkpt lat="45.9547969650878" lon="9.311568940726502"><ele>343.5</ele><time>2026-04-25T15:55:59.001Z</time></trkpt><trkpt lat="45.954719484054976" lon="9.311521881494759"><ele>343.3333333333333</ele><time>2026-04-25T15:56:00.001Z</time></trkpt><trkpt lat="45.9546537792842" lon="9.31145193036617"><ele>343.16666666666663</ele><time>2026-04-25T15:56:01.001Z</time></trkpt><trkpt lat="45.954557681681706" lon="9.311389840435035"><ele>343.0</ele><time>2026-04-25T15:56:02.001Z</time></trkpt><trkpt lat="45.95450196163843" lon="9.31134636701881"><ele>339.0</ele><time>2026-04-25T15:56:03.001Z</time></trkpt><trkpt lat="45.954401078708486" lon="9.31129658149266"><ele>335.0</ele><time>2026-04-25T15:56:05.001Z</time></trkpt><trkpt lat="45.95431704378238" lon="9.311296005066193"><ele>331.0</ele><time>2026-04-25T15:56:07.001Z</time></trkpt><trkpt lat="45.95423451263127" lon="9.311256320897547"><ele>327.0</ele><time>2026-04-25T15:56:12.001Z</time></trkpt><trkpt lat="45.95420867527738" lon="9.311121485428407"><ele>323.0</ele><time>2026-04-25T15:56:14.001Z</time></trkpt><trkpt lat="45.95418726261638" lon="9.31096673651687"><ele>323.0</ele><time>2026-04-25T15:56:16.001Z</time></trkpt><trkpt lat="45.95415993026335" lon="9.310822471634628"><ele>323.0</ele><time>2026-04-25T15:56:18.001Z</time></trkpt><trkpt lat="45.95411324764344" lon="9.310734882864452"><ele>323.0</ele><time>2026-04-25T15:56:20.001Z</time></trkpt><trkpt lat="45.95406346695375" lon="9.310645054142324"><ele>323.0</ele><time>2026-04-25T15:56:23.001Z</time></trkpt><trkpt lat="45.95401430779272" lon="9.310587075818004"><ele>323.0</ele><time>2026-04-25T15:56:25.001Z</time></trkpt><trkpt lat="45.95399213804173" lon="9.310454636439996"><ele>323.0</ele><time>2026-04-25T15:56:27.001Z</time></trkpt><trkpt lat="45.95397706117915" lon="9.310279072629404"><ele>320.0</ele><time>2026-04-25T15:56:29.001Z</time></trkpt><trkpt lat="45.95395789627939" lon="9.31010376811805"><ele>317.0</ele><time>2026-04-25T15:56:31.001Z</time></trkpt><trkpt lat="45.95394745317344" lon="9.309929068781722"><ele>314.0</ele><time>2026-04-25T15:56:33.001Z</time></trkpt><trkpt lat="45.953933107656084" lon="9.309787970857613"><ele>311.0</ele><time>2026-04-25T15:56:35.001Z</time></trkpt><trkpt lat="45.95387331402264" lon="9.309693321115379"><ele>308.0</ele><time>2026-04-25T15:56:37.001Z</time></trkpt><trkpt lat="45.95375324639691" lon="9.309693057044997"><ele>306.0</ele><time>2026-04-25T15:56:39.001Z</time></trkpt><trkpt lat="45.95365142663435" lon="9.309700994085894"><ele>304.0</ele><time>2026-04-25T15:56:41.001Z</time></trkpt><trkpt lat="45.95357840347192" lon="9.3097147162094"><ele>302.0</ele><time>2026-04-25T15:56:45.001Z</time></trkpt><trkpt lat="45.95348769007705" lon="9.309587103570687"><ele>300.0</ele><time>2026-04-25T15:58:49Z</time></trkpt><trkpt lat="45.9534166048599" lon="9.309552600233278"><ele>298.0</ele><time>2026-04-25T15:59:24.001Z</time></trkpt><trkpt lat="45.95332391691942" lon="9.309505763112034"><ele>297.3333333333333</ele><time>2026-04-25T15:59:26.001Z</time></trkpt><trkpt lat="45.953245640073774" lon="9.30945380839486"><ele>296.66666666666663</ele><time>2026-04-25T15:59:28.001Z</time></trkpt><trkpt lat="45.95317815383844" lon="9.309408545224848"><ele>296.0</ele><time>2026-04-25T15:59:30.001Z</time></trkpt><trkpt lat="45.95309551093694" lon="9.30938152375508"><ele>295.3333333333333</ele><time>2026-04-25T15:59:33.001Z</time></trkpt><trkpt lat="45.95300849096664" lon="9.309340731602973"><ele>294.6666666666667</ele><time>2026-04-25T15:59:36.001Z</time></trkpt><trkpt lat="45.95293379941594" lon="9.3093796220168"><ele>294.0</ele><time>2026-04-25T15:59:39.001Z</time></trkpt><trkpt lat="45.952868307159264" lon="9.309453255303772"><ele>294.0</ele><time>2026-04-25T15:59:41.001Z</time></trkpt><trkpt lat="45.95276548808874" lon="9.309458092692125"><ele>294.0</ele><time>2026-04-25T15:59:44.001Z</time></trkpt><trkpt lat="45.95271522067478" lon="9.309563005715873"><ele>294.0</ele><time>2026-04-25T15:59:46.001Z</time></trkpt><trkpt lat="45.95265244694937" lon="9.309613746592579"><ele>294.0</ele><time>2026-04-25T15:59:48.001Z</time></trkpt><trkpt lat="45.95261902647012" lon="9.309707569445026"><ele>294.0</ele><time>2026-04-25T15:59:50.001Z</time></trkpt><trkpt lat="45.95255839998353" lon="9.309758671426945"><ele>294.0</ele><time>2026-04-25T15:59:52.001Z</time></trkpt><trkpt lat="45.95251108404445" lon="9.309857232727623"><ele>294.6666666666667</ele><time>2026-04-25T15:59:54.001Z</time></trkpt><trkpt lat="45.952520065578135" lon="9.30996476470978"><ele>295.3333333333333</ele><time>2026-04-25T15:59:56.001Z</time></trkpt><trkpt lat="45.952464714871816" lon="9.310066191129499"><ele>296.0</ele><time>2026-04-25T15:59:59.001Z</time></trkpt><trkpt lat="45.952468964322996" lon="9.31018466334112"><ele>296.66666666666663</ele><time>2026-04-25T16:00:02.001Z</time></trkpt><trkpt lat="45.95249954413803" lon="9.310311924403933"><ele>297.3333333333333</ele><time>2026-04-25T16:00:04.001Z</time></trkpt><trkpt lat="45.95252383058841" lon="9.31043075605677"><ele>298.0</ele><time>2026-04-25T16:00:06.001Z</time></trkpt><trkpt lat="45.95253173650541" lon="9.310539940850775"><ele>302.16666666666663</ele><time>2026-04-25T16:00:08.001Z</time></trkpt><trkpt lat="45.952562270737566" lon="9.31065848284777"><ele>306.3333333333333</ele><time>2026-04-25T16:00:10.001Z</time></trkpt><trkpt lat="45.9526094490652" lon="9.310764175700266"><ele>310.5</ele><time>2026-04-25T16:00:12.001Z</time></trkpt><trkpt lat="45.95265765558343" lon="9.310842058365576"><ele>314.6666666666667</ele><time>2026-04-25T16:00:14.001Z</time></trkpt><trkpt lat="45.95269335264336" lon="9.31092899382055"><ele>318.83333333333337</ele><time>2026-04-25T16:00:16.001Z</time></trkpt><trkpt lat="45.95277759929955" lon="9.310993021957234"><ele>323.0</ele><time>2026-04-25T16:00:18.001Z</time></trkpt><trkpt lat="45.9528216620619" lon="9.311072927815347"><ele>323.0</ele><time>2026-04-25T16:00:20.001Z</time></trkpt><trkpt lat="45.95288674781151" lon="9.311174134445935"><ele>323.0</ele><time>2026-04-25T16:00:22.001Z</time></trkpt><trkpt lat="45.95296541016623" lon="9.311247133020004"><ele>323.0</ele><time>2026-04-25T16:00:24.001Z</time></trkpt><trkpt lat="45.95302567727471" lon="9.311330556839007"><ele>323.0</ele><time>2026-04-25T16:00:27.001Z</time></trkpt><trkpt lat="45.95308473840892" lon="9.311367104386752"><ele>323.0</ele><time>2026-04-25T16:00:28.001Z</time></trkpt><trkpt lat="45.953131779203495" lon="9.311451256242776"><ele>323.0</ele><time>2026-04-25T16:00:30.001Z</time></trkpt><trkpt lat="45.95319036176113" lon="9.31156259754624"><ele>325.0</ele><time>2026-04-25T16:00:32.001Z</time></trkpt><trkpt lat="45.9532470026326" lon="9.311626226492002"><ele>327.0</ele><time>2026-04-25T16:00:34.001Z</time></trkpt><trkpt lat="45.95324098521069" lon="9.311733857854131"><ele>329.0</ele><time>2026-04-25T16:00:36.001Z</time></trkpt><trkpt lat="45.9532503984727" lon="9.31186147086872"><ele>331.0</ele><time>2026-04-25T16:00:38.001Z</time></trkpt><trkpt lat="45.953255454884754" lon="9.311980966455408"><ele>333.0</ele><time>2026-04-25T16:00:40.001Z</time></trkpt><trkpt lat="45.953255346559644" lon="9.312108773758895"><ele>335.0</ele><time>2026-04-25T16:00:42.001Z</time></trkpt><trkpt lat="45.95323737984478" lon="9.312219846578332"><ele>337.6666666666667</ele><time>2026-04-25T16:00:44Z</time></trkpt><trkpt lat="45.953270855453795" lon="9.312342014263296"><ele>340.33333333333337</ele><time>2026-04-25T16:00:47Z</time></trkpt><trkpt lat="45.95333649433684" lon="9.3124012534259"><ele>343.0</ele><time>2026-04-25T16:00:49Z</time></trkpt><trkpt lat="45.95337782381022" lon="9.312523778330018"><ele>345.6666666666667</ele><time>2026-04-25T16:00:51Z</time></trkpt><trkpt lat="45.95340524732396" lon="9.312618666706356"><ele>348.3333333333333</ele><time>2026-04-25T16:00:53Z</time></trkpt><trkpt lat="45.953437432368816" lon="9.312743424575855"><ele>351.0</ele><time>2026-04-25T16:00:55Z</time></trkpt><trkpt lat="45.95347200155926" lon="9.312830064797822"><ele>351.3333333333333</ele><time>2026-04-25T16:00:57Z</time></trkpt><trkpt lat="45.95353681707358" lon="9.312882282194543"><ele>351.6666666666667</ele><time>2026-04-25T16:00:59Z</time></trkpt><trkpt lat="45.953630068776704" lon="9.31288079510537"><ele>352.0</ele><time>2026-04-25T16:01:01Z</time></trkpt><trkpt lat="45.953714149158266" lon="9.312843724602937"><ele>352.33333333333337</ele><time>2026-04-25T16:01:03Z</time></trkpt><trkpt lat="45.95378823863794" lon="9.31283828325558"><ele>352.6666666666667</ele><time>2026-04-25T16:01:05Z</time></trkpt><trkpt lat="45.9538504535463" lon="9.312926559319482"><ele>353.0</ele><time>2026-04-25T16:01:07Z</time></trkpt><trkpt lat="45.95389168285386" lon="9.313007271438112"><ele>355.83333333333337</ele><time>2026-04-25T16:01:09Z</time></trkpt><trkpt lat="45.953906308227964" lon="9.313103563385802"><ele>358.6666666666667</ele><time>2026-04-25T16:01:11Z</time></trkpt><trkpt lat="45.95392557281227" lon="9.313222124342028"><ele>361.5</ele><time>2026-04-25T16:01:15Z</time></trkpt><trkpt lat="45.953900006499744" lon="9.313325226174465"><ele>364.3333333333333</ele><time>2026-04-25T16:01:18Z</time></trkpt><trkpt lat="45.953865651322374" lon="9.313431428155667"><ele>367.16666666666663</ele><time>2026-04-25T16:01:21Z</time></trkpt><trkpt lat="45.95382801808827" lon="9.313575729111022"><ele>370.0</ele><time>2026-04-25T16:01:23Z</time></trkpt><trkpt lat="45.95381896362868" lon="9.31367008390375"><ele>369.99999999999994</ele><time>2026-04-25T16:01:41Z</time></trkpt><trkpt lat="45.95383456279344" lon="9.313798688772492"><ele>370.0</ele><time>2026-04-25T16:01:52.001Z</time></trkpt><trkpt lat="45.953868858133255" lon="9.313889882332523"><ele>370.0</ele><time>2026-04-25T16:03:56Z</time></trkpt><trkpt lat="45.95381524181263" lon="9.3138277011768"><ele>370.0</ele><time>2026-04-25T16:04:21.001Z</time></trkpt><trkpt lat="45.953884752479105" lon="9.31385941122481"><ele>370.0</ele><time>2026-04-25T16:04:25.001Z</time></trkpt><trkpt lat="45.95381379124534" lon="9.313850416658276"><ele>369.99999999999994</ele><time>2026-04-25T16:04:41.001Z</time></trkpt><trkpt lat="45.95380616730663" lon="9.313955102662366"><ele>370.0</ele><time>2026-04-25T16:05:21Z</time></trkpt><trkpt lat="45.95379051252606" lon="9.31404764107079"><ele>372.8</ele><time>2026-04-25T16:05:23Z</time></trkpt><trkpt lat="45.953812448423115" lon="9.314198220391917"><ele>375.6</ele><time>2026-04-25T16:05:26Z</time></trkpt><trkpt lat="45.9538194997463" lon="9.31432161600088"><ele>378.4</ele><time>2026-04-25T16:05:28Z</time></trkpt><trkpt lat="45.95379277504711" lon="9.314478087789748"><ele>381.2</ele><time>2026-04-25T16:05:30Z</time></trkpt><trkpt lat="45.95378463741424" lon="9.314592144954942"><ele>384.0</ele><time>2026-04-25T16:05:32Z</time></trkpt><trkpt lat="45.95378878751731" lon="9.31470112509323"><ele>385.1666666666667</ele><time>2026-04-25T16:05:34Z</time></trkpt><trkpt lat="45.95378707241594" lon="9.314801308252228"><ele>386.33333333333337</ele><time>2026-04-25T16:05:35Z</time></trkpt><trkpt lat="45.95380432124615" lon="9.314917932749621"><ele>387.5</ele><time>2026-04-25T16:05:37Z</time></trkpt><trkpt lat="45.953813635205215" lon="9.31504974990383"><ele>388.6666666666667</ele><time>2026-04-25T16:05:39Z</time></trkpt><trkpt lat="45.953809788740216" lon="9.315198756418733"><ele>389.83333333333337</ele><time>2026-04-25T16:05:41Z</time></trkpt><trkpt lat="45.95380870260453" lon="9.315321632677625"><ele>391.0</ele><time>2026-04-25T16:05:43Z</time></trkpt><trkpt lat="45.95387984916148" lon="9.31540129895585"><ele>391.00000000000006</ele><time>2026-04-25T16:05:46Z</time></trkpt><trkpt lat="45.95388865220153" lon="9.315501938556622"><ele>391.0</ele><time>2026-04-25T16:05:48Z</time></trkpt><trkpt lat="45.95390994685901" lon="9.315620092537005"><ele>391.0</ele><time>2026-04-25T16:05:50Z</time></trkpt><trkpt lat="45.95393781291678" lon="9.315746242495107"><ele>391.0</ele><time>2026-04-25T16:05:52Z</time></trkpt><trkpt lat="45.95394244985105" lon="9.315867374685215"><ele>391.00000000000006</ele><time>2026-04-25T16:05:54Z</time></trkpt><trkpt lat="45.95397708745502" lon="9.315992200896384"><ele>391.0</ele><time>2026-04-25T16:05:56Z</time></trkpt><trkpt lat="45.95402404635558" lon="9.316116919677224"><ele>394.8</ele><time>2026-04-25T16:05:58Z</time></trkpt><trkpt lat="45.95403357915353" lon="9.316210677230295"><ele>398.6</ele><time>2026-04-25T16:05:59Z</time></trkpt><trkpt lat="45.954076897981395" lon="9.316310921004792"><ele>402.4</ele><time>2026-04-25T16:06:01Z</time></trkpt><trkpt lat="45.95412849083053" lon="9.316425632471907"><ele>406.2</ele><time>2026-04-25T16:06:03Z</time></trkpt><trkpt lat="45.95420648777528" lon="9.316525157847098"><ele>410.0</ele><time>2026-04-25T16:06:07Z</time></trkpt><trkpt lat="45.95431444955292" lon="9.316583936423715"><ele>413.2</ele><time>2026-04-25T16:06:09Z</time></trkpt><trkpt lat="45.9544255808431" lon="9.316607403424518"><ele>416.4</ele><time>2026-04-25T16:06:11Z</time></trkpt><trkpt lat="45.954529792277505" lon="9.316667504158062"><ele>419.6</ele><time>2026-04-25T16:06:12Z</time></trkpt><trkpt lat="45.954652116727466" lon="9.31670694770886"><ele>422.8</ele><time>2026-04-25T16:06:14Z</time></trkpt><trkpt lat="45.95471891871079" lon="9.316719915261224"><ele>426.0</ele><time>2026-04-25T16:06:15Z</time></trkpt><trkpt lat="45.95478664781849" lon="9.31673946287321"><ele>426.0</ele><time>2026-04-25T16:06:16Z</time></trkpt><trkpt lat="45.95485495025022" lon="9.31677931844668"><ele>426.0</ele><time>2026-04-25T16:06:17Z</time></trkpt><trkpt lat="45.95495435160891" lon="9.316827715128682"><ele>426.0</ele><time>2026-04-25T16:06:19Z</time></trkpt><trkpt lat="45.95503430927987" lon="9.316859075930163"><ele>426.0</ele><time>2026-04-25T16:06:21Z</time></trkpt><trkpt lat="45.95508680783933" lon="9.316930266347141"><ele>426.0</ele><time>2026-04-25T16:06:23Z</time></trkpt><trkpt lat="45.955125207294444" lon="9.317015359412819"><ele>426.0</ele><time>2026-04-25T16:06:25Z</time></trkpt><trkpt lat="45.95515444180768" lon="9.317101031207018"><ele>428.8333333333333</ele><time>2026-04-25T16:06:26Z</time></trkpt><trkpt lat="45.955125329072786" lon="9.317208516315095"><ele>431.66666666666663</ele><time>2026-04-25T16:06:32Z</time></trkpt><trkpt lat="45.955079739422764" lon="9.317297720385701"><ele>434.5</ele><time>2026-04-25T16:06:34Z</time></trkpt><trkpt lat="45.95498071239469" lon="9.317314087497424"><ele>437.3333333333333</ele><time>2026-04-25T16:06:38Z</time></trkpt><trkpt lat="45.954915317076825" lon="9.317297827053284"><ele>440.16666666666663</ele><time>2026-04-25T16:06:41Z</time></trkpt><trkpt lat="45.95484604491487" lon="9.317374918458611"><ele>443.0</ele><time>2026-04-25T16:06:43Z</time></trkpt><trkpt lat="45.954750374598596" lon="9.317322731177613"><ele>445.16666666666663</ele><time>2026-04-25T16:06:45Z</time></trkpt><trkpt lat="45.95469204945703" lon="9.317357937086483"><ele>447.3333333333333</ele><time>2026-04-25T16:06:46Z</time></trkpt><trkpt lat="45.95462980250377" lon="9.317377252046482"><ele>449.5</ele><time>2026-04-25T16:06:47Z</time></trkpt><trkpt lat="45.95452530875116" lon="9.317362766485568"><ele>451.66666666666663</ele><time>2026-04-25T16:06:49Z</time></trkpt><trkpt lat="45.954451135560824" lon="9.3173711353269"><ele>453.8333333333333</ele><time>2026-04-25T16:06:50.001Z</time></trkpt><trkpt lat="45.95434682725392" lon="9.317396169847248"><ele>456.0</ele><time>2026-04-25T16:06:52.001Z</time></trkpt><trkpt lat="45.95426179522405" lon="9.317461501888566"><ele>457.8333333333333</ele><time>2026-04-25T16:06:54Z</time></trkpt><trkpt lat="45.95416880163259" lon="9.317515457688923"><ele>459.66666666666663</ele><time>2026-04-25T16:06:57Z</time></trkpt><trkpt lat="45.95411235890299" lon="9.317559424847955"><ele>461.5</ele><time>2026-04-25T16:06:59Z</time></trkpt><trkpt lat="45.954008170317536" lon="9.317532046780771"><ele>463.3333333333333</ele><time>2026-04-25T16:07:01Z</time></trkpt><trkpt lat="45.95395798016527" lon="9.317591265929329"><ele>465.16666666666663</ele><time>2026-04-25T16:07:02Z</time></trkpt><trkpt lat="45.95388711602691" lon="9.317587390125128"><ele>467.0</ele><time>2026-04-25T16:07:04Z</time></trkpt><trkpt lat="45.95380363285118" lon="9.317568374160988"><ele>466.99999999999994</ele><time>2026-04-25T16:07:06Z</time></trkpt><trkpt lat="45.953728874681175" lon="9.317604514427185"><ele>467.0</ele><time>2026-04-25T16:07:08Z</time></trkpt><trkpt lat="45.953660078265635" lon="9.31764004135111"><ele>467.0</ele><time>2026-04-25T16:07:09Z</time></trkpt><trkpt lat="45.953599498781706" lon="9.317600535851328"><ele>467.0</ele><time>2026-04-25T16:07:10Z</time></trkpt><trkpt lat="45.95353122067107" lon="9.317639326133245"><ele>466.99999999999994</ele><time>2026-04-25T16:07:11Z</time></trkpt><trkpt lat="45.95346627781252" lon="9.317688890270926"><ele>467.0</ele><time>2026-04-25T16:07:13Z</time></trkpt><trkpt lat="45.95337819122006" lon="9.317663764313146"><ele>467.99999999999994</ele><time>2026-04-25T16:07:15Z</time></trkpt><trkpt lat="45.953360042419" lon="9.31757327279344"><ele>469.0</ele><time>2026-04-25T16:07:18Z</time></trkpt><trkpt lat="45.95330091403338" lon="9.317492869658299"><ele>469.99999999999994</ele><time>2026-04-25T16:07:20Z</time></trkpt><trkpt lat="45.95326391808986" lon="9.31739453167398"><ele>470.99999999999994</ele><time>2026-04-25T16:07:22Z</time></trkpt><trkpt lat="45.95319880407691" lon="9.317363066547928"><ele>472.0</ele><time>2026-04-25T16:07:28Z</time></trkpt><trkpt lat="45.95312871714843" lon="9.317368595491782"><ele>472.99999999999994</ele><time>2026-04-25T16:07:35Z</time></trkpt><trkpt lat="45.95312525851047" lon="9.317478209552675"><ele>473.99999999999994</ele><time>2026-04-25T16:07:38Z</time></trkpt><trkpt lat="45.9531108829449" lon="9.317618557518523"><ele>474.0</ele><time>2026-04-25T16:07:41Z</time></trkpt><trkpt lat="45.95305768673954" lon="9.317737207880361"><ele>474.0</ele><time>2026-04-25T16:07:46Z</time></trkpt><trkpt lat="45.953034403593286" lon="9.317871289312432"><ele>474.0</ele><time>2026-04-25T16:08:24Z</time></trkpt><trkpt lat="45.95307919925466" lon="9.317969048566026"><ele>474.0</ele><time>2026-04-25T16:10:27Z</time></trkpt><trkpt lat="45.95301609843764" lon="9.318065005961527"><ele>474.0</ele><time>2026-04-25T16:10:38Z</time></trkpt><trkpt lat="45.95298838382259" lon="9.318187806738297"><ele>479.4</ele><time>2026-04-25T16:10:40Z</time></trkpt><trkpt lat="45.95297110670887" lon="9.318291845476745"><ele>484.79999999999995</ele><time>2026-04-25T16:10:42Z</time></trkpt><trkpt lat="45.95294573138166" lon="9.318420532529487"><ele>490.20000000000005</ele><time>2026-04-25T16:10:45Z</time></trkpt><trkpt lat="45.952868336577396" lon="9.318437436102208"><ele>495.6</ele><time>2026-04-25T16:10:49Z</time></trkpt><trkpt lat="45.952756611188875" lon="9.318426732912451"><ele>501.0</ele><time>2026-04-25T16:10:51Z</time></trkpt><trkpt lat="45.95266447055573" lon="9.318411528378357"><ele>501.0</ele><time>2026-04-25T16:10:53Z</time></trkpt><trkpt lat="45.95259142763078" lon="9.318522061822538"><ele>501.0</ele><time>2026-04-25T16:10:55Z</time></trkpt><trkpt lat="45.952524677138165" lon="9.31853805202633"><ele>501.0</ele><time>2026-04-25T16:10:56Z</time></trkpt><trkpt lat="45.95244854980778" lon="9.318621821354661"><ele>501.0</ele><time>2026-04-25T16:10:58Z</time></trkpt><trkpt lat="45.95238582160076" lon="9.318660944249128"><ele>501.0</ele><time>2026-04-25T16:11:00Z</time></trkpt><trkpt lat="45.95229576311824" lon="9.318689961111193"><ele>501.0</ele><time>2026-04-25T16:11:02Z</time></trkpt><trkpt lat="45.95221880849488" lon="9.318695635336487"><ele>498.8333333333333</ele><time>2026-04-25T16:11:04Z</time></trkpt><trkpt lat="45.952159510124744" lon="9.318748089879145"><ele>496.66666666666663</ele><time>2026-04-25T16:11:05.999Z</time></trkpt><trkpt lat="45.95210922783589" lon="9.318864071402777"><ele>494.5</ele><time>2026-04-25T16:11:07.999Z</time></trkpt><trkpt lat="45.95203406016305" lon="9.318852632863242"><ele>492.3333333333333</ele><time>2026-04-25T16:11:08.999Z</time></trkpt><trkpt lat="45.951948753942034" lon="9.318875534242354"><ele>490.16666666666663</ele><time>2026-04-25T16:11:10.999Z</time></trkpt><trkpt lat="45.95191777581301" lon="9.318983450274617"><ele>488.0</ele><time>2026-04-25T16:11:12.999Z</time></trkpt><trkpt lat="45.951885091522215" lon="9.31908642111414"><ele>492.49999999999994</ele><time>2026-04-25T16:11:15.999Z</time></trkpt><trkpt lat="45.95183168173309" lon="9.319158166848018"><ele>497.0</ele><time>2026-04-25T16:11:26.999Z</time></trkpt><trkpt lat="45.9518207247144" lon="9.319258006050452"><ele>501.5</ele><time>2026-04-25T16:11:29.999Z</time></trkpt><trkpt lat="45.95185742785028" lon="9.319355244021523"><ele>506.0</ele><time>2026-04-25T16:11:31.999Z</time></trkpt><trkpt lat="45.95189386370901" lon="9.319462070532614"><ele>510.49999999999994</ele><time>2026-04-25T16:11:35Z</time></trkpt><trkpt lat="45.951839519538446" lon="9.319576013827707"><ele>515.0</ele><time>2026-04-25T16:11:37Z</time></trkpt><trkpt lat="45.951849902559005" lon="9.319670312247696"><ele>513.2</ele><time>2026-04-25T16:11:40Z</time></trkpt><trkpt lat="45.951798793279906" lon="9.31975724898344"><ele>511.4</ele><time>2026-04-25T16:11:43Z</time></trkpt><trkpt lat="45.95173424779245" lon="9.319883923768089"><ele>509.6</ele><time>2026-04-25T16:11:45Z</time></trkpt><trkpt lat="45.951630863313355" lon="9.319977019892939"><ele>507.8</ele><time>2026-04-25T16:11:47Z</time></trkpt><trkpt lat="45.951574267325" lon="9.320047299757043"><ele>506.0</ele><time>2026-04-25T16:11:49Z</time></trkpt><trkpt lat="45.95150569461752" lon="9.319915506032261"><ele>505.99999999999994</ele><time>2026-04-25T16:11:53Z</time></trkpt><trkpt lat="45.95144295926446" lon="9.31982359280369"><ele>506.0</ele><time>2026-04-25T16:11:55Z</time></trkpt><trkpt lat="45.95135963252552" lon="9.319786878975094"><ele>506.0</ele><time>2026-04-25T16:11:57Z</time></trkpt><trkpt lat="45.951278411407564" lon="9.31976730411473"><ele>506.0</ele><time>2026-04-25T16:11:59Z</time></trkpt><trkpt lat="45.951196851480276" lon="9.319792026307134"><ele>505.99999999999994</ele><time>2026-04-25T16:12:01Z</time></trkpt><trkpt lat="45.9511283101746" lon="9.31983115689296"><ele>506.0</ele><time>2026-04-25T16:12:03Z</time></trkpt><trkpt lat="45.95108519065702" lon="9.319758412661118"><ele>505.99999999999994</ele><time>2026-04-25T16:12:04Z</time></trkpt><trkpt lat="45.95101241171262" lon="9.319774214969264"><ele>506.0</ele><time>2026-04-25T16:12:07Z</time></trkpt><trkpt lat="45.95094266461205" lon="9.319778042989048"><ele>506.0</ele><time>2026-04-25T16:12:11Z</time></trkpt><trkpt lat="45.95085648247374" lon="9.319734310325705"><ele>506.0</ele><time>2026-04-25T16:12:13Z</time></trkpt><trkpt lat="45.95075203527286" lon="9.319685190987787"><ele>505.99999999999994</ele><time>2026-04-25T16:12:16Z</time></trkpt><trkpt lat="45.950660490590565" lon="9.319650415261735"><ele>506.0</ele><time>2026-04-25T16:12:18Z</time></trkpt><trkpt lat="45.950566047708435" lon="9.319558034574337"><ele>504.20000000000005</ele><time>2026-04-25T16:12:22Z</time></trkpt><trkpt lat="45.95049370815726" lon="9.319536398092696"><ele>502.40000000000003</ele><time>2026-04-25T16:12:25Z</time></trkpt><trkpt lat="45.950364019754865" lon="9.319544757337695"><ele>500.6</ele><time>2026-04-25T16:12:27Z</time></trkpt><trkpt lat="45.9502918308723" lon="9.319501370455313"><ele>498.8</ele><time>2026-04-25T16:12:29Z</time></trkpt><trkpt lat="45.950185798611095" lon="9.319417559965206"><ele>497.0</ele><time>2026-04-25T16:12:31Z</time></trkpt><trkpt lat="45.95012211769192" lon="9.319353611021457"><ele>496.99999999999994</ele><time>2026-04-25T16:12:32Z</time></trkpt><trkpt lat="45.95005594431196" lon="9.31929859687378"><ele>497.0</ele><time>2026-04-25T16:12:33Z</time></trkpt><trkpt lat="45.95000469719557" lon="9.319222125651741"><ele>497.0</ele><time>2026-04-25T16:12:35Z</time></trkpt><trkpt lat="45.94993298332122" lon="9.319267716086246"><ele>497.0</ele><time>2026-04-25T16:12:38Z</time></trkpt><trkpt lat="45.9499024772779" lon="9.319360233180538"><ele>496.99999999999994</ele><time>2026-04-25T16:12:40Z</time></trkpt><trkpt lat="45.949886342816036" lon="9.319456845124607"><ele>497.0</ele><time>2026-04-25T16:12:43Z</time></trkpt><trkpt lat="45.94981299695728" lon="9.319567864897062"><ele>500.20000000000005</ele><time>2026-04-25T16:12:46Z</time></trkpt><trkpt lat="45.94972889189482" lon="9.319634494929668"><ele>503.40000000000003</ele><time>2026-04-25T16:12:48Z</time></trkpt><trkpt lat="45.94966267372001" lon="9.319657773501813"><ele>506.59999999999997</ele><time>2026-04-25T16:12:49Z</time></trkpt><trkpt lat="45.94960790418174" lon="9.319752693205851"><ele>509.79999999999995</ele><time>2026-04-25T16:12:51Z</time></trkpt><trkpt lat="45.94950450533958" lon="9.319810699536536"><ele>513.0</ele><time>2026-04-25T16:12:53Z</time></trkpt><trkpt lat="45.94945003917544" lon="9.319926045906714"><ele>518.1999999999999</ele><time>2026-04-25T16:12:55Z</time></trkpt><trkpt lat="45.94937077844785" lon="9.320058756922743"><ele>523.4</ele><time>2026-04-25T16:12:59Z</time></trkpt><trkpt lat="45.949275656930205" lon="9.320092307926112"><ele>528.5999999999999</ele><time>2026-04-25T16:13:01Z</time></trkpt><trkpt lat="45.949183846646086" lon="9.320052745446784"><ele>533.8</ele><time>2026-04-25T16:13:03Z</time></trkpt><trkpt lat="45.94918970058557" lon="9.31994806431907"><ele>539.0</ele><time>2026-04-25T16:13:06Z</time></trkpt><trkpt lat="45.94918176029882" lon="9.31981796820669"><ele>537.6666666666666</ele><time>2026-04-25T16:13:07Z</time></trkpt><trkpt lat="45.949207924244554" lon="9.31973114064671"><ele>536.3333333333333</ele><time>2026-04-25T16:13:09Z</time></trkpt><trkpt lat="45.94921134849588" lon="9.31963875284527"><ele>535.0</ele><time>2026-04-25T16:13:10Z</time></trkpt><trkpt lat="45.94924342132697" lon="9.319502513314408"><ele>533.6666666666666</ele><time>2026-04-25T16:13:12Z</time></trkpt><trkpt lat="45.94924108011736" lon="9.31937339804677"><ele>532.3333333333334</ele><time>2026-04-25T16:13:14Z</time></trkpt><trkpt lat="45.94929385037868" lon="9.319257029823156"><ele>531.0</ele><time>2026-04-25T16:13:18Z</time></trkpt><trkpt lat="45.949278720010206" lon="9.319158450771367"><ele>531.0</ele><time>2026-04-25T16:13:20Z</time></trkpt><trkpt lat="45.949217240056555" lon="9.319091205194162"><ele>531.0</ele><time>2026-04-25T16:13:22Z</time></trkpt><trkpt lat="45.94910668227555" lon="9.319119293977824"><ele>531.0</ele><time>2026-04-25T16:13:25Z</time></trkpt><trkpt lat="45.94904533986195" lon="9.319183566044366"><ele>531.0</ele><time>2026-04-25T16:13:27Z</time></trkpt><trkpt lat="45.948937735907286" lon="9.319171478952583"><ele>531.0</ele><time>2026-04-25T16:13:30Z</time></trkpt><trkpt lat="45.9488690158851" lon="9.319151747662412"><ele>531.0</ele><time>2026-04-25T16:13:32Z</time></trkpt><trkpt lat="45.948815545716236" lon="9.319099286066804"><ele>531.0</ele><time>2026-04-25T16:13:33Z</time></trkpt><trkpt lat="45.94874839649634" lon="9.319074627899207"><ele>531.0</ele><time>2026-04-25T16:13:35Z</time></trkpt><trkpt lat="45.94865663159687" lon="9.3190995967669"><ele>531.0</ele><time>2026-04-25T16:13:37Z</time></trkpt><trkpt lat="45.94856162346361" lon="9.319121891116112"><ele>531.0</ele><time>2026-04-25T16:13:39Z</time></trkpt><trkpt lat="45.94847459450168" lon="9.319103285485943"><ele>531.0</ele><time>2026-04-25T16:13:41Z</time></trkpt><trkpt lat="45.948375926083884" lon="9.319100042110207"><ele>531.0</ele><time>2026-04-25T16:13:43Z</time></trkpt><trkpt lat="45.94828042967959" lon="9.319126399286688"><ele>532.2</ele><time>2026-04-25T16:13:45Z</time></trkpt><trkpt lat="45.948188175432264" lon="9.319172734799173"><ele>533.4000000000001</ele><time>2026-04-25T16:13:47Z</time></trkpt><trkpt lat="45.94808706149724" lon="9.319175063097097"><ele>534.6</ele><time>2026-04-25T16:13:49Z</time></trkpt><trkpt lat="45.947988212582864" lon="9.31909893806562"><ele>535.8000000000001</ele><time>2026-04-25T16:13:51Z</time></trkpt><trkpt lat="45.947905175523545" lon="9.318991644626704"><ele>537.0</ele><time>2026-04-25T16:13:53Z</time></trkpt><trkpt lat="45.9478571642341" lon="9.31893140398042"><ele>532.6</ele><time>2026-04-25T16:13:54Z</time></trkpt><trkpt lat="45.94776357893661" lon="9.318827726398448"><ele>528.2</ele><time>2026-04-25T16:13:56Z</time></trkpt><trkpt lat="45.94767054231867" lon="9.318697258249415"><ele>523.8</ele><time>2026-04-25T16:13:58Z</time></trkpt><trkpt lat="45.947605086790794" lon="9.318654268620927"><ele>519.4</ele><time>2026-04-25T16:13:59Z</time></trkpt><trkpt lat="45.94754374377677" lon="9.318628616889562"><ele>515.0</ele><time>2026-04-25T16:14:00Z</time></trkpt><trkpt lat="45.947446145768744" lon="9.318567388945965"><ele>514.4</ele><time>2026-04-25T16:14:02Z</time></trkpt><trkpt lat="45.947349441015476" lon="9.318477576044568"><ele>513.8</ele><time>2026-04-25T16:14:04Z</time></trkpt><trkpt lat="45.94723078921508" lon="9.318436114392524"><ele>513.2</ele><time>2026-04-25T16:14:06Z</time></trkpt><trkpt lat="45.947141177148254" lon="9.318356587056842"><ele>512.6</ele><time>2026-04-25T16:14:08Z</time></trkpt><trkpt lat="45.94713622907477" lon="9.318244718600381"><ele>512.0</ele><time>2026-04-25T16:14:10Z</time></trkpt><trkpt lat="45.94714448187295" lon="9.318139008538234"><ele>508.40000000000003</ele><time>2026-04-25T16:14:11Z</time></trkpt><trkpt lat="45.9471161009826" lon="9.317998480755753"><ele>504.80000000000007</ele><time>2026-04-25T16:14:13Z</time></trkpt><trkpt lat="45.94707090625977" lon="9.317930319442082"><ele>501.2</ele><time>2026-04-25T16:14:14Z</time></trkpt><trkpt lat="45.946988202994994" lon="9.317875864394932"><ele>497.6</ele><time>2026-04-25T16:14:16Z</time></trkpt><trkpt lat="45.946901113876244" lon="9.317841300089206"><ele>494.0</ele><time>2026-04-25T16:14:18Z</time></trkpt><trkpt lat="45.94680028776632" lon="9.317850177134376"><ele>493.2</ele><time>2026-04-25T16:14:20Z</time></trkpt><trkpt lat="45.946686734448015" lon="9.31789222931867"><ele>492.4</ele><time>2026-04-25T16:14:22Z</time></trkpt><trkpt lat="45.946589482472234" lon="9.317903927421641"><ele>491.6</ele><time>2026-04-25T16:14:24Z</time></trkpt><trkpt lat="45.946485097605596" lon="9.317854796920964"><ele>490.8</ele><time>2026-04-25T16:14:26.001Z</time></trkpt><trkpt lat="45.94643942113826" lon="9.317782636573666"><ele>490.0</ele><time>2026-04-25T16:14:27.001Z</time></trkpt><trkpt lat="45.94637739581264" lon="9.317648917289288"><ele>490.00000000000006</ele><time>2026-04-25T16:14:29.001Z</time></trkpt><trkpt lat="45.946344335145824" lon="9.317564678050422"><ele>490.0</ele><time>2026-04-25T16:14:30.001Z</time></trkpt><trkpt lat="45.946305913601456" lon="9.317490422300942"><ele>490.0</ele><time>2026-04-25T16:14:31.001Z</time></trkpt><trkpt lat="45.946222803505705" lon="9.317389366003578"><ele>490.0</ele><time>2026-04-25T16:14:33.001Z</time></trkpt><trkpt lat="45.946117935538226" lon="9.317328560651173"><ele>490.00000000000006</ele><time>2026-04-25T16:14:35.001Z</time></trkpt><trkpt lat="45.946052156677936" lon="9.31730267282802"><ele>490.0</ele><time>2026-04-25T16:14:36.001Z</time></trkpt><trkpt lat="45.9459733435852" lon="9.31721587430314"><ele>484.25</ele><time>2026-04-25T16:14:38.001Z</time></trkpt><trkpt lat="45.94587271040773" lon="9.31713076347615"><ele>478.5</ele><time>2026-04-25T16:14:40.001Z</time></trkpt><trkpt lat="45.94577225461284" lon="9.317119839584361"><ele>472.75</ele><time>2026-04-25T16:14:42.001Z</time></trkpt><trkpt lat="45.945638448176" lon="9.317119022558982"><ele>467.0</ele><time>2026-04-25T16:14:44.001Z</time></trkpt><trkpt lat="45.9455348790223" lon="9.317046783935332"><ele>466.99999999999994</ele><time>2026-04-25T16:14:46.001Z</time></trkpt><trkpt lat="45.94547698620212" lon="9.316888287122337"><ele>467.0</ele><time>2026-04-25T16:14:48.001Z</time></trkpt><trkpt lat="45.94538845400889" lon="9.316793597876083"><ele>467.0</ele><time>2026-04-25T16:14:50.001Z</time></trkpt><trkpt lat="45.94532085308176" lon="9.31678113856751"><ele>467.0</ele><time>2026-04-25T16:14:51.001Z</time></trkpt><trkpt lat="45.94525329772812" lon="9.316760584139447"><ele>466.99999999999994</ele><time>2026-04-25T16:14:52.001Z</time></trkpt><trkpt lat="45.945188064413294" lon="9.316733508164393"><ele>467.0</ele><time>2026-04-25T16:14:53.001Z</time></trkpt><trkpt lat="45.94512466367488" lon="9.316731095604169"><ele>467.0</ele><time>2026-04-25T16:14:54.001Z</time></trkpt><trkpt lat="45.94505093175733" lon="9.31674549474248"><ele>467.00000000000006</ele><time>2026-04-25T16:14:55.001Z</time></trkpt><trkpt lat="45.94498477318215" lon="9.31676672982154"><ele>467.00000000000006</ele><time>2026-04-25T16:14:56.001Z</time></trkpt><trkpt lat="45.944876809891376" lon="9.316796479875402"><ele>467.0</ele><time>2026-04-25T16:14:58.001Z</time></trkpt><trkpt lat="45.9447788550758" lon="9.316804034630685"><ele>467.0</ele><time>2026-04-25T16:15:00.001Z</time></trkpt><trkpt lat="45.94465964517616" lon="9.316787442547813"><ele>467.5</ele><time>2026-04-25T16:15:02.001Z</time></trkpt><trkpt lat="45.944541249147264" lon="9.31676414679772"><ele>468.0</ele><time>2026-04-25T16:15:04.001Z</time></trkpt><trkpt lat="45.94443857531941" lon="9.316694610332148"><ele>468.5</ele><time>2026-04-25T16:15:06.001Z</time></trkpt><trkpt lat="45.944359838530694" lon="9.316613772669825"><ele>469.0</ele><time>2026-04-25T16:15:08.001Z</time></trkpt><trkpt lat="45.94426538144249" lon="9.316496310237476"><ele>469.0</ele><time>2026-04-25T16:15:10.001Z</time></trkpt><trkpt lat="45.94419349251371" lon="9.316490409789234"><ele>469.0</ele><time>2026-04-25T16:15:11.001Z</time></trkpt><trkpt lat="45.94412562624921" lon="9.316493743027058"><ele>469.0</ele><time>2026-04-25T16:15:12.001Z</time></trkpt><trkpt lat="45.944061431563924" lon="9.316488933921642"><ele>469.0</ele><time>2026-04-25T16:15:13.001Z</time></trkpt><trkpt lat="45.94399757826774" lon="9.316470399054632"><ele>469.0</ele><time>2026-04-25T16:15:14.001Z</time></trkpt><trkpt lat="45.94393113863385" lon="9.3164491741309"><ele>469.0</ele><time>2026-04-25T16:15:15.001Z</time></trkpt><trkpt lat="45.943858703569354" lon="9.316402104410146"><ele>469.0</ele><time>2026-04-25T16:15:16.001Z</time></trkpt><trkpt lat="45.94377405508913" lon="9.316350966520865"><ele>464.6666666666667</ele><time>2026-04-25T16:15:17.001Z</time></trkpt><trkpt lat="45.9436725899258" lon="9.316274427922806"><ele>460.33333333333337</ele><time>2026-04-25T16:15:19.001Z</time></trkpt><trkpt lat="45.943613772714116" lon="9.316226013494694"><ele>456.0</ele><time>2026-04-25T16:15:20.001Z</time></trkpt><trkpt lat="45.94354914603626" lon="9.316177266452666"><ele>451.66666666666663</ele><time>2026-04-25T16:15:21.001Z</time></trkpt><trkpt lat="45.94349596602021" lon="9.316103258161585"><ele>447.3333333333333</ele><time>2026-04-25T16:15:22.001Z</time></trkpt><trkpt lat="45.94344753963554" lon="9.316018172989859"><ele>443.0</ele><time>2026-04-25T16:15:23.001Z</time></trkpt><trkpt lat="45.94336606328473" lon="9.315914662472096"><ele>443.0</ele><time>2026-04-25T16:15:25.001Z</time></trkpt><trkpt lat="45.943334300021505" lon="9.315832753184122"><ele>442.99999999999994</ele><time>2026-04-25T16:15:26.001Z</time></trkpt><trkpt lat="45.943253897365445" lon="9.315724803120114"><ele>442.99999999999994</ele><time>2026-04-25T16:15:28.001Z</time></trkpt><trkpt lat="45.943134565787055" lon="9.315722739583938"><ele>443.0</ele><time>2026-04-25T16:15:30.001Z</time></trkpt><trkpt lat="45.943018818346125" lon="9.31577673031017"><ele>443.0</ele><time>2026-04-25T16:15:32.001Z</time></trkpt><trkpt lat="45.942935883531405" lon="9.315863344465534"><ele>443.0</ele><time>2026-04-25T16:15:34.001Z</time></trkpt><trkpt lat="45.9428200887501" lon="9.3157688904183"><ele>442.99999999999994</ele><time>2026-04-25T16:15:36.001Z</time></trkpt><trkpt lat="45.942756381598386" lon="9.315639852513174"><ele>442.99999999999994</ele><time>2026-04-25T16:15:38.001Z</time></trkpt><trkpt lat="45.94268157579063" lon="9.315536812824995"><ele>443.0</ele><time>2026-04-25T16:15:40.001Z</time></trkpt><trkpt lat="45.9426567474119" lon="9.315426212777561"><ele>443.0</ele><time>2026-04-25T16:15:42Z</time></trkpt><trkpt lat="45.94260737848961" lon="9.31535884142314"><ele>437.3333333333333</ele><time>2026-04-25T16:15:45Z</time></trkpt><trkpt lat="45.942516581276" lon="9.315384001870417"><ele>431.66666666666663</ele><time>2026-04-25T16:15:47Z</time></trkpt><trkpt lat="45.94241827622216" lon="9.315332594492311"><ele>426.0</ele><time>2026-04-25T16:15:49Z</time></trkpt><trkpt lat="45.942321438933035" lon="9.315274103505988"><ele>420.33333333333337</ele><time>2026-04-25T16:15:51Z</time></trkpt><trkpt lat="45.94226333200189" lon="9.315227912685396"><ele>414.6666666666667</ele><time>2026-04-25T16:15:52Z</time></trkpt><trkpt lat="45.94219830354011" lon="9.315164787258807"><ele>409.0</ele><time>2026-04-25T16:15:53Z</time></trkpt><trkpt lat="45.94216298424236" lon="9.315089061263564"><ele>409.00000000000006</ele><time>2026-04-25T16:15:54Z</time></trkpt><trkpt lat="45.94210360116905" lon="9.31498780117474"><ele>409.0</ele><time>2026-04-25T16:15:56Z</time></trkpt><trkpt lat="45.94217144251735" lon="9.314960233819907"><ele>409.0</ele><time>2026-04-25T16:26:32.001Z</time></trkpt><trkpt lat="45.942225847494896" lon="9.314902983734186"><ele>409.0</ele><time>2026-04-25T16:26:34.001Z</time></trkpt><trkpt lat="45.9422884031418" lon="9.314847119113836"><ele>409.00000000000006</ele><time>2026-04-25T16:26:36.001Z</time></trkpt><trkpt lat="45.942370664617314" lon="9.31479177437473"><ele>409.0</ele><time>2026-04-25T16:26:39.001Z</time></trkpt><trkpt lat="45.94244816890045" lon="9.314682212722206"><ele>407.0</ele><time>2026-04-25T16:26:42.001Z</time></trkpt><trkpt lat="45.94252067443743" lon="9.31459852739044"><ele>405.0</ele><time>2026-04-25T16:26:44.001Z</time></trkpt><trkpt lat="45.94257557002587" lon="9.314469732634393"><ele>403.0</ele><time>2026-04-25T16:26:46.001Z</time></trkpt><trkpt lat="45.94266060838738" lon="9.31437717701269"><ele>401.0</ele><time>2026-04-25T16:26:48.001Z</time></trkpt><trkpt lat="45.942749978022874" lon="9.314291872707399"><ele>399.0</ele><time>2026-04-25T16:26:50.001Z</time></trkpt><trkpt lat="45.94284782411304" lon="9.314224299817326"><ele>397.8333333333333</ele><time>2026-04-25T16:26:52.001Z</time></trkpt><trkpt lat="45.9429288005393" lon="9.314124417957196"><ele>396.66666666666663</ele><time>2026-04-25T16:26:55.001Z</time></trkpt><trkpt lat="45.94296766709717" lon="9.314046219941071"><ele>395.5</ele><time>2026-04-25T16:26:57.001Z</time></trkpt><trkpt lat="45.943011308763104" lon="9.31397355390679"><ele>394.3333333333333</ele><time>2026-04-25T16:26:59.002Z</time></trkpt><trkpt lat="45.94311086043473" lon="9.313919131931115"><ele>393.16666666666663</ele><time>2026-04-25T16:27:01.002Z</time></trkpt><trkpt lat="45.943171582804595" lon="9.313887022073724"><ele>392.0</ele><time>2026-04-25T16:27:02.002Z</time></trkpt><trkpt lat="45.94322896065671" lon="9.313824527862504"><ele>390.6</ele><time>2026-04-25T16:27:03.002Z</time></trkpt><trkpt lat="45.94335522294698" lon="9.313731599484385"><ele>389.20000000000005</ele><time>2026-04-25T16:27:06.002Z</time></trkpt><trkpt lat="45.94340273431316" lon="9.313652364757246"><ele>387.8</ele><time>2026-04-25T16:27:07.002Z</time></trkpt><trkpt lat="45.943461717200144" lon="9.313582142144467"><ele>386.4</ele><time>2026-04-25T16:27:08.002Z</time></trkpt><trkpt lat="45.94352352782581" lon="9.313484877559285"><ele>385.0</ele><time>2026-04-25T16:27:10.002Z</time></trkpt><trkpt lat="45.94355515257802" lon="9.313381534658909"><ele>384.25</ele><time>2026-04-25T16:27:12.002Z</time></trkpt><trkpt lat="45.94356497468021" lon="9.31323990986712"><ele>383.5</ele><time>2026-04-25T16:27:14.002Z</time></trkpt><trkpt lat="45.943553489932924" lon="9.313065009292039"><ele>382.75</ele><time>2026-04-25T16:27:16.002Z</time></trkpt><trkpt lat="45.94360144852342" lon="9.312874149766357"><ele>382.0</ele><time>2026-04-25T16:27:18.002Z</time></trkpt><trkpt lat="45.94369218456571" lon="9.312667417445784"><ele>380.8333333333333</ele><time>2026-04-25T16:27:20.002Z</time></trkpt><trkpt lat="45.943750995999295" lon="9.3125953920535"><ele>379.66666666666663</ele><time>2026-04-25T16:27:21.002Z</time></trkpt><trkpt lat="45.943834766953714" lon="9.312486719179834"><ele>378.5</ele><time>2026-04-25T16:27:23.002Z</time></trkpt><trkpt lat="45.94388701676534" lon="9.312426293645233"><ele>377.3333333333333</ele><time>2026-04-25T16:27:24.002Z</time></trkpt><trkpt lat="45.94396494809916" lon="9.312352607615793"><ele>376.1666666666667</ele><time>2026-04-25T16:27:26.002Z</time></trkpt><trkpt lat="45.94402150373912" lon="9.31230688338186"><ele>375.0</ele><time>2026-04-25T16:27:27.002Z</time></trkpt><trkpt lat="45.944099405569325" lon="9.312230147569895"><ele>375.5</ele><time>2026-04-25T16:27:29.002Z</time></trkpt><trkpt lat="45.944153796390545" lon="9.312184010423154"><ele>376.0</ele><time>2026-04-25T16:27:30.002Z</time></trkpt><trkpt lat="45.94427018051136" lon="9.3121019008463"><ele>376.5</ele><time>2026-04-25T16:27:32.002Z</time></trkpt><trkpt lat="45.94439022937953" lon="9.312002247426667"><ele>377.0</ele><time>2026-04-25T16:27:34.002Z</time></trkpt><trkpt lat="45.94450387599514" lon="9.31191286885485"><ele>377.0</ele><time>2026-04-25T16:27:36.002Z</time></trkpt><trkpt lat="45.94456979762636" lon="9.311887190705587"><ele>377.0</ele><time>2026-04-25T16:27:37.002Z</time></trkpt><trkpt lat="45.94463761141498" lon="9.311880490098185"><ele>377.0</ele><time>2026-04-25T16:27:38.002Z</time></trkpt><trkpt lat="45.94474665465742" lon="9.311889232626072"><ele>377.0</ele><time>2026-04-25T16:27:40.003Z</time></trkpt><trkpt lat="45.944858713667294" lon="9.311905160017494"><ele>377.0</ele><time>2026-04-25T16:27:42.003Z</time></trkpt><trkpt lat="45.944922333147254" lon="9.311939231705868"><ele>377.0</ele><time>2026-04-25T16:27:43.003Z</time></trkpt><trkpt lat="45.94498877007743" lon="9.311942343027152"><ele>378.83333333333337</ele><time>2026-04-25T16:27:44.003Z</time></trkpt><trkpt lat="45.945088151421835" lon="9.311942893298886"><ele>380.6666666666667</ele><time>2026-04-25T16:27:46.003Z</time></trkpt><trkpt lat="45.94515396585502" lon="9.311955389708332"><ele>382.5</ele><time>2026-04-25T16:27:47.003Z</time></trkpt><trkpt lat="45.94521584671446" lon="9.31197423037041"><ele>384.33333333333337</ele><time>2026-04-25T16:27:48.003Z</time></trkpt><trkpt lat="45.94533706444712" lon="9.31199947942224"><ele>386.1666666666667</ele><time>2026-04-25T16:27:50.003Z</time></trkpt><trkpt lat="45.94541841282785" lon="9.312010679509234"><ele>388.0</ele><time>2026-04-25T16:27:52.002Z</time></trkpt><trkpt lat="45.94553029097612" lon="9.312004908689568"><ele>388.0</ele><time>2026-04-25T16:27:54.002Z</time></trkpt><trkpt lat="45.94560682681796" lon="9.311985329491002"><ele>388.0</ele><time>2026-04-25T16:27:55.002Z</time></trkpt><trkpt lat="45.94568663473255" lon="9.311975673494372"><ele>388.0</ele><time>2026-04-25T16:27:56.002Z</time></trkpt><trkpt lat="45.94577750615078" lon="9.311958479839761"><ele>388.0</ele><time>2026-04-25T16:27:57.002Z</time></trkpt><trkpt lat="45.945885499383245" lon="9.311924685606755"><ele>388.0</ele><time>2026-04-25T16:27:58.002Z</time></trkpt><trkpt lat="45.94599032217779" lon="9.311918619961764"><ele>386.83333333333337</ele><time>2026-04-25T16:27:59.002Z</time></trkpt><trkpt lat="45.9460771235775" lon="9.311914613510526"><ele>385.6666666666667</ele><time>2026-04-25T16:28:00.002Z</time></trkpt><trkpt lat="45.94614900563565" lon="9.311906073747314"><ele>384.5</ele><time>2026-04-25T16:28:01.002Z</time></trkpt><trkpt lat="45.94623169536861" lon="9.311908949156384"><ele>383.33333333333337</ele><time>2026-04-25T16:28:02.002Z</time></trkpt><trkpt lat="45.94631433898616" lon="9.311909729182844"><ele>382.1666666666667</ele><time>2026-04-25T16:28:03.002Z</time></trkpt><trkpt lat="45.94639150675468" lon="9.311922481118298"><ele>381.0</ele><time>2026-04-25T16:28:04.002Z</time></trkpt><trkpt lat="45.946517305668955" lon="9.311928705573429"><ele>381.0</ele><time>2026-04-25T16:28:06.002Z</time></trkpt><trkpt lat="45.94658142572767" lon="9.31193258380694"><ele>381.0</ele><time>2026-04-25T16:28:07.002Z</time></trkpt><trkpt lat="45.94664782023849" lon="9.31193659960966"><ele>381.0</ele><time>2026-04-25T16:28:08.002Z</time></trkpt><trkpt lat="45.94673536667709" lon="9.311923376920822"><ele>381.0</ele><time>2026-04-25T16:28:09.002Z</time></trkpt><trkpt lat="45.94681408661459" lon="9.311934559014714"><ele>381.0</ele><time>2026-04-25T16:28:10.002Z</time></trkpt><trkpt lat="45.94688742077118" lon="9.311938731037408"><ele>381.0</ele><time>2026-04-25T16:28:11.002Z</time></trkpt><trkpt lat="45.94695900719119" lon="9.311966774435366"><ele>381.0</ele><time>2026-04-25T16:28:12.002Z</time></trkpt><trkpt lat="45.94703772540592" lon="9.311990136539118"><ele>379.0</ele><time>2026-04-25T16:28:13.002Z</time></trkpt><trkpt lat="45.94712215299063" lon="9.312008476349561"><ele>377.0</ele><time>2026-04-25T16:28:14.002Z</time></trkpt><trkpt lat="45.94720107782203" lon="9.312023638507503"><ele>375.0</ele><time>2026-04-25T16:28:15.002Z</time></trkpt><trkpt lat="45.94728376620594" lon="9.312049440135185"><ele>373.0</ele><time>2026-04-25T16:28:16.002Z</time></trkpt><trkpt lat="45.94742296898081" lon="9.312071877583374"><ele>371.0</ele><time>2026-04-25T16:28:18.002Z</time></trkpt><trkpt lat="45.94750072020765" lon="9.31207880929882"><ele>369.33333333333337</ele><time>2026-04-25T16:28:19.002Z</time></trkpt><trkpt lat="45.94758337830449" lon="9.312092201174723"><ele>367.6666666666667</ele><time>2026-04-25T16:28:20.002Z</time></trkpt><trkpt lat="45.94766338175619" lon="9.31210371726114"><ele>366.0</ele><time>2026-04-25T16:28:21.002Z</time></trkpt><trkpt lat="45.94773038232367" lon="9.312122777853318"><ele>364.3333333333333</ele><time>2026-04-25T16:28:22.002Z</time></trkpt><trkpt lat="45.947820293022176" lon="9.312120493688582"><ele>362.66666666666663</ele><time>2026-04-25T16:28:24.002Z</time></trkpt><trkpt lat="45.94785321191619" lon="9.312020726094818"><ele>361.0</ele><time>2026-04-25T16:28:28.002Z</time></trkpt><trkpt lat="45.947849902284865" lon="9.311921641714198"><ele>361.0</ele><time>2026-04-25T16:28:31.002Z</time></trkpt><trkpt lat="45.94786199137616" lon="9.311815874355682"><ele>361.0</ele><time>2026-04-25T16:28:33.002Z</time></trkpt><trkpt lat="45.94788738174594" lon="9.31171656788775"><ele>361.0</ele><time>2026-04-25T16:28:37.002Z</time></trkpt><trkpt lat="45.94786064502435" lon="9.311834746328303"><ele>361.0</ele><time>2026-04-25T16:28:51.002Z</time></trkpt><trkpt lat="45.94786010290618" lon="9.311954889824921"><ele>361.0</ele><time>2026-04-25T16:28:53.002Z</time></trkpt><trkpt lat="45.94784736734608" lon="9.31206449350023"><ele>361.0</ele><time>2026-04-25T16:28:56.002Z</time></trkpt><trkpt lat="45.94785440776085" lon="9.312176512208937"><ele>363.5</ele><time>2026-04-25T16:28:58.002Z</time></trkpt><trkpt lat="45.947849509006595" lon="9.312295563391194"><ele>366.0</ele><time>2026-04-25T16:29:00.002Z</time></trkpt><trkpt lat="45.94784848776894" lon="9.312413948815182"><ele>368.5</ele><time>2026-04-25T16:29:02.015Z</time></trkpt><trkpt lat="45.94785450988558" lon="9.312564963591868"><ele>371.0</ele><time>2026-04-25T16:29:04.021Z</time></trkpt><trkpt lat="45.947814698076954" lon="9.312489152949787"><ele>373.5</ele><time>2026-04-25T16:29:07.002Z</time></trkpt><trkpt lat="45.9477630643953" lon="9.312549566254875"><ele>376.0</ele><time>2026-04-25T16:29:08.002Z</time></trkpt><trkpt lat="45.947670469371864" lon="9.312551663617116"><ele>376.0</ele><time>2026-04-25T16:29:10.002Z</time></trkpt><trkpt lat="45.94760884407011" lon="9.312530547416355"><ele>376.0</ele><time>2026-04-25T16:29:12.002Z</time></trkpt><trkpt lat="45.94751234884027" lon="9.312528272169466"><ele>376.0</ele><time>2026-04-25T16:29:15.002Z</time></trkpt><trkpt lat="45.94764592125314" lon="9.312523600863125"><ele>376.0</ele><time>2026-04-25T16:30:47.002Z</time></trkpt><trkpt lat="45.94777709021316" lon="9.312504791522114"><ele>376.0</ele><time>2026-04-25T16:30:52.002Z</time></trkpt><trkpt lat="45.9478425119698" lon="9.312436878875209"><ele>376.0</ele><time>2026-04-25T16:30:55.022Z</time></trkpt><trkpt lat="45.94794090375858" lon="9.312359467157453"><ele>376.0</ele><time>2026-04-25T16:30:59.002Z</time></trkpt><trkpt lat="45.947822928121575" lon="9.312263603207022"><ele>376.0</ele><time>2026-04-25T16:31:00.002Z</time></trkpt><trkpt lat="45.94781858424137" lon="9.312126305150723"><ele>376.0</ele><time>2026-04-25T16:31:02.002Z</time></trkpt><trkpt lat="45.94783572943652" lon="9.311988065621968"><ele>376.0</ele><time>2026-04-25T16:31:04.002Z</time></trkpt><trkpt lat="45.947836303020516" lon="9.311824058421966"><ele>373.0</ele><time>2026-04-25T16:31:06.002Z</time></trkpt><trkpt lat="45.94787963084462" lon="9.311647442478398"><ele>370.0</ele><time>2026-04-25T16:31:08.002Z</time></trkpt><trkpt lat="45.947972516606214" lon="9.311591757759146"><ele>367.0</ele><time>2026-04-25T16:31:09.002Z</time></trkpt><trkpt lat="45.94804557269506" lon="9.311521030582577"><ele>364.0</ele><time>2026-04-25T16:31:10.002Z</time></trkpt><trkpt lat="45.94812765346204" lon="9.311431263977404"><ele>361.0</ele><time>2026-04-25T16:31:11.002Z</time></trkpt><trkpt lat="45.94818825612013" lon="9.311371379359981"><ele>358.6</ele><time>2026-04-25T16:31:12.002Z</time></trkpt><trkpt lat="45.948292282443795" lon="9.311308277326077"><ele>356.20000000000005</ele><time>2026-04-25T16:31:14.002Z</time></trkpt><trkpt lat="45.948358620584294" lon="9.311305356686274"><ele>353.79999999999995</ele><time>2026-04-25T16:31:15.002Z</time></trkpt><trkpt lat="45.948479526683734" lon="9.311327192387566"><ele>351.4</ele><time>2026-04-25T16:31:17.002Z</time></trkpt><trkpt lat="45.9485498334791" lon="9.311336266762574"><ele>349.0</ele><time>2026-04-25T16:31:18.002Z</time></trkpt><trkpt lat="45.94865990740297" lon="9.311340528220699"><ele>348.2</ele><time>2026-04-25T16:31:20.002Z</time></trkpt><trkpt lat="45.94875971884942" lon="9.311339949653986"><ele>347.4</ele><time>2026-04-25T16:31:22.002Z</time></trkpt><trkpt lat="45.948867152819325" lon="9.311315592978472"><ele>346.6</ele><time>2026-04-25T16:31:24.002Z</time></trkpt><trkpt lat="45.948983401595086" lon="9.311334463645311"><ele>345.8</ele><time>2026-04-25T16:31:26.002Z</time></trkpt><trkpt lat="45.949052134030694" lon="9.311360660127914"><ele>345.0</ele><time>2026-04-25T16:31:27.002Z</time></trkpt><trkpt lat="45.949116066515565" lon="9.311385683199319"><ele>343.3333333333333</ele><time>2026-04-25T16:31:28.002Z</time></trkpt><trkpt lat="45.949194643167395" lon="9.311417210469374"><ele>341.6666666666667</ele><time>2026-04-25T16:31:29.002Z</time></trkpt><trkpt lat="45.949276674957886" lon="9.311444509791135"><ele>340.0</ele><time>2026-04-25T16:31:30.002Z</time></trkpt><trkpt lat="45.949347800604976" lon="9.311472961210365"><ele>338.33333333333337</ele><time>2026-04-25T16:31:31.002Z</time></trkpt><trkpt lat="45.9494201698211" lon="9.311492068204052"><ele>336.6666666666667</ele><time>2026-04-25T16:31:32.002Z</time></trkpt><trkpt lat="45.94949032661022" lon="9.31152054726658"><ele>335.0</ele><time>2026-04-25T16:31:33.002Z</time></trkpt><trkpt lat="45.94955639277984" lon="9.311520469781003"><ele>335.0</ele><time>2026-04-25T16:31:34.002Z</time></trkpt><trkpt lat="45.94961362229744" lon="9.311470785058761"><ele>335.0</ele><time>2026-04-25T16:31:35.002Z</time></trkpt><trkpt lat="45.94965438230472" lon="9.311387657459811"><ele>335.0</ele><time>2026-04-25T16:31:36.002Z</time></trkpt><trkpt lat="45.9497022491777" lon="9.311303739109915"><ele>335.0</ele><time>2026-04-25T16:31:37.002Z</time></trkpt><trkpt lat="45.94974255848864" lon="9.311218678729453"><ele>335.0</ele><time>2026-04-25T16:31:38.002Z</time></trkpt><trkpt lat="45.94980599835005" lon="9.311102584637348"><ele>335.0</ele><time>2026-04-25T16:31:39.002Z</time></trkpt><trkpt lat="45.94984217998712" lon="9.310972731766023"><ele>334.0</ele><time>2026-04-25T16:31:40.002Z</time></trkpt><trkpt lat="45.94986688332396" lon="9.310852887583602"><ele>333.0</ele><time>2026-04-25T16:31:41.002Z</time></trkpt><trkpt lat="45.94990567989689" lon="9.310753550030693"><ele>332.0</ele><time>2026-04-25T16:31:42.002Z</time></trkpt><trkpt lat="45.949929263862515" lon="9.310617081973504"><ele>331.0</ele><time>2026-04-25T16:31:43.002Z</time></trkpt><trkpt lat="45.94995423489161" lon="9.31050136873659"><ele>330.0</ele><time>2026-04-25T16:31:44.002Z</time></trkpt><trkpt lat="45.94999443672901" lon="9.31040209678435"><ele>329.0</ele><time>2026-04-25T16:31:45.002Z</time></trkpt><trkpt lat="45.95002423165484" lon="9.31028878117556"><ele>326.8</ele><time>2026-04-25T16:31:46.002Z</time></trkpt><trkpt lat="45.95006474892229" lon="9.310197193135538"><ele>324.59999999999997</ele><time>2026-04-25T16:31:47.002Z</time></trkpt><trkpt lat="45.950172929361294" lon="9.31011468102364"><ele>322.4</ele><time>2026-04-25T16:31:49.002Z</time></trkpt><trkpt lat="45.950273059031254" lon="9.310180934913545"><ele>320.2</ele><time>2026-04-25T16:31:51.002Z</time></trkpt><trkpt lat="45.95034947182282" lon="9.31020419513714"><ele>318.0</ele><time>2026-04-25T16:31:53.002Z</time></trkpt><trkpt lat="45.95041896541781" lon="9.31022793800224"><ele>318.0</ele><time>2026-04-25T16:31:55.002Z</time></trkpt><trkpt lat="45.95049922063814" lon="9.310266644138633"><ele>318.0</ele><time>2026-04-25T16:31:57.002Z</time></trkpt><trkpt lat="45.9505729750288" lon="9.310304968042871"><ele>318.0</ele><time>2026-04-25T16:31:59.002Z</time></trkpt><trkpt lat="45.95065632254218" lon="9.310346623871974"><ele>318.0</ele><time>2026-04-25T16:32:01.003Z</time></trkpt><trkpt lat="45.95074071332866" lon="9.31038302414871"><ele>318.0</ele><time>2026-04-25T16:32:03.003Z</time></trkpt><trkpt lat="45.95081688978262" lon="9.310407265937599"><ele>318.0</ele><time>2026-04-25T16:32:05.002Z</time></trkpt><trkpt lat="45.950904061246916" lon="9.310420640651222"><ele>314.8333333333333</ele><time>2026-04-25T16:32:07.002Z</time></trkpt><trkpt lat="45.95096672486621" lon="9.310389381339185"><ele>311.6666666666667</ele><time>2026-04-25T16:32:09.002Z</time></trkpt><trkpt lat="45.9510501581798" lon="9.310343236388544"><ele>308.5</ele><time>2026-04-25T16:32:11.002Z</time></trkpt><trkpt lat="45.951119532177835" lon="9.310315851271723"><ele>305.33333333333337</ele><time>2026-04-25T16:32:13.002Z</time></trkpt><trkpt lat="45.95119342786962" lon="9.310347395711917"><ele>302.1666666666667</ele><time>2026-04-25T16:32:15.002Z</time></trkpt><trkpt lat="45.951280507705754" lon="9.310321385942963"><ele>299.0</ele><time>2026-04-25T16:32:17.002Z</time></trkpt><trkpt lat="45.951345950268546" lon="9.31033757978826"><ele>299.0</ele><time>2026-04-25T16:32:19.002Z</time></trkpt><trkpt lat="45.951415872944104" lon="9.310468994892133"><ele>299.0</ele><time>2026-04-25T16:32:21.002Z</time></trkpt><trkpt lat="45.95146324764694" lon="9.310530531802106"><ele>299.0</ele><time>2026-04-25T16:32:22.002Z</time></trkpt><trkpt lat="45.95151700329393" lon="9.31059968072151"><ele>299.0</ele><time>2026-04-25T16:32:23.002Z</time></trkpt><trkpt lat="45.95155076929031" lon="9.310738877896648"><ele>299.0</ele><time>2026-04-25T16:32:25.002Z</time></trkpt><trkpt lat="45.95162922858189" lon="9.310887535717754"><ele>300.0</ele><time>2026-04-25T16:32:27.002Z</time></trkpt><trkpt lat="45.95168311490792" lon="9.311044730368703"><ele>301.0</ele><time>2026-04-25T16:32:29.001Z</time></trkpt><trkpt lat="45.95171683095953" lon="9.311123724962995"><ele>302.0</ele><time>2026-04-25T16:32:30.001Z</time></trkpt><trkpt lat="45.95178945258834" lon="9.311256064319583"><ele>303.0</ele><time>2026-04-25T16:32:32.001Z</time></trkpt><trkpt lat="45.95187311282461" lon="9.311349004250266"><ele>304.0</ele><time>2026-04-25T16:32:34.001Z</time></trkpt><trkpt lat="45.95191776520671" lon="9.311425941972375"><ele>304.0</ele><time>2026-04-25T16:32:35.001Z</time></trkpt><trkpt lat="45.95199394245403" lon="9.311476820039596"><ele>304.0</ele><time>2026-04-25T16:32:37.001Z</time></trkpt><trkpt lat="45.95208747867725" lon="9.311439993886312"><ele>304.0</ele><time>2026-04-25T16:32:39.001Z</time></trkpt><trkpt lat="45.952141906630025" lon="9.311368722136942"><ele>304.0</ele><time>2026-04-25T16:32:42.001Z</time></trkpt><trkpt lat="45.95214899662186" lon="9.311273147870473"><ele>304.0</ele><time>2026-04-25T16:33:39.001Z</time></trkpt><trkpt lat="45.95220078503511" lon="9.311215949957884"><ele>304.0</ele><time>2026-04-25T16:33:41.001Z</time></trkpt><trkpt lat="45.95223900253076" lon="9.311117008704377"><ele>304.0</ele><time>2026-04-25T16:33:42.001Z</time></trkpt><trkpt lat="45.952232030226014" lon="9.311009384227345"><ele>304.0</ele><time>2026-04-25T16:33:43.001Z</time></trkpt><trkpt lat="45.95235330396538" lon="9.310897018641368"><ele>304.0</ele><time>2026-04-25T16:33:45.001Z</time></trkpt><trkpt lat="45.95236789723637" lon="9.310805354898934"><ele>304.0</ele><time>2026-04-25T16:33:46.001Z</time></trkpt><trkpt lat="45.95236439041147" lon="9.310713321470454"><ele>304.0</ele><time>2026-04-25T16:33:47.001Z</time></trkpt><trkpt lat="45.952347294490295" lon="9.310552174728153"><ele>304.4</ele><time>2026-04-25T16:33:49.001Z</time></trkpt><trkpt lat="45.95234285336752" lon="9.310434490929445"><ele>304.79999999999995</ele><time>2026-04-25T16:33:51.002Z</time></trkpt><trkpt lat="45.95236849561662" lon="9.31033617580677"><ele>305.20000000000005</ele><time>2026-04-25T16:33:53.002Z</time></trkpt><trkpt lat="45.95244291244686" lon="9.31019742070859"><ele>305.6</ele><time>2026-04-25T16:33:55.002Z</time></trkpt><trkpt lat="45.95249093566655" lon="9.310066176436811"><ele>306.0</ele><time>2026-04-25T16:33:58.002Z</time></trkpt><trkpt lat="45.95254614668939" lon="9.309915749744711"><ele>306.0</ele><time>2026-04-25T16:34:00.002Z</time></trkpt><trkpt lat="45.95259162352891" lon="9.30979290008168"><ele>306.0</ele><time>2026-04-25T16:34:02.002Z</time></trkpt><trkpt lat="45.95264113373503" lon="9.30967838579911"><ele>306.0</ele><time>2026-04-25T16:34:04.002Z</time></trkpt><trkpt lat="45.95269157727146" lon="9.309575453385682"><ele>306.0</ele><time>2026-04-25T16:34:06.002Z</time></trkpt><trkpt lat="45.95273715346557" lon="9.309488252505206"><ele>306.0</ele><time>2026-04-25T16:34:08.002Z</time></trkpt><trkpt lat="45.9527923998199" lon="9.309430320481757"><ele>306.0</ele><time>2026-04-25T16:34:10.002Z</time></trkpt><trkpt lat="45.95297151670319" lon="9.309333256950538"><ele>303.6</ele><time>2026-04-25T16:34:16.001Z</time></trkpt><trkpt lat="45.953042159102274" lon="9.309295790681547"><ele>301.20000000000005</ele><time>2026-04-25T16:34:19.001Z</time></trkpt><trkpt lat="45.95301600379953" lon="9.309384643814898"><ele>298.79999999999995</ele><time>2026-04-25T16:34:25.001Z</time></trkpt><trkpt lat="45.953120014667306" lon="9.309380876937547"><ele>296.4</ele><time>2026-04-25T16:34:44.001Z</time></trkpt><trkpt lat="45.95323124248782" lon="9.309454547885107"><ele>294.0</ele><time>2026-04-25T16:34:46.001Z</time></trkpt><trkpt lat="45.95332497568989" lon="9.309502176324257"><ele>294.6666666666667</ele><time>2026-04-25T16:34:48.001Z</time></trkpt><trkpt lat="45.9534111719885" lon="9.309584177560707"><ele>295.3333333333333</ele><time>2026-04-25T16:34:50.001Z</time></trkpt><trkpt lat="45.953468827670044" lon="9.309671833768173"><ele>296.0</ele><time>2026-04-25T16:34:51.001Z</time></trkpt><trkpt lat="45.95353148678641" lon="9.309719860451692"><ele>296.66666666666663</ele><time>2026-04-25T16:34:52.001Z</time></trkpt><trkpt lat="45.953595524952185" lon="9.309764458100704"><ele>297.3333333333333</ele><time>2026-04-25T16:34:53.001Z</time></trkpt><trkpt lat="45.95367415311427" lon="9.309750136523837"><ele>298.0</ele><time>2026-04-25T16:34:54.001Z</time></trkpt><trkpt lat="45.953797020559286" lon="9.309737160478681"><ele>299.66666666666663</ele><time>2026-04-25T16:34:56.001Z</time></trkpt><trkpt lat="45.953874544393386" lon="9.309745706317834"><ele>301.3333333333333</ele><time>2026-04-25T16:34:57.001Z</time></trkpt><trkpt lat="45.95391330692911" lon="9.30982510974802"><ele>303.0</ele><time>2026-04-25T16:34:59.001Z</time></trkpt><trkpt lat="45.953928674011195" lon="9.309985955012554"><ele>304.6666666666667</ele><time>2026-04-25T16:35:01.001Z</time></trkpt><trkpt lat="45.953930071914186" lon="9.310085002225474"><ele>306.33333333333337</ele><time>2026-04-25T16:35:02.001Z</time></trkpt><trkpt lat="45.95395947162853" lon="9.310246583821975"><ele>308.0</ele><time>2026-04-25T16:35:04.001Z</time></trkpt><trkpt lat="45.95396447086257" lon="9.31035575424727"><ele>308.0</ele><time>2026-04-25T16:35:05.001Z</time></trkpt><trkpt lat="45.953980420080974" lon="9.310534614058234"><ele>308.0</ele><time>2026-04-25T16:35:07.001Z</time></trkpt><trkpt lat="45.95400576527526" lon="9.310617862126119"><ele>308.0</ele><time>2026-04-25T16:35:08.001Z</time></trkpt><trkpt lat="45.95408124332001" lon="9.310756695714428"><ele>308.0</ele><time>2026-04-25T16:35:10.001Z</time></trkpt><trkpt lat="45.95415959489496" lon="9.310874361004037"><ele>308.0</ele><time>2026-04-25T16:35:12.001Z</time></trkpt><trkpt lat="45.954179130483084" lon="9.311033110845822"><ele>311.75</ele><time>2026-04-25T16:35:14.001Z</time></trkpt><trkpt lat="45.95420887741107" lon="9.311191606347204"><ele>315.5</ele><time>2026-04-25T16:35:16.001Z</time></trkpt><trkpt lat="45.95425113246029" lon="9.31134838684707"><ele>319.25</ele><time>2026-04-25T16:35:18.001Z</time></trkpt><trkpt lat="45.95429689590562" lon="9.311466102493446"><ele>323.0</ele><time>2026-04-25T16:35:20.001Z</time></trkpt><trkpt lat="45.95434845681705" lon="9.311650752057243"><ele>327.0</ele><time>2026-04-25T16:35:22.001Z</time></trkpt><trkpt lat="45.95436563317477" lon="9.311796222704972"><ele>331.0</ele><time>2026-04-25T16:35:24.001Z</time></trkpt><trkpt lat="45.954376971724024" lon="9.311955630327077"><ele>335.0</ele><time>2026-04-25T16:35:26.001Z</time></trkpt><trkpt lat="45.95438322283807" lon="9.312104513514056"><ele>339.0</ele><time>2026-04-25T16:35:28.001Z</time></trkpt><trkpt lat="45.95437019039039" lon="9.312206022423046"><ele>343.0</ele><time>2026-04-25T16:35:29.001Z</time></trkpt><trkpt lat="45.95437064756239" lon="9.312303027734124"><ele>344.2857142857143</ele><time>2026-04-25T16:35:31.001Z</time></trkpt><trkpt lat="45.954443071606065" lon="9.312312348016441"><ele>345.57142857142856</ele><time>2026-04-25T16:35:33.001Z</time></trkpt><trkpt lat="45.95447778840339" lon="9.312418412580842"><ele>346.8571428571429</ele><time>2026-04-25T16:35:36.001Z</time></trkpt><trkpt lat="45.95454169548356" lon="9.312451145101182"><ele>348.1428571428571</ele><time>2026-04-25T16:35:39.001Z</time></trkpt><trkpt lat="45.95461636710366" lon="9.312440320634108"><ele>349.42857142857144</ele><time>2026-04-25T16:35:42.001Z</time></trkpt><trkpt lat="45.95467808637183" lon="9.312460187277427"><ele>350.7142857142857</ele><time>2026-04-25T16:35:44.001Z</time></trkpt><trkpt lat="45.954752310559016" lon="9.312479490457443"><ele>352.0</ele><time>2026-04-25T16:35:47.001Z</time></trkpt><trkpt lat="45.95485225881733" lon="9.312421897246233"><ele>352.0</ele><time>2026-04-25T16:35:49.001Z</time></trkpt><trkpt lat="45.95492371859907" lon="9.312375817471752"><ele>352.0</ele><time>2026-04-25T16:35:51.001Z</time></trkpt><trkpt lat="45.95498977656062" lon="9.312345852350617"><ele>352.0</ele><time>2026-04-25T16:35:52.001Z</time></trkpt><trkpt lat="45.955044540845705" lon="9.31228843567057"><ele>352.0</ele><time>2026-04-25T16:35:53.001Z</time></trkpt><trkpt lat="45.9551174367488" lon="9.31223397093323"><ele>352.0</ele><time>2026-04-25T16:35:54.001Z</time></trkpt><trkpt lat="45.955155663725954" lon="9.312158895398891"><ele>352.0</ele><time>2026-04-25T16:35:55.001Z</time></trkpt><trkpt lat="45.955242293665385" lon="9.312040896024765"><ele>350.40000000000003</ele><time>2026-04-25T16:35:57.001Z</time></trkpt><trkpt lat="45.95530765630908" lon="9.311925902057979"><ele>348.8</ele><time>2026-04-25T16:35:59.001Z</time></trkpt><trkpt lat="45.955380318311455" lon="9.311843267880587"><ele>347.2</ele><time>2026-04-25T16:36:01.001Z</time></trkpt><trkpt lat="45.95539946687776" lon="9.311727254995123"><ele>345.6</ele><time>2026-04-25T16:36:04.001Z</time></trkpt><trkpt lat="45.955378028669834" lon="9.311815659930437"><ele>344.0</ele><time>2026-04-25T16:36:13.001Z</time></trkpt><trkpt lat="45.955407996819915" lon="9.312194268025625"><ele>348.25</ele><time>2026-04-25T16:36:15.001Z</time></trkpt><trkpt lat="45.955409508611254" lon="9.312370703686357"><ele>352.5</ele><time>2026-04-25T16:36:16.001Z</time></trkpt><trkpt lat="45.955411733573435" lon="9.312570389887107"><ele>356.75</ele><time>2026-04-25T16:36:17.001Z</time></trkpt><trkpt lat="45.95542723391268" lon="9.31272243178003"><ele>361.0</ele><time>2026-04-25T16:36:18.001Z</time></trkpt><trkpt lat="45.95541972301366" lon="9.312846762481076"><ele>361.0</ele><time>2026-04-25T16:36:19.001Z</time></trkpt><trkpt lat="45.955416380393345" lon="9.312974037790386"><ele>361.0</ele><time>2026-04-25T16:36:20.001Z</time></trkpt><trkpt lat="45.95541440274426" lon="9.313071070709189"><ele>361.0</ele><time>2026-04-25T16:36:21.001Z</time></trkpt><trkpt lat="45.95532916559331" lon="9.313200617152434"><ele>361.0</ele><time>2026-04-25T16:36:23.001Z</time></trkpt><trkpt lat="45.95526303383153" lon="9.313231802656519"><ele>361.0</ele><time>2026-04-25T16:36:24.001Z</time></trkpt><trkpt lat="45.95512700570836" lon="9.313267423285287"><ele>361.8571428571429</ele><time>2026-04-25T16:36:26.001Z</time></trkpt><trkpt lat="45.95506496223431" lon="9.31329442316774"><ele>362.71428571428567</ele><time>2026-04-25T16:36:27.001Z</time></trkpt><trkpt lat="45.95498353072897" lon="9.31335486126495"><ele>363.57142857142856</ele><time>2026-04-25T16:36:28.001Z</time></trkpt><trkpt lat="45.95491534946959" lon="9.313372737294666"><ele>364.42857142857144</ele><time>2026-04-25T16:36:29.001Z</time></trkpt><trkpt lat="45.95483841801021" lon="9.313405206317036"><ele>365.28571428571433</ele><time>2026-04-25T16:36:30.001Z</time></trkpt><trkpt lat="45.95477152038021" lon="9.313434704742889"><ele>366.1428571428571</ele><time>2026-04-25T16:36:31.001Z</time></trkpt><trkpt lat="45.954702802974815" lon="9.31344141220607"><ele>367.0</ele><time>2026-04-25T16:36:32.001Z</time></trkpt><trkpt lat="45.95463457847146" lon="9.313501272406532"><ele>367.0</ele><time>2026-04-25T16:36:34.001Z</time></trkpt><trkpt lat="45.954612253110454" lon="9.313623856860447"><ele>367.0</ele><time>2026-04-25T16:36:38Z</time></trkpt><trkpt lat="45.95460334630181" lon="9.313741064774035"><ele>367.0</ele><time>2026-04-25T16:36:40Z</time></trkpt><trkpt lat="45.954610657450026" lon="9.313835759216484"><ele>367.0</ele><time>2026-04-25T16:36:41Z</time></trkpt><trkpt lat="45.95463981874732" lon="9.314023944576"><ele>367.0</ele><time>2026-04-25T16:36:44Z</time></trkpt><trkpt lat="45.95465257211653" lon="9.314125704556359"><ele>367.0</ele><time>2026-04-25T16:36:45Z</time></trkpt><trkpt lat="45.954672899964685" lon="9.314259447857635"><ele>370.20000000000005</ele><time>2026-04-25T16:36:47Z</time></trkpt><trkpt lat="45.95467649203203" lon="9.314371389952797"><ele>373.4</ele><time>2026-04-25T16:36:53Z</time></trkpt><trkpt lat="45.95469363816543" lon="9.314615331521752"><ele>376.6</ele><time>2026-04-25T16:36:55Z</time></trkpt><trkpt lat="45.95469994871735" lon="9.3147097329542"><ele>379.79999999999995</ele><time>2026-04-25T16:36:56Z</time></trkpt><trkpt lat="45.954691887852576" lon="9.314874948414685"><ele>383.0</ele><time>2026-04-25T16:36:58Z</time></trkpt><trkpt lat="45.9546934723401" lon="9.315002659675402"><ele>385.0</ele><time>2026-04-25T16:36:59Z</time></trkpt><trkpt lat="45.954699822740075" lon="9.315125910293007"><ele>387.0</ele><time>2026-04-25T16:37:01Z</time></trkpt><trkpt lat="45.95471075118772" lon="9.315246082108525"><ele>389.0</ele><time>2026-04-25T16:37:03Z</time></trkpt><trkpt lat="45.95472650611949" lon="9.31536442471752"><ele>391.0</ele><time>2026-04-25T16:37:05Z</time></trkpt><trkpt lat="45.9547574703738" lon="9.315487570184303"><ele>392.99999999999994</ele><time>2026-04-25T16:37:07Z</time></trkpt><trkpt lat="45.95479677101952" lon="9.315610266515113"><ele>395.0</ele><time>2026-04-25T16:37:08Z</time></trkpt><trkpt lat="45.95486288216063" lon="9.315755284662774"><ele>397.8333333333333</ele><time>2026-04-25T16:37:10Z</time></trkpt><trkpt lat="45.95491397136818" lon="9.315850169948352"><ele>400.66666666666663</ele><time>2026-04-25T16:37:12Z</time></trkpt><trkpt lat="45.95497487931331" lon="9.315948945402893"><ele>403.5</ele><time>2026-04-25T16:37:14Z</time></trkpt><trkpt lat="45.955057032494494" lon="9.316070067248376"><ele>406.33333333333337</ele><time>2026-04-25T16:37:16Z</time></trkpt><trkpt lat="45.95510730605956" lon="9.31613986873186"><ele>409.1666666666667</ele><time>2026-04-25T16:37:18Z</time></trkpt><trkpt lat="45.95516477967901" lon="9.31621102058926"><ele>412.0</ele><time>2026-04-25T16:37:20Z</time></trkpt><trkpt lat="45.955239219646984" lon="9.316280353124782"><ele>417.6</ele><time>2026-04-25T16:37:21Z</time></trkpt><trkpt lat="45.95531984055783" lon="9.316339610668217"><ele>423.20000000000005</ele><time>2026-04-25T16:37:23Z</time></trkpt><trkpt lat="45.95534363018998" lon="9.316212720958676"><ele>428.8</ele><time>2026-04-25T16:37:26Z</time></trkpt><trkpt lat="45.955330438752206" lon="9.316080450123803"><ele>434.4</ele><time>2026-04-25T16:37:29Z</time></trkpt><trkpt lat="45.95541290067518" lon="9.316074308533958"><ele>440.0</ele><time>2026-04-25T16:37:33Z</time></trkpt><trkpt lat="45.95549590181952" lon="9.316169911066437"><ele>439.99999999999994</ele><time>2026-04-25T16:37:35Z</time></trkpt><trkpt lat="45.95553517059657" lon="9.316262874090356"><ele>440.0</ele><time>2026-04-25T16:37:37Z</time></trkpt><trkpt lat="45.95557319342862" lon="9.316372654128026"><ele>440.0</ele><time>2026-04-25T16:37:39Z</time></trkpt><trkpt lat="45.955650219502964" lon="9.316387598001407"><ele>440.0</ele><time>2026-04-25T16:37:41Z</time></trkpt><trkpt lat="45.955687485021144" lon="9.316278351464966"><ele>439.99999999999994</ele><time>2026-04-25T16:37:45Z</time></trkpt><trkpt lat="45.95566711997375" lon="9.316126761402188"><ele>440.0</ele><time>2026-04-25T16:37:49Z</time></trkpt><trkpt lat="45.955763529704114" lon="9.31599945593597"><ele>439.99999999999994</ele><time>2026-04-25T16:37:53Z</time></trkpt><trkpt lat="45.95584998343242" lon="9.316016651095493"><ele>440.0</ele><time>2026-04-25T16:37:58Z</time></trkpt><trkpt lat="45.955918420283055" lon="9.316024896618668"><ele>440.0</ele><time>2026-04-25T16:38:01Z</time></trkpt><trkpt lat="45.955980361941094" lon="9.316075479548438"><ele>440.0</ele><time>2026-04-25T16:38:04Z</time></trkpt><trkpt lat="45.956040416951595" lon="9.31610868264892"><ele>439.99999999999994</ele><time>2026-04-25T16:38:08Z</time></trkpt><trkpt lat="45.95610706338365" lon="9.316190357069289"><ele>440.0</ele><time>2026-04-25T16:38:10Z</time></trkpt><trkpt lat="45.95619489689977" lon="9.316205670206092"><ele>439.99999999999994</ele><time>2026-04-25T16:38:12Z</time></trkpt><trkpt lat="45.95626180366125" lon="9.316223524481948"><ele>440.0</ele><time>2026-04-25T16:38:14Z</time></trkpt><trkpt lat="45.9563406284937" lon="9.316201881449075"><ele>440.0</ele><time>2026-04-25T16:38:16Z</time></trkpt><trkpt lat="45.956444915486685" lon="9.31623236535445"><ele>440.0</ele><time>2026-04-25T16:38:18Z</time></trkpt><trkpt lat="45.95653455761738" lon="9.316254406591456"><ele>439.99999999999994</ele><time>2026-04-25T16:38:20Z</time></trkpt><trkpt lat="45.95661832868958" lon="9.316237934699615"><ele>440.0</ele><time>2026-04-25T16:38:22Z</time></trkpt><trkpt lat="45.956707993476876" lon="9.316261271902036"><ele>439.3333333333333</ele><time>2026-04-25T16:38:24Z</time></trkpt><trkpt lat="45.95674903828822" lon="9.316340231735012"><ele>438.66666666666663</ele><time>2026-04-25T16:38:28Z</time></trkpt><trkpt lat="45.95680228283688" lon="9.316390128656293"><ele>438.0</ele><time>2026-04-25T16:38:31Z</time></trkpt><trkpt lat="45.956845110834344" lon="9.316508649371528"><ele>437.33333333333337</ele><time>2026-04-25T16:38:34Z</time></trkpt><trkpt lat="45.95691474926162" lon="9.316562940418962"><ele>436.6666666666667</ele><time>2026-04-25T16:38:37Z</time></trkpt><trkpt lat="45.957001312670826" lon="9.31664514099944"><ele>436.0</ele><time>2026-04-25T16:38:40Z</time></trkpt><trkpt lat="45.957020725664904" lon="9.316556930000067"><ele>436.00000000000006</ele><time>2026-04-25T16:38:43Z</time></trkpt><trkpt lat="45.95708775758164" lon="9.316556631182918"><ele>436.0</ele><time>2026-04-25T16:38:46Z</time></trkpt><trkpt lat="45.95717268647102" lon="9.31641049351805"><ele>436.0</ele><time>2026-04-25T16:38:49Z</time></trkpt><trkpt lat="45.95722935545993" lon="9.316310221227297"><ele>436.0</ele><time>2026-04-25T16:38:52Z</time></trkpt><trkpt lat="45.95721859151165" lon="9.316184062709096"><ele>436.00000000000006</ele><time>2026-04-25T16:38:54Z</time></trkpt><trkpt lat="45.957208651433426" lon="9.316086212831724"><ele>436.0</ele><time>2026-04-25T16:38:58Z</time></trkpt><trkpt lat="45.95720561429379" lon="9.31595016302359"><ele>436.00000000000006</ele><time>2026-04-25T16:39:00Z</time></trkpt><trkpt lat="45.95713882293611" lon="9.315871466363756"><ele>436.0</ele><time>2026-04-25T16:39:06Z</time></trkpt><trkpt lat="45.95712225529083" lon="9.315764888653076"><ele>436.0</ele><time>2026-04-25T16:39:40Z</time></trkpt><trkpt lat="45.95715414070479" lon="9.315640263770428"><ele>436.0</ele><time>2026-04-25T16:39:41Z</time></trkpt><trkpt lat="45.95708928507631" lon="9.315672429564724"><ele>436.00000000000006</ele><time>2026-04-25T16:39:51Z</time></trkpt><trkpt lat="45.95710056183659" lon="9.315772610833669"><ele>436.0</ele><time>2026-04-25T16:39:56Z</time></trkpt><trkpt lat="45.9571734306168" lon="9.315685032322524"><ele>436.0</ele><time>2026-04-25T16:40:10Z</time></trkpt><trkpt lat="45.95723508203095" lon="9.315603790703507"><ele>436.0</ele><time>2026-04-25T16:40:22Z</time></trkpt><trkpt lat="45.95728377985774" lon="9.315540244520669"><ele>436.0</ele><time>2026-04-25T16:40:32Z</time></trkpt><trkpt lat="45.95733132404595" lon="9.315476968629671"><ele>436.0</ele><time>2026-04-25T16:40:36Z</time></trkpt><trkpt lat="45.95741256733843" lon="9.315318730231942"><ele>436.0</ele><time>2026-04-25T16:40:38Z</time></trkpt><trkpt lat="45.95732029021165" lon="9.315216830747737"><ele>433.7142857142857</ele><time>2026-04-25T16:40:41Z</time></trkpt><trkpt lat="45.95728322885232" lon="9.315128984982703"><ele>431.42857142857144</ele><time>2026-04-25T16:40:43Z</time></trkpt><trkpt lat="45.95727281357904" lon="9.315004756143663"><ele>429.1428571428571</ele><time>2026-04-25T16:40:46Z</time></trkpt><trkpt lat="45.95729788797113" lon="9.3149037514211"><ele>426.8571428571429</ele><time>2026-04-25T16:40:49Z</time></trkpt><trkpt lat="45.95735552451333" lon="9.314840164888066"><ele>424.57142857142856</ele><time>2026-04-25T16:40:51Z</time></trkpt><trkpt lat="45.957387626130135" lon="9.31474938151639"><ele>422.2857142857143</ele><time>2026-04-25T16:40:59Z</time></trkpt><trkpt lat="45.95742036919395" lon="9.31466055268628"><ele>420.0</ele><time>2026-04-25T16:41:01Z</time></trkpt><trkpt lat="45.957471040770216" lon="9.314547414758255"><ele>417.6666666666667</ele><time>2026-04-25T16:41:04Z</time></trkpt><trkpt lat="45.95753244271301" lon="9.314445629359737"><ele>415.33333333333337</ele><time>2026-04-25T16:41:07Z</time></trkpt><trkpt lat="45.95754406948495" lon="9.31435230371"><ele>413.0</ele><time>2026-04-25T16:41:09Z</time></trkpt><trkpt lat="45.957581350282425" lon="9.314230880497783"><ele>410.6666666666667</ele><time>2026-04-25T16:41:14Z</time></trkpt><trkpt lat="45.95752611035295" lon="9.314164454310603"><ele>408.33333333333337</ele><time>2026-04-25T16:41:36Z</time></trkpt><trkpt lat="45.95754698679324" lon="9.314075727921695"><ele>406.0</ele><time>2026-04-25T16:42:52Z</time></trkpt><trkpt lat="45.957499955838365" lon="9.313982332830804"><ele>400.83333333333337</ele><time>2026-04-25T16:42:54Z</time></trkpt><trkpt lat="45.957528918287395" lon="9.313867305897436"><ele>395.6666666666667</ele><time>2026-04-25T16:42:58Z</time></trkpt><trkpt lat="45.95758636467173" lon="9.313792782253314"><ele>390.5</ele><time>2026-04-25T16:43:00Z</time></trkpt><trkpt lat="45.9576218142461" lon="9.31370459169022"><ele>385.33333333333337</ele><time>2026-04-25T16:43:03Z</time></trkpt><trkpt lat="45.95765806587768" lon="9.31361234392756"><ele>380.1666666666667</ele><time>2026-04-25T16:43:06Z</time></trkpt><trkpt lat="45.957716701961914" lon="9.313560293314268"><ele>375.0</ele><time>2026-04-25T16:43:09Z</time></trkpt><trkpt lat="45.95777186027063" lon="9.313479127872085"><ele>375.0</ele><time>2026-04-25T16:43:13Z</time></trkpt><trkpt lat="45.9577996950928" lon="9.313369290657509"><ele>375.0</ele><time>2026-04-25T16:43:19Z</time></trkpt><trkpt lat="45.957792018174295" lon="9.313278592928643"><ele>375.0</ele><time>2026-04-25T16:43:22Z</time></trkpt><trkpt lat="45.95780209128492" lon="9.313189048868999"><ele>375.0</ele><time>2026-04-25T16:43:25Z</time></trkpt><trkpt lat="45.95788123462897" lon="9.313137074723668"><ele>375.0</ele><time>2026-04-25T16:45:08Z</time></trkpt><trkpt lat="45.95794386518466" lon="9.313150380183645"><ele>375.0</ele><time>2026-04-25T16:45:11Z</time></trkpt><trkpt lat="45.957995696630405" lon="9.313204267614656"><ele>375.0</ele><time>2026-04-25T16:45:13Z</time></trkpt><trkpt lat="45.958031567600955" lon="9.313290191849076"><ele>375.0</ele><time>2026-04-25T16:45:15Z</time></trkpt><trkpt lat="45.958096286484604" lon="9.313341732393267"><ele>375.0</ele><time>2026-04-25T16:45:17Z</time></trkpt><trkpt lat="45.95817066209554" lon="9.3133902957237"><ele>375.0</ele><time>2026-04-25T16:45:19Z</time></trkpt><trkpt lat="45.9582380885418" lon="9.3134463879681"><ele>375.0</ele><time>2026-04-25T16:45:21Z</time></trkpt><trkpt lat="45.95832132433666" lon="9.313448131607673"><ele>375.0</ele><time>2026-04-25T16:45:23Z</time></trkpt><trkpt lat="45.958411971170186" lon="9.313401312493324"><ele>375.0</ele><time>2026-04-25T16:45:25Z</time></trkpt><trkpt lat="45.95850104962994" lon="9.31336629308526"><ele>376.8</ele><time>2026-04-25T16:45:27Z</time></trkpt><trkpt lat="45.95861259051953" lon="9.313330714209407"><ele>378.6</ele><time>2026-04-25T16:45:31Z</time></trkpt><trkpt lat="45.95869782573027" lon="9.313313054608976"><ele>380.4</ele><time>2026-04-25T16:45:33Z</time></trkpt><trkpt lat="45.95878668081143" lon="9.31330935059375"><ele>382.2</ele><time>2026-04-25T16:45:35Z</time></trkpt><trkpt lat="45.958893264609934" lon="9.313332717518794"><ele>384.0</ele><time>2026-04-25T16:45:38Z</time></trkpt><trkpt lat="45.95897362714846" lon="9.313356360691099"><ele>384.0</ele><time>2026-04-25T16:45:40Z</time></trkpt><trkpt lat="45.959053311019225" lon="9.31338090112506"><ele>384.0</ele><time>2026-04-25T16:45:42Z</time></trkpt><trkpt lat="45.95912232281124" lon="9.313377700447646"><ele>384.0</ele><time>2026-04-25T16:45:44Z</time></trkpt><trkpt lat="45.95918821893685" lon="9.313329239130693"><ele>384.0</ele><time>2026-04-25T16:45:46Z</time></trkpt><trkpt lat="45.95926186695813" lon="9.313223800646591"><ele>384.0</ele><time>2026-04-25T16:45:48Z</time></trkpt><trkpt lat="45.95933972069407" lon="9.313132857120362"><ele>384.0</ele><time>2026-04-25T16:45:51Z</time></trkpt><trkpt lat="45.959431873897756" lon="9.313104984615737"><ele>386.8333333333333</ele><time>2026-04-25T16:45:53Z</time></trkpt><trkpt lat="45.95951594127648" lon="9.313137700985983"><ele>389.66666666666663</ele><time>2026-04-25T16:45:55Z</time></trkpt><trkpt lat="45.95961300430517" lon="9.31311689177519"><ele>392.5</ele><time>2026-04-25T16:45:57Z</time></trkpt><trkpt lat="45.95969425789348" lon="9.31310563124758"><ele>395.3333333333333</ele><time>2026-04-25T16:45:59Z</time></trkpt><trkpt lat="45.95974347629651" lon="9.313164382173142"><ele>398.16666666666663</ele><time>2026-04-25T16:46:01Z</time></trkpt><trkpt lat="45.959836413754495" lon="9.313210006104702"><ele>401.0</ele><time>2026-04-25T16:46:03Z</time></trkpt><trkpt lat="45.9599252767039" lon="9.313217151978753"><ele>400.99999999999994</ele><time>2026-04-25T16:46:05Z</time></trkpt><trkpt lat="45.9599653585783" lon="9.313104599141925"><ele>401.0</ele><time>2026-04-25T16:46:07Z</time></trkpt><trkpt lat="45.95996278671149" lon="9.312988644489709"><ele>401.0</ele><time>2026-04-25T16:46:09Z</time></trkpt><trkpt lat="45.959976536293304" lon="9.31288587313606"><ele>401.0</ele><time>2026-04-25T16:46:11Z</time></trkpt><trkpt lat="45.96004774580084" lon="9.31277407585"><ele>400.99999999999994</ele><time>2026-04-25T16:46:14Z</time></trkpt><trkpt lat="45.9601250492063" lon="9.312739579348179"><ele>401.0</ele><time>2026-04-25T16:46:16Z</time></trkpt><trkpt lat="45.96018550605346" lon="9.312693233364637"><ele>398.66666666666663</ele><time>2026-04-25T16:46:18Z</time></trkpt><trkpt lat="45.96027030055543" lon="9.312660626458147"><ele>396.3333333333333</ele><time>2026-04-25T16:46:20Z</time></trkpt><trkpt lat="45.96035519534571" lon="9.312652638097555"><ele>394.0</ele><time>2026-04-25T16:46:22Z</time></trkpt><trkpt lat="45.960432158171244" lon="9.31264067428535"><ele>391.66666666666663</ele><time>2026-04-25T16:46:24Z</time></trkpt><trkpt lat="45.96050210882234" lon="9.312650290550017"><ele>389.3333333333333</ele><time>2026-04-25T16:46:26Z</time></trkpt><trkpt lat="45.96058216214895" lon="9.312650250876352"><ele>387.0</ele><time>2026-04-25T16:46:29Z</time></trkpt><trkpt lat="45.960640446663966" lon="9.312588643280115"><ele>387.0</ele><time>2026-04-25T16:46:31Z</time></trkpt><trkpt lat="45.960660227423716" lon="9.312492310660648"><ele>387.0</ele><time>2026-04-25T16:46:34Z</time></trkpt><trkpt lat="45.96065923008045" lon="9.312378354804693"><ele>387.0</ele><time>2026-04-25T16:46:36Z</time></trkpt><trkpt lat="45.960709364878895" lon="9.312309365777395"><ele>387.0</ele><time>2026-04-25T16:46:38Z</time></trkpt><trkpt lat="45.960771320512094" lon="9.312264648961934"><ele>387.0</ele><time>2026-04-25T16:46:40Z</time></trkpt><trkpt lat="45.96083795993869" lon="9.312212623308445"><ele>387.0</ele><time>2026-04-25T16:46:42Z</time></trkpt><trkpt lat="45.96090887609263" lon="9.312222884408378"><ele>387.0</ele><time>2026-04-25T16:46:46Z</time></trkpt><trkpt lat="45.96097069453545" lon="9.31219117720569"><ele>383.6666666666667</ele><time>2026-04-25T16:46:50Z</time></trkpt><trkpt lat="45.96098938818944" lon="9.312094954267195"><ele>380.3333333333333</ele><time>2026-04-25T16:46:53Z</time></trkpt><trkpt lat="45.96103853818541" lon="9.311962427191283"><ele>377.0</ele><time>2026-04-25T16:46:56Z</time></trkpt><trkpt lat="45.96110088187879" lon="9.31187388454307"><ele>373.66666666666663</ele><time>2026-04-25T16:46:58Z</time></trkpt><trkpt lat="45.96120196274492" lon="9.311808941041209"><ele>370.3333333333333</ele><time>2026-04-25T16:47:00Z</time></trkpt><trkpt lat="45.961242442384325" lon="9.3117236659539"><ele>367.0</ele><time>2026-04-25T16:47:02Z</time></trkpt><trkpt lat="45.96126281127637" lon="9.311621295408777"><ele>367.0</ele><time>2026-04-25T16:47:04Z</time></trkpt><trkpt lat="45.96134339258734" lon="9.311549920186739"><ele>367.0</ele><time>2026-04-25T16:47:06Z</time></trkpt><trkpt lat="45.961405391811624" lon="9.311464598426571"><ele>367.0</ele><time>2026-04-25T16:47:08Z</time></trkpt><trkpt lat="45.96148879352911" lon="9.311392959241873"><ele>367.0</ele><time>2026-04-25T16:47:10Z</time></trkpt><trkpt lat="45.961571515502634" lon="9.311345979860395"><ele>367.0</ele><time>2026-04-25T16:47:12Z</time></trkpt><trkpt lat="45.96165887608549" lon="9.311315059159504"><ele>361.6</ele><time>2026-04-25T16:47:14Z</time></trkpt><trkpt lat="45.96177738649156" lon="9.311277457466575"><ele>356.20000000000005</ele><time>2026-04-25T16:47:16Z</time></trkpt><trkpt lat="45.961881296725785" lon="9.31123042371742"><ele>350.8</ele><time>2026-04-25T16:47:18Z</time></trkpt><trkpt lat="45.96198276379653" lon="9.311206022979565"><ele>345.4</ele><time>2026-04-25T16:47:20Z</time></trkpt><trkpt lat="45.96208739492868" lon="9.311174425285694"><ele>340.0</ele><time>2026-04-25T16:47:22Z</time></trkpt><trkpt lat="45.96218355816666" lon="9.311163864815436"><ele>340.0</ele><time>2026-04-25T16:47:24Z</time></trkpt><trkpt lat="45.96226541195624" lon="9.311212297589343"><ele>340.0</ele><time>2026-04-25T16:47:26Z</time></trkpt><trkpt lat="45.96233474992849" lon="9.311221208109044"><ele>340.0</ele><time>2026-04-25T16:47:29Z</time></trkpt><trkpt lat="45.96230302925345" lon="9.311092154604244"><ele>340.0</ele><time>2026-04-25T16:47:33Z</time></trkpt><trkpt lat="45.96228013144178" lon="9.310960605053536"><ele>340.0</ele><time>2026-04-25T16:47:35Z</time></trkpt><trkpt lat="45.96225072311119" lon="9.310838291803057"><ele>340.0</ele><time>2026-04-25T16:47:37Z</time></trkpt><trkpt lat="45.962169376674304" lon="9.310761225036481"><ele>340.0</ele><time>2026-04-25T16:47:39Z</time></trkpt><trkpt lat="45.962102953054504" lon="9.310691681814722"><ele>340.0</ele><time>2026-04-25T16:47:42Z</time></trkpt><trkpt lat="45.962059551786666" lon="9.310568966172262"><ele>340.0</ele><time>2026-04-25T16:47:43Z</time></trkpt><trkpt lat="45.96198428444454" lon="9.310509105580028"><ele>340.0</ele><time>2026-04-25T16:47:45Z</time></trkpt><trkpt lat="45.96190623771124" lon="9.310510730865035"><ele>340.0</ele><time>2026-04-25T16:47:47Z</time></trkpt><trkpt lat="45.961842278122454" lon="9.310579643210561"><ele>340.0</ele><time>2026-04-25T16:47:49Z</time></trkpt><trkpt lat="45.961780277297756" lon="9.310673447257768"><ele>340.0</ele><time>2026-04-25T16:47:51Z</time></trkpt><trkpt lat="45.961707923787884" lon="9.31072507548125"><ele>340.0</ele><time>2026-04-25T16:47:53Z</time></trkpt><trkpt lat="45.961620206645" lon="9.310715685254554"><ele>340.0</ele><time>2026-04-25T16:47:55Z</time></trkpt><trkpt lat="45.96155343422907" lon="9.310733583773258"><ele>340.0</ele><time>2026-04-25T16:47:57Z</time></trkpt><trkpt lat="45.961461571484264" lon="9.310759707891835"><ele>340.0</ele><time>2026-04-25T16:48:00Z</time></trkpt><trkpt lat="45.96139770099249" lon="9.310771356467377"><ele>340.0</ele><time>2026-04-25T16:48:03Z</time></trkpt><trkpt lat="45.96133561726502" lon="9.31071906930067"><ele>339.3333333333333</ele><time>2026-04-25T16:48:16Z</time></trkpt><trkpt lat="45.96125600499322" lon="9.31067520379537"><ele>338.66666666666663</ele><time>2026-04-25T16:48:19Z</time></trkpt><trkpt lat="45.96120852920391" lon="9.310591438919076"><ele>338.0</ele><time>2026-04-25T16:48:23Z</time></trkpt><trkpt lat="45.96113641012142" lon="9.310533993125505"><ele>337.3333333333333</ele><time>2026-04-25T16:48:26Z</time></trkpt><trkpt lat="45.96113882997856" lon="9.310419701091524"><ele>336.6666666666667</ele><time>2026-04-25T16:48:29Z</time></trkpt><trkpt lat="45.96115319745958" lon="9.310298292127717"><ele>336.0</ele><time>2026-04-25T16:48:32Z</time></trkpt><trkpt lat="45.96107985335219" lon="9.310243211997017"><ele>333.0</ele><time>2026-04-25T16:48:37Z</time></trkpt><trkpt lat="45.96099299847806" lon="9.310224382520202"><ele>330.0</ele><time>2026-04-25T16:48:40Z</time></trkpt><trkpt lat="45.960977086115506" lon="9.310113521914928"><ele>327.0</ele><time>2026-04-25T16:48:42Z</time></trkpt><trkpt lat="45.96097584051684" lon="9.310009035597115"><ele>324.0</ele><time>2026-04-25T16:48:44Z</time></trkpt><trkpt lat="45.96095977497114" lon="9.309918780652227"><ele>321.0</ele><time>2026-04-25T16:48:46Z</time></trkpt><trkpt lat="45.96092125539233" lon="9.309829574517964"><ele>318.0</ele><time>2026-04-25T16:48:50Z</time></trkpt><trkpt lat="45.960954499968054" lon="9.309746855179483"><ele>315.0</ele><time>2026-04-25T16:48:54Z</time></trkpt><trkpt lat="45.960905773298954" lon="9.309804230779566"><ele>315.0</ele><time>2026-04-25T16:54:31Z</time></trkpt><trkpt lat="45.9608421253516" lon="9.309825371100379"><ele>315.0</ele><time>2026-04-25T16:54:38Z</time></trkpt><trkpt lat="45.96077532394177" lon="9.309837185271046"><ele>315.0</ele><time>2026-04-25T16:54:43Z</time></trkpt><trkpt lat="45.96071321916622" lon="9.309852385864112"><ele>315.0</ele><time>2026-04-25T16:54:55Z</time></trkpt><trkpt lat="45.96078565279178" lon="9.309841371189002"><ele>315.0</ele><time>2026-04-25T16:56:11Z</time></trkpt><trkpt lat="45.96084830969226" lon="9.309815152329124"><ele>315.0</ele><time>2026-04-25T16:56:18Z</time></trkpt><trkpt lat="45.96091215415664" lon="9.30978627636773"><ele>315.0</ele><time>2026-04-25T16:56:26Z</time></trkpt><trkpt lat="45.96095200866155" lon="9.309860183379412"><ele>315.0</ele><time>2026-04-25T16:57:25Z</time></trkpt><trkpt lat="45.96096131375735" lon="9.309957415897767"><ele>315.0</ele><time>2026-04-25T16:57:37Z</time></trkpt><trkpt lat="45.96097745311797" lon="9.310045230182112"><ele>315.0</ele><time>2026-04-25T16:57:49Z</time></trkpt><trkpt lat="45.960974712997825" lon="9.310142046274459"><ele>315.0</ele><time>2026-04-25T16:58:00Z</time></trkpt><trkpt lat="45.96099626779025" lon="9.310234130167766"><ele>315.0</ele><time>2026-04-25T16:58:10Z</time></trkpt><trkpt lat="45.96106345272372" lon="9.310235893325284"><ele>315.0</ele><time>2026-04-25T16:58:19Z</time></trkpt><trkpt lat="45.96114053965225" lon="9.310266438582785"><ele>315.0</ele><time>2026-04-25T16:58:28Z</time></trkpt><trkpt lat="45.961141350693204" lon="9.31035743668492"><ele>315.0</ele><time>2026-04-25T16:58:40Z</time></trkpt><trkpt lat="45.96113072211213" lon="9.310449685954747"><ele>315.0</ele><time>2026-04-25T16:58:48Z</time></trkpt><trkpt lat="45.961132833461" lon="9.31054436653225"><ele>315.0</ele><time>2026-04-25T16:58:57Z</time></trkpt><trkpt lat="45.96119121828007" lon="9.310587410383"><ele>315.0</ele><time>2026-04-25T16:59:05Z</time></trkpt><trkpt lat="45.96113564292489" lon="9.310728191799283"><ele>315.0</ele><time>2026-04-25T17:01:14Z</time></trkpt><trkpt lat="45.96119113895487" lon="9.310642334169811"><ele>315.0</ele><time>2026-04-25T17:01:20Z</time></trkpt><trkpt lat="45.96120011058289" lon="9.310544259507274"><ele>315.0</ele><time>2026-04-25T17:01:23Z</time></trkpt><trkpt lat="45.96123951384233" lon="9.310468864738278"><ele>315.0</ele><time>2026-04-25T17:01:28Z</time></trkpt><trkpt lat="45.961187693681104" lon="9.310040977400538"><ele>315.0</ele><time>2026-04-25T17:05:41.022Z</time></trkpt></trkseg></trk></gpx>